Time,TemperatureF,DewpointF,PressureIn,WindDirection,WindDirectionDegrees,WindSpeedMPH,WindSpeedGustMPH,Humidity,HourlyPrecipIn,Conditions,Clouds,dailyrainin,SolarRadiationWatts/m^2,SoftwareType,DateUTC
2013-12-28 00:00:00,47.5,29.8,29.47,NW,313,3.6,3.7,49,-99.99,,,0.00,0,rob ver 1B,2013-12-28 07:00:00,
2013-12-28 00:01:00,47.4,29.8,29.47,NW,308,3.7,3.7,50,-99.99,,,0.00,0,rob ver 1B,2013-12-28 07:01:00,
2013-12-28 00:02:00,47.4,29.7,29.47,WNW,303,3.7,3.9,49,-99.99,,,0.00,0,rob ver 1B,2013-12-28 07:02:00,
2013-12-28 00:03:00,47.5,29.7,29.47,WNW,303,3.8,4.0,49,-99.99,,,0.00,0,rob ver 1B,2013-12-28 07:03:00,
2013-12-28 00:04:00,47.5,29.7,29.47,NW,309,3.5,3.6,49,-99.99,,,0.00,0,rob ver 1B,2013-12-28 07:04:00,
2013-12-28 00:05:00,47.4,29.6,29.47,NW,320,3.5,3.7,49,-99.99,,,0.00,0,rob ver 1B,2013-12-28 07:05:00,
2013-12-28 00:06:00,47.4,29.4,29.47,NNW,330,3.3,3.7,49,-99.99,,,0.00,0,rob ver 1B,2013-12-28 07:06:00,
2013-12-28 00:07:00,47.2,29.3,29.47,NNW,328,3.3,4.2,49,-99.99,,,0.00,0,rob ver 1B,2013-12-28 07:07:00,
2013-12-28 00:08:00,47.2,29.1,29.47,NW,323,3.4,4.0,49,-99.99,,,0.00,0,rob ver 1B,2013-12-28 07:08:00,
2013-12-28 00:09:00,47.2,29.1,29.44,NW,323,3.2,3.7,49,-99.99,,,0.00,0,rob ver 1B,2013-12-28 07:09:00,
2013-12-28 00:10:00,47.2,29.0,29.47,NW,326,2.9,3.4,48,-99.99,,,0.00,0,rob ver 1B,2013-12-28 07:10:00,
2013-12-28 00:11:00,47.2,29.0,29.47,NNW,330,2.6,3.0,48,-99.99,,,0.00,0,rob ver 1B,2013-12-28 07:11:00,
2013-12-28 00:12:00,47.3,29.0,29.44,NNW,341,2.3,2.6,48,-99.99,,,0.00,0,rob ver 1B,2013-12-28 07:12:00,
2013-12-28 00:13:00,47.3,29.0,29.44,NNW,346,2.5,2.8,48,-99.99,,,0.00,0,rob ver 1B,2013-12-28 07:13:00,
2013-12-28 00:14:00,47.2,28.9,29.44,NNW,343,2.2,2.6,48,-99.99,,,0.00,0,rob ver 1B,2013-12-28 07:14:00,
2013-12-28 00:15:00,47.2,28.8,29.44,NW,325,1.8,1.9,48,-99.99,,,0.00,0,rob ver 1B,2013-12-28 07:15:00,
2013-12-28 00:16:00,47.2,28.8,29.44,NW,310,1.7,1.9,48,-99.99,,,0.00,0,rob ver 1B,2013-12-28 07:16:00,
2013-12-28 00:17:00,47.2,28.8,29.44,NW,304,1.5,1.7,48,-99.99,,,0.00,0,rob ver 1B,2013-12-28 07:17:00,
2013-12-28 00:18:00,47.2,28.9,29.44,WNW,303,1.4,1.6,48,-99.99,,,0.00,0,rob ver 1B,2013-12-28 07:18:00,
2013-12-28 00:19:00,47.2,28.8,29.44,NW,308,1.8,2.0,48,-99.99,,,0.00,0,rob ver 1B,2013-12-28 07:19:00,
2013-12-28 00:20:00,47.2,28.7,29.44,NW,311,2.4,2.7,48,-99.99,,,0.00,0,rob ver 1B,2013-12-28 07:20:00,
2013-12-28 00:21:00,47.2,28.7,29.44,NW,310,2.7,3.0,48,-99.99,,,0.00,0,rob ver 1B,2013-12-28 07:21:00,
2013-12-28 00:22:00,47.2,28.7,29.44,NW,313,2.7,2.9,48,-99.99,,,0.00,0,rob ver 1B,2013-12-28 07:22:00,
2013-12-28 00:23:00,47.2,28.7,29.44,NW,315,2.5,2.7,48,-99.99,,,0.00,0,rob ver 1B,2013-12-28 07:23:00,
2013-12-28 00:24:00,47.2,28.6,29.44,NW,318,2.6,2.9,48,-99.99,,,0.00,0,rob ver 1B,2013-12-28 07:24:00,
2013-12-28 00:25:00,47.2,28.6,29.44,NW,320,2.7,2.8,48,-99.99,,,0.00,0,rob ver 1B,2013-12-28 07:25:00,
2013-12-28 00:26:00,47.1,28.6,29.44,NW,322,2.8,3.1,48,-99.99,,,0.00,0,rob ver 1B,2013-12-28 07:26:00,
2013-12-28 00:27:00,47.0,28.5,29.44,NW,323,2.8,3.3,48,-99.99,,,0.00,0,rob ver 1B,2013-12-28 07:27:00,
2013-12-28 00:28:00,47.0,28.4,29.44,NNW,328,2.7,3.1,47,-99.99,,,0.00,0,rob ver 1B,2013-12-28 07:28:00,
2013-12-28 00:29:00,47.1,28.3,29.44,NW,323,2.9,3.5,47,-99.99,,,0.00,0,rob ver 1B,2013-12-28 07:29:00,
2013-12-28 00:30:00,47.1,28.3,29.44,NW,311,3.0,3.4,47,-99.99,,,0.00,0,rob ver 1B,2013-12-28 07:30:00,
2013-12-28 00:31:00,47.1,28.5,29.47,WNW,300,3.2,3.7,48,-99.99,,,0.00,0,rob ver 1B,2013-12-28 07:31:00,
2013-12-28 00:32:00,46.8,28.6,29.44,WNW,282,4.0,4.3,49,-99.99,,,0.00,0,rob ver 1B,2013-12-28 07:32:00,
2013-12-28 00:33:00,46.5,28.8,29.47,West,275,4.4,4.6,49,-99.99,,,0.00,0,rob ver 1B,2013-12-28 07:33:00,
2013-12-28 00:34:00,46.4,28.9,29.47,West,274,3.8,4.3,50,-99.99,,,0.00,0,rob ver 1B,2013-12-28 07:34:00,
2013-12-28 00:35:00,46.3,29.0,29.44,West,275,3.5,3.7,50,-99.99,,,0.00,0,rob ver 1B,2013-12-28 07:35:00,
2013-12-28 00:36:00,46.2,28.7,29.44,WNW,286,3.5,3.7,49,-99.99,,,0.00,0,rob ver 1B,2013-12-28 07:36:00,
2013-12-28 00:37:00,46.4,28.3,29.47,WNW,294,3.8,4.0,48,-99.99,,,0.00,0,rob ver 1B,2013-12-28 07:37:00,
2013-12-28 00:38:00,46.7,28.1,29.44,WNW,298,4.1,4.4,47,-99.99,,,0.00,0,rob ver 1B,2013-12-28 07:38:00,
2013-12-28 00:39:00,47.2,28.0,29.44,WNW,294,4.5,4.8,46,-99.99,,,0.00,0,rob ver 1B,2013-12-28 07:39:00,
2013-12-28 00:40:00,47.4,28.1,29.47,WNW,286,4.7,4.8,46,-99.99,,,0.00,0,rob ver 1B,2013-12-28 07:40:00,
2013-12-28 00:41:00,47.5,28.3,29.44,West,281,4.7,4.8,47,-99.99,,,0.00,0,rob ver 1B,2013-12-28 07:41:00,
2013-12-28 00:42:00,47.4,28.4,29.44,WNW,296,4.5,4.7,47,-99.99,,,0.00,0,rob ver 1B,2013-12-28 07:42:00,
2013-12-28 00:43:00,47.3,28.2,29.44,NW,309,4.8,4.9,47,-99.99,,,0.00,0,rob ver 1B,2013-12-28 07:43:00,
2013-12-28 00:44:00,47.3,28.1,29.44,NW,315,4.8,5.1,47,-99.99,,,0.00,0,rob ver 1B,2013-12-28 07:44:00,
2013-12-28 00:45:00,47.4,28.0,29.44,NW,316,5.2,5.7,46,-99.99,,,0.00,0,rob ver 1B,2013-12-28 07:45:00,
2013-12-28 00:46:00,47.6,27.8,29.44,NW,317,5.3,6.0,45,-99.99,,,0.00,0,rob ver 1B,2013-12-28 07:46:00,
2013-12-28 00:47:00,47.9,27.7,29.47,NW,314,5.6,5.9,45,-99.99,,,0.00,0,rob ver 1B,2013-12-28 07:47:00,
2013-12-28 00:48:00,48.0,27.7,29.44,NW,313,5.5,5.7,44,-99.99,,,0.00,0,rob ver 1B,2013-12-28 07:48:00,
2013-12-28 00:49:00,48.1,27.6,29.44,NW,310,5.7,5.9,44,-99.99,,,0.00,0,rob ver 1B,2013-12-28 07:49:00,
2013-12-28 00:50:00,48.1,27.7,29.47,NW,311,5.7,5.9,44,-99.99,,,0.00,0,rob ver 1B,2013-12-28 07:50:00,
2013-12-28 00:51:00,48.1,27.7,29.44,NW,317,5.1,5.5,44,-99.99,,,0.00,0,rob ver 1B,2013-12-28 07:51:00,
2013-12-28 00:52:00,48.1,27.6,29.44,NW,322,5.1,5.7,44,-99.99,,,0.00,0,rob ver 1B,2013-12-28 07:52:00,
2013-12-28 00:53:00,48.3,27.5,29.47,NW,324,4.5,5.5,44,-99.99,,,0.00,0,rob ver 1B,2013-12-28 07:53:00,
2013-12-28 00:54:00,48.4,27.6,29.44,NW,320,4.2,5.4,44,-99.99,,,0.00,0,rob ver 1B,2013-12-28 07:54:00,
2013-12-28 00:55:00,48.3,27.6,29.44,NW,319,4.0,4.7,44,-99.99,,,0.00,0,rob ver 1B,2013-12-28 07:55:00,
2013-12-28 00:56:00,48.2,27.6,29.44,NW,318,3.9,4.3,44,-99.99,,,0.00,0,rob ver 1B,2013-12-28 07:56:00,
2013-12-28 00:57:00,48.1,27.6,29.44,NW,320,3.9,4.1,44,-99.99,,,0.00,0,rob ver 1B,2013-12-28 07:57:00,
2013-12-28 00:58:00,48.0,27.5,29.44,NW,319,4.0,4.2,44,-99.99,,,0.00,0,rob ver 1B,2013-12-28 07:58:00,
2013-12-28 00:59:00,48.0,27.3,29.44,NW,318,3.8,4.0,44,-99.99,,,0.00,0,rob ver 1B,2013-12-28 07:59:00,
2013-12-28 01:00:00,48.1,27.3,29.44,NW,314,3.5,3.7,44,-99.99,,,0.00,0,rob ver 1B,2013-12-28 08:00:00,
2013-12-28 01:01:00,48.1,27.6,29.44,WNW,297,2.7,3.4,45,-99.99,,,0.00,0,rob ver 1B,2013-12-28 08:01:00,
2013-12-28 01:02:00,47.8,28.2,29.44,WNW,292,2.6,2.9,46,-99.99,,,0.00,0,rob ver 1B,2013-12-28 08:02:00,
2013-12-28 01:03:00,47.3,28.4,29.47,West,280,2.9,3.2,48,-99.99,,,0.00,0,rob ver 1B,2013-12-28 08:03:00,
2013-12-28 01:04:00,46.9,28.2,29.44,WNW,287,3.2,3.4,47,-99.99,,,0.00,0,rob ver 1B,2013-12-28 08:04:00,
2013-12-28 01:05:00,46.7,28.0,29.44,WNW,287,3.0,3.4,48,-99.99,,,0.00,0,rob ver 1B,2013-12-28 08:05:00,
2013-12-28 01:06:00,46.6,28.3,29.47,West,279,2.1,2.6,49,-99.99,,,0.00,0,rob ver 1B,2013-12-28 08:06:00,
2013-12-28 01:07:00,46.4,28.4,29.44,West,279,1.9,2.2,49,-99.99,,,0.00,0,rob ver 1B,2013-12-28 08:07:00,
2013-12-28 01:08:00,46.1,28.3,29.44,WNW,289,2.4,2.7,49,-99.99,,,0.00,0,rob ver 1B,2013-12-28 08:08:00,
2013-12-28 01:09:00,46.0,28.0,29.44,WNW,291,2.8,3.1,48,-99.99,,,0.00,0,rob ver 1B,2013-12-28 08:09:00,
2013-12-28 01:10:00,46.2,27.8,29.44,WNW,284,3.0,3.6,48,-99.99,,,0.00,0,rob ver 1B,2013-12-28 08:10:00,
2013-12-28 01:11:00,46.4,28.1,29.44,West,260,2.7,3.0,49,-99.99,,,0.00,0,rob ver 1B,2013-12-28 08:11:00,
2013-12-28 01:12:00,46.3,28.4,29.44,WSW,252,2.4,2.8,49,-99.99,,,0.00,0,rob ver 1B,2013-12-28 08:12:00,
2013-12-28 01:13:00,46.0,28.4,29.44,West,265,2.5,2.7,50,-99.99,,,0.00,0,rob ver 1B,2013-12-28 08:13:00,
2013-12-28 01:14:00,45.8,28.3,29.44,West,275,2.3,2.5,50,-99.99,,,0.00,0,rob ver 1B,2013-12-28 08:14:00,
2013-12-28 01:15:00,45.7,28.3,29.44,West,277,2.2,2.5,50,-99.99,,,0.00,0,rob ver 1B,2013-12-28 08:15:00,
2013-12-28 01:16:00,45.7,28.2,29.44,West,269,2.9,3.4,49,-99.99,,,0.00,0,rob ver 1B,2013-12-28 08:16:00,
2013-12-28 01:17:00,45.8,28.3,29.44,WSW,255,3.4,3.7,50,-99.99,,,0.00,0,rob ver 1B,2013-12-28 08:17:00,
2013-12-28 01:18:00,45.7,28.4,29.44,WSW,256,3.7,3.9,50,-99.99,,,0.00,0,rob ver 1B,2013-12-28 08:18:00,
2013-12-28 01:19:00,45.5,28.5,29.44,West,262,3.5,3.9,51,-99.99,,,0.00,0,rob ver 1B,2013-12-28 08:19:00,
2013-12-28 01:20:00,45.3,28.6,29.44,West,264,3.7,4.2,52,-99.99,,,0.00,0,rob ver 1B,2013-12-28 08:20:00,
2013-12-28 01:21:00,45.1,28.8,29.44,West,274,4.2,4.4,52,-99.99,,,0.00,0,rob ver 1B,2013-12-28 08:21:00,
2013-12-28 01:22:00,44.9,28.7,29.44,West,271,4.3,4.4,53,-99.99,,,0.00,0,rob ver 1B,2013-12-28 08:22:00,
2013-12-28 01:23:00,44.7,28.8,29.44,West,265,4.3,4.4,53,-99.99,,,0.00,0,rob ver 1B,2013-12-28 08:23:00,
2013-12-28 01:24:00,44.5,28.9,29.44,West,269,4.2,4.3,54,-99.99,,,0.00,0,rob ver 1B,2013-12-28 08:24:00,
2013-12-28 01:25:00,44.3,28.9,29.44,West,278,4.4,4.7,54,-99.99,,,0.00,0,rob ver 1B,2013-12-28 08:25:00,
2013-12-28 01:26:00,44.3,28.9,29.44,WNW,285,4.8,5.1,54,-99.99,,,0.00,0,rob ver 1B,2013-12-28 08:26:00,
2013-12-28 01:27:00,44.5,29.1,29.44,WNW,285,4.9,5.1,54,-99.99,,,0.00,0,rob ver 1B,2013-12-28 08:27:00,
2013-12-28 01:28:00,44.5,29.0,29.44,West,271,4.8,5.1,54,-99.99,,,0.00,0,rob ver 1B,2013-12-28 08:28:00,
2013-12-28 01:29:00,44.4,29.1,29.44,West,274,4.5,4.8,55,-99.99,,,0.00,0,rob ver 1B,2013-12-28 08:29:00,
2013-12-28 01:30:00,44.3,29.2,29.44,WNW,284,4.4,4.6,55,-99.99,,,0.00,0,rob ver 1B,2013-12-28 08:30:00,
2013-12-28 01:31:00,44.1,29.3,29.44,West,274,4.1,4.4,55,-99.99,,,0.00,0,rob ver 1B,2013-12-28 08:31:00,
2013-12-28 01:32:00,44.0,29.4,29.44,West,276,4.1,4.2,56,-99.99,,,0.00,0,rob ver 1B,2013-12-28 08:32:00,
2013-12-28 01:33:00,43.9,29.4,29.44,West,274,4.1,4.5,56,-99.99,,,0.00,0,rob ver 1B,2013-12-28 08:33:00,
2013-12-28 01:34:00,43.9,29.5,29.44,West,278,4.5,4.6,56,-99.99,,,0.00,0,rob ver 1B,2013-12-28 08:34:00,
2013-12-28 01:35:00,43.9,29.5,29.44,WNW,283,4.3,4.5,56,-99.99,,,0.00,0,rob ver 1B,2013-12-28 08:35:00,
2013-12-28 01:36:00,43.9,29.5,29.44,WNW,287,4.0,4.2,56,-99.99,,,0.00,0,rob ver 1B,2013-12-28 08:36:00,
2013-12-28 01:37:00,43.8,29.5,29.44,WNW,290,3.8,3.9,56,-99.99,,,0.00,0,rob ver 1B,2013-12-28 08:37:00,
2013-12-28 01:38:00,43.7,29.5,29.44,WNW,293,4.0,4.2,57,-99.99,,,0.00,0,rob ver 1B,2013-12-28 08:38:00,
2013-12-28 01:39:00,43.6,29.5,29.44,WNW,291,4.1,4.6,57,-99.99,,,0.00,0,rob ver 1B,2013-12-28 08:39:00,
2013-12-28 01:40:00,43.5,29.5,29.44,WNW,287,4.4,4.7,57,-99.99,,,0.00,0,rob ver 1B,2013-12-28 08:40:00,
2013-12-28 01:41:00,43.3,29.5,29.44,WNW,290,4.3,4.5,58,-99.99,,,0.00,0,rob ver 1B,2013-12-28 08:41:00,
2013-12-28 01:42:00,43.1,29.6,29.44,WNW,294,3.9,4.3,58,-99.99,,,0.00,0,rob ver 1B,2013-12-28 08:42:00,
2013-12-28 01:43:00,43.1,29.6,29.44,WNW,294,4.1,4.5,58,-99.99,,,0.00,0,rob ver 1B,2013-12-28 08:43:00,
2013-12-28 01:44:00,43.0,29.6,29.44,WNW,295,4.4,4.6,58,-99.99,,,0.00,0,rob ver 1B,2013-12-28 08:44:00,
2013-12-28 01:45:00,43.0,29.6,29.44,WNW,292,4.5,4.8,59,-99.99,,,0.00,0,rob ver 1B,2013-12-28 08:45:00,
2013-12-28 01:46:00,42.9,29.7,29.44,WNW,292,4.7,5.1,59,-99.99,,,0.00,0,rob ver 1B,2013-12-28 08:46:00,
2013-12-28 01:47:00,42.9,29.6,29.44,WNW,292,4.9,5.5,58,-99.99,,,0.00,0,rob ver 1B,2013-12-28 08:47:00,
2013-12-28 01:48:00,43.0,29.5,29.44,WNW,289,5.2,5.6,58,-99.99,,,0.00,0,rob ver 1B,2013-12-28 08:48:00,
2013-12-28 01:49:00,43.0,29.6,29.44,WNW,288,5.4,6.0,58,-99.99,,,0.00,0,rob ver 1B,2013-12-28 08:49:00,
2013-12-28 01:50:00,43.0,29.6,29.44,WNW,291,5.6,6.0,58,-99.99,,,0.00,0,rob ver 1B,2013-12-28 08:50:00,
2013-12-28 01:51:00,43.1,29.6,29.44,WNW,295,5.3,6.1,58,-99.99,,,0.00,0,rob ver 1B,2013-12-28 08:51:00,
2013-12-28 01:52:00,43.2,29.6,29.44,WNW,299,5.3,6.2,58,-99.99,,,0.00,0,rob ver 1B,2013-12-28 08:52:00,
2013-12-28 01:53:00,43.3,29.5,29.44,WNW,302,5.3,5.8,57,-99.99,,,0.00,0,rob ver 1B,2013-12-28 08:53:00,
2013-12-28 01:54:00,43.3,29.5,29.44,WNW,301,5.4,5.8,58,-99.99,,,0.00,0,rob ver 1B,2013-12-28 08:54:00,
2013-12-28 01:55:00,43.2,29.5,29.44,WNW,301,5.6,6.0,58,-99.99,,,0.00,0,rob ver 1B,2013-12-28 08:55:00,
2013-12-28 01:56:00,43.2,29.6,29.44,WNW,295,5.3,5.8,58,-99.99,,,0.00,0,rob ver 1B,2013-12-28 08:56:00,
2013-12-28 01:57:00,43.2,29.6,29.44,WNW,294,5.2,5.7,58,-99.99,,,0.00,0,rob ver 1B,2013-12-28 08:57:00,
2013-12-28 01:58:00,43.1,29.6,29.44,WNW,294,5.1,5.4,58,-99.99,,,0.00,0,rob ver 1B,2013-12-28 08:58:00,
2013-12-28 01:59:00,43.1,29.6,29.44,WNW,291,5.1,5.5,58,-99.99,,,0.00,0,rob ver 1B,2013-12-28 08:59:00,
2013-12-28 02:00:00,43.0,29.7,29.44,WNW,290,5.1,5.5,58,-99.99,,,0.00,0,rob ver 1B,2013-12-28 09:00:00,
2013-12-28 02:01:00,43.0,29.7,29.44,WNW,291,5.2,5.5,58,-99.99,,,0.00,0,rob ver 1B,2013-12-28 09:01:00,
2013-12-28 02:02:00,43.0,29.6,29.44,WNW,288,4.9,5.9,58,-99.99,,,0.00,0,rob ver 1B,2013-12-28 09:02:00,
2013-12-28 02:03:00,42.9,29.6,29.44,WNW,293,4.4,5.0,59,-99.99,,,0.00,0,rob ver 1B,2013-12-28 09:03:00,
2013-12-28 02:04:00,42.9,29.6,29.44,WNW,297,4.1,4.6,59,-99.99,,,0.00,0,rob ver 1B,2013-12-28 09:04:00,
2013-12-28 02:05:00,42.9,29.6,29.44,NW,309,3.9,4.2,59,-99.99,,,0.00,0,rob ver 1B,2013-12-28 09:05:00,
2013-12-28 02:06:00,42.9,29.6,29.44,NW,319,4.2,4.5,59,-99.99,,,0.00,0,rob ver 1B,2013-12-28 09:06:00,
2013-12-28 02:07:00,42.9,29.6,29.44,NNW,327,4.1,4.7,58,-99.99,,,0.00,0,rob ver 1B,2013-12-28 09:07:00,
2013-12-28 02:08:00,43.0,29.5,29.44,NW,320,3.9,4.7,58,-99.99,,,0.00,0,rob ver 1B,2013-12-28 09:08:00,
2013-12-28 02:09:00,43.2,29.5,29.44,NW,312,3.7,4.7,57,-99.99,,,0.00,0,rob ver 1B,2013-12-28 09:09:00,
2013-12-28 02:10:00,43.3,29.5,29.44,NW,309,3.0,3.4,57,-99.99,,,0.00,0,rob ver 1B,2013-12-28 09:10:00,
2013-12-28 02:11:00,43.4,29.4,29.44,WNW,303,2.7,2.9,57,-99.99,,,0.00,0,rob ver 1B,2013-12-28 09:11:00,
2013-12-28 02:12:00,43.3,29.5,29.44,WNW,299,2.8,3.0,57,-99.99,,,0.00,0,rob ver 1B,2013-12-28 09:12:00,
2013-12-28 02:13:00,43.3,29.5,29.44,WNW,287,3.1,3.4,57,-99.99,,,0.00,0,rob ver 1B,2013-12-28 09:13:00,
2013-12-28 02:14:00,43.4,29.4,29.44,West,279,3.5,3.6,57,-99.99,,,0.00,0,rob ver 1B,2013-12-28 09:14:00,
2013-12-28 02:15:00,43.5,29.4,29.44,West,275,3.4,3.7,56,-99.99,,,0.00,0,rob ver 1B,2013-12-28 09:15:00,
2013-12-28 02:16:00,43.6,29.3,29.44,West,274,3.2,3.3,56,-99.99,,,0.00,0,rob ver 1B,2013-12-28 09:16:00,
2013-12-28 02:17:00,43.6,29.4,29.44,West,269,2.8,3.2,57,-99.99,,,0.00,0,rob ver 1B,2013-12-28 09:17:00,
2013-12-28 02:18:00,43.5,29.4,29.44,West,269,2.5,2.8,56,-99.99,,,0.00,0,rob ver 1B,2013-12-28 09:18:00,
2013-12-28 02:19:00,43.5,29.3,29.44,West,266,2.4,2.7,57,-99.99,,,0.00,0,rob ver 1B,2013-12-28 09:19:00,
2013-12-28 02:20:00,43.4,29.3,29.44,WSW,255,2.4,2.6,57,-99.99,,,0.00,0,rob ver 1B,2013-12-28 09:20:00,
2013-12-28 02:21:00,43.3,29.2,29.44,WSW,249,1.7,2.2,57,-99.99,,,0.00,0,rob ver 1B,2013-12-28 09:21:00,
2013-12-28 02:22:00,43.1,29.3,29.44,West,264,1.7,2.3,58,-99.99,,,0.00,0,rob ver 1B,2013-12-28 09:22:00,
2013-12-28 02:23:00,43.0,29.2,29.44,West,262,1.2,1.5,58,-99.99,,,0.00,0,rob ver 1B,2013-12-28 09:23:00,
2013-12-28 02:24:00,42.8,29.2,29.44,WSW,254,1.6,1.9,58,-99.99,,,0.00,0,rob ver 1B,2013-12-28 09:24:00,
2013-12-28 02:25:00,42.6,29.3,29.44,WNW,297,2.1,2.5,58,-99.99,,,0.00,0,rob ver 1B,2013-12-28 09:25:00,
2013-12-28 02:26:00,42.7,29.2,29.44,WNW,296,2.4,2.7,58,-99.99,,,0.00,0,rob ver 1B,2013-12-28 09:26:00,
2013-12-28 02:27:00,42.9,29.0,29.44,WNW,293,2.5,2.8,57,-99.99,,,0.00,0,rob ver 1B,2013-12-28 09:27:00,
2013-12-28 02:28:00,43.3,28.8,29.44,WNW,294,2.8,3.5,55,-99.99,,,0.00,0,rob ver 1B,2013-12-28 09:28:00,
2013-12-28 02:29:00,43.7,28.6,29.44,WNW,291,3.5,4.2,54,-99.99,,,0.00,0,rob ver 1B,2013-12-28 09:29:00,
2013-12-28 02:30:00,44.2,28.3,29.44,WNW,288,4.5,5.5,52,-99.99,,,0.00,0,rob ver 1B,2013-12-28 09:30:00,
2013-12-28 02:31:00,44.6,28.1,29.44,WNW,284,5.1,5.6,51,-99.99,,,0.00,0,rob ver 1B,2013-12-28 09:31:00,
2013-12-28 02:32:00,45.1,28.0,29.44,West,279,5.5,5.7,50,-99.99,,,0.00,0,rob ver 1B,2013-12-28 09:32:00,
2013-12-28 02:33:00,45.4,28.1,29.44,West,273,5.6,5.7,50,-99.99,,,0.00,0,rob ver 1B,2013-12-28 09:33:00,
2013-12-28 02:34:00,45.3,28.3,29.44,West,272,5.8,6.4,51,-99.99,,,0.00,0,rob ver 1B,2013-12-28 09:34:00,
2013-12-28 02:35:00,45.1,28.0,29.44,West,275,6.3,6.7,50,-99.99,,,0.00,0,rob ver 1B,2013-12-28 09:35:00,
2013-12-28 02:36:00,45.0,27.9,29.44,West,278,6.2,7.0,50,-99.99,,,0.00,0,rob ver 1B,2013-12-28 09:36:00,
2013-12-28 02:37:00,45.1,27.7,29.44,WNW,282,5.9,6.3,50,-99.99,,,0.00,0,rob ver 1B,2013-12-28 09:37:00,
2013-12-28 02:38:00,45.0,27.8,29.44,WNW,284,5.6,6.1,50,-99.99,,,0.00,0,rob ver 1B,2013-12-28 09:38:00,
2013-12-28 02:39:00,44.9,27.8,29.44,WNW,284,5.4,5.8,50,-99.99,,,0.00,0,rob ver 1B,2013-12-28 09:39:00,
2013-12-28 02:40:00,44.8,27.6,29.44,WNW,288,5.1,5.9,50,-99.99,,,0.00,0,rob ver 1B,2013-12-28 09:40:00,
2013-12-28 02:41:00,44.7,27.6,29.47,WNW,289,4.8,5.6,50,-99.99,,,0.00,0,rob ver 1B,2013-12-28 09:41:00,
2013-12-28 02:42:00,44.7,27.5,29.44,WNW,290,4.5,5.0,50,-99.99,,,0.00,0,rob ver 1B,2013-12-28 09:42:00,
2013-12-28 02:43:00,44.7,27.4,29.44,WNW,294,4.1,5.0,50,-99.99,,,0.00,0,rob ver 1B,2013-12-28 09:43:00,
2013-12-28 02:44:00,44.7,27.2,29.44,WNW,297,4.2,4.8,49,-99.99,,,0.00,0,rob ver 1B,2013-12-28 09:44:00,
2013-12-28 02:45:00,44.9,27.0,29.44,WNW,295,4.5,5.5,48,-99.99,,,0.00,0,rob ver 1B,2013-12-28 09:45:00,
2013-12-28 02:46:00,45.1,26.8,29.44,WNW,291,4.6,5.1,48,-99.99,,,0.00,0,rob ver 1B,2013-12-28 09:46:00,
2013-12-28 02:47:00,45.4,26.6,29.44,WNW,288,4.5,4.8,47,-99.99,,,0.00,0,rob ver 1B,2013-12-28 09:47:00,
2013-12-28 02:48:00,45.6,26.5,29.44,WNW,283,4.2,5.2,46,-99.99,,,0.00,0,rob ver 1B,2013-12-28 09:48:00,
2013-12-28 02:49:00,45.8,26.4,29.44,WNW,283,4.3,4.9,46,-99.99,,,0.00,0,rob ver 1B,2013-12-28 09:49:00,
2013-12-28 02:50:00,45.9,26.5,29.44,West,279,4.0,4.4,46,-99.99,,,0.00,0,rob ver 1B,2013-12-28 09:50:00,
2013-12-28 02:51:00,45.8,26.4,29.44,West,279,3.8,4.3,46,-99.99,,,0.00,0,rob ver 1B,2013-12-28 09:51:00,
2013-12-28 02:52:00,45.8,26.3,29.44,West,277,3.6,3.9,46,-99.99,,,0.00,0,rob ver 1B,2013-12-28 09:52:00,
2013-12-28 02:53:00,45.8,26.2,29.44,WNW,282,3.9,4.2,45,-99.99,,,0.00,0,rob ver 1B,2013-12-28 09:53:00,
2013-12-28 02:54:00,45.9,26.1,29.44,WNW,286,4.0,4.3,45,-99.99,,,0.00,0,rob ver 1B,2013-12-28 09:54:00,
2013-12-28 02:55:00,46.1,26.1,29.44,WNW,288,3.7,4.0,45,-99.99,,,0.00,0,rob ver 1B,2013-12-28 09:55:00,
2013-12-28 02:56:00,46.1,26.2,29.44,WNW,282,3.8,4.0,45,-99.99,,,0.00,0,rob ver 1B,2013-12-28 09:56:00,
2013-12-28 02:57:00,46.0,26.5,29.44,West,259,3.4,3.7,46,-99.99,,,0.00,0,rob ver 1B,2013-12-28 09:57:00,
2013-12-28 02:58:00,45.7,26.9,29.44,WSW,253,3.8,4.2,48,-99.99,,,0.00,0,rob ver 1B,2013-12-28 09:58:00,
2013-12-28 02:59:00,45.1,27.3,29.44,WSW,252,4.8,5.3,50,-99.99,,,0.00,0,rob ver 1B,2013-12-28 09:59:00,
2013-12-28 03:00:00,44.5,27.5,29.44,West,270,5.1,5.5,51,-99.99,,,0.00,0,rob ver 1B,2013-12-28 10:00:00,
2013-12-28 03:01:00,44.1,27.5,29.44,West,275,5.4,5.7,51,-99.99,,,0.00,0,rob ver 1B,2013-12-28 10:01:00,
2013-12-28 03:02:00,43.9,27.5,29.44,WNW,283,5.2,5.5,52,-99.99,,,0.00,0,rob ver 1B,2013-12-28 10:02:00,
2013-12-28 03:03:00,43.7,27.5,29.44,WNW,289,4.9,5.4,52,-99.99,,,0.00,0,rob ver 1B,2013-12-28 10:03:00,
2013-12-28 03:04:00,43.7,27.4,29.44,WNW,292,4.3,4.7,52,-99.99,,,0.00,0,rob ver 1B,2013-12-28 10:04:00,
2013-12-28 03:05:00,43.7,27.4,29.44,WNW,289,3.9,4.5,52,-99.99,,,0.00,0,rob ver 1B,2013-12-28 10:05:00,
2013-12-28 03:06:00,43.6,27.5,29.44,WNW,301,3.4,3.6,52,-99.99,,,0.00,0,rob ver 1B,2013-12-28 10:06:00,
2013-12-28 03:07:00,43.6,27.5,29.44,NW,308,3.0,3.3,52,-99.99,,,0.00,0,rob ver 1B,2013-12-28 10:07:00,
2013-12-28 03:08:00,43.6,27.5,29.44,NW,322,2.2,2.7,52,-99.99,,,0.00,0,rob ver 1B,2013-12-28 10:08:00,
2013-12-28 03:09:00,43.6,27.5,29.44,North,1,1.9,2.6,52,-99.99,,,0.00,0,rob ver 1B,2013-12-28 10:09:00,
2013-12-28 03:10:00,43.4,27.3,29.44,NE,52,3.1,4.0,52,-99.99,,,0.00,0,rob ver 1B,2013-12-28 10:10:00,
2013-12-28 03:11:00,43.3,27.1,29.47,ENE,60,3.3,3.8,52,-99.99,,,0.00,0,rob ver 1B,2013-12-28 10:11:00,
2013-12-28 03:12:00,43.4,27.0,29.44,ENE,65,3.0,3.8,51,-99.99,,,0.00,0,rob ver 1B,2013-12-28 10:12:00,
2013-12-28 03:13:00,43.6,26.8,29.44,NE,53,2.0,3.3,50,-99.99,,,0.00,0,rob ver 1B,2013-12-28 10:13:00,
2013-12-28 03:14:00,43.8,26.7,29.44,NE,42,1.4,2.1,50,-99.99,,,0.00,0,rob ver 1B,2013-12-28 10:14:00,
2013-12-28 03:15:00,44.2,26.6,29.47,NE,39,1.6,2.2,49,-99.99,,,0.00,0,rob ver 1B,2013-12-28 10:15:00,
2013-12-28 03:16:00,44.5,26.5,29.44,NNE,26,1.6,2.1,48,-99.99,,,0.00,0,rob ver 1B,2013-12-28 10:16:00,
2013-12-28 03:17:00,44.7,26.5,29.47,NNW,333,1.5,2.1,48,-99.99,,,0.00,0,rob ver 1B,2013-12-28 10:17:00,
2013-12-28 03:18:00,44.8,26.3,29.47,NW,322,1.6,2.4,47,-99.99,,,0.00,0,rob ver 1B,2013-12-28 10:18:00,
2013-12-28 03:19:00,45.0,26.2,29.47,NW,314,2.4,3.0,47,-99.99,,,0.00,0,rob ver 1B,2013-12-28 10:19:00,
2013-12-28 03:20:00,45.2,26.2,29.44,WNW,297,2.6,3.2,46,-99.99,,,0.00,0,rob ver 1B,2013-12-28 10:20:00,
2013-12-28 03:21:00,45.4,26.0,29.47,WNW,298,3.0,3.5,45,-99.99,,,0.00,0,rob ver 1B,2013-12-28 10:21:00,
2013-12-28 03:22:00,45.7,25.9,29.44,WNW,300,2.8,3.8,45,-99.99,,,0.00,0,rob ver 1B,2013-12-28 10:22:00,
2013-12-28 03:23:00,45.9,25.9,29.44,WNW,291,3.0,3.7,44,-99.99,,,0.00,0,rob ver 1B,2013-12-28 10:23:00,
2013-12-28 03:24:00,46.1,25.8,29.47,WNW,295,3.4,3.8,44,-99.99,,,0.00,0,rob ver 1B,2013-12-28 10:24:00,
2013-12-28 03:25:00,46.3,25.8,29.47,WNW,297,3.6,4.2,44,-99.99,,,0.00,0,rob ver 1B,2013-12-28 10:25:00,
2013-12-28 03:26:00,46.4,25.8,29.44,WNW,302,4.2,5.0,44,-99.99,,,0.00,0,rob ver 1B,2013-12-28 10:26:00,
2013-12-28 03:27:00,46.4,25.7,29.44,NW,310,3.3,4.2,43,-99.99,,,0.00,0,rob ver 1B,2013-12-28 10:27:00,
2013-12-28 03:28:00,46.4,25.7,29.47,WNW,303,3.9,4.3,43,-99.99,,,0.00,0,rob ver 1B,2013-12-28 10:28:00,
2013-12-28 03:29:00,46.5,25.6,29.44,WNW,290,3.9,4.2,43,-99.99,,,0.00,0,rob ver 1B,2013-12-28 10:29:00,
2013-12-28 03:30:00,46.5,25.6,29.44,WNW,282,5.0,5.7,43,-99.99,,,0.00,0,rob ver 1B,2013-12-28 10:30:00,
2013-12-28 03:31:00,46.4,25.8,29.47,WNW,282,5.6,5.8,44,-99.99,,,0.00,0,rob ver 1B,2013-12-28 10:31:00,
2013-12-28 03:32:00,46.2,25.9,29.44,West,280,5.6,6.0,45,-99.99,,,0.00,0,rob ver 1B,2013-12-28 10:32:00,
2013-12-28 03:33:00,46.0,26.0,29.44,West,277,6.3,6.9,45,-99.99,,,0.00,0,rob ver 1B,2013-12-28 10:33:00,
2013-12-28 03:34:00,45.8,25.9,29.44,West,275,6.4,6.9,45,-99.99,,,0.00,0,rob ver 1B,2013-12-28 10:34:00,
2013-12-28 03:35:00,45.6,26.1,29.47,West,276,6.1,6.7,46,-99.99,,,0.00,0,rob ver 1B,2013-12-28 10:35:00,
2013-12-28 03:36:00,45.3,26.1,29.47,West,280,6.5,7.0,46,-99.99,,,0.00,0,rob ver 1B,2013-12-28 10:36:00,
2013-12-28 03:37:00,45.1,26.1,29.44,WNW,284,6.2,6.7,47,-99.99,,,0.00,0,rob ver 1B,2013-12-28 10:37:00,
2013-12-28 03:38:00,45.0,26.1,29.47,WNW,284,6.1,6.8,47,-99.99,,,0.00,0,rob ver 1B,2013-12-28 10:38:00,
2013-12-28 03:39:00,45.0,26.1,29.47,WNW,288,5.6,6.1,47,-99.99,,,0.00,0,rob ver 1B,2013-12-28 10:39:00,
2013-12-28 03:40:00,45.0,26.2,29.47,WNW,288,5.8,6.3,47,-99.99,,,0.00,0,rob ver 1B,2013-12-28 10:40:00,
2013-12-28 03:41:00,45.0,26.1,29.47,WNW,287,6.2,6.7,47,-99.99,,,0.00,0,rob ver 1B,2013-12-28 10:41:00,
2013-12-28 03:42:00,45.0,26.1,29.47,WNW,287,5.8,6.3,47,-99.99,,,0.00,0,rob ver 1B,2013-12-28 10:42:00,
2013-12-28 03:43:00,45.0,26.1,29.47,WNW,287,5.5,6.1,47,-99.99,,,0.00,0,rob ver 1B,2013-12-28 10:43:00,
2013-12-28 03:44:00,44.9,26.2,29.47,WNW,283,5.3,5.7,47,-99.99,,,0.00,0,rob ver 1B,2013-12-28 10:44:00,
2013-12-28 03:45:00,44.9,26.2,29.47,WNW,284,5.0,5.5,47,-99.99,,,0.00,0,rob ver 1B,2013-12-28 10:45:00,
2013-12-28 03:46:00,44.8,26.2,29.47,West,281,4.6,4.9,48,-99.99,,,0.00,0,rob ver 1B,2013-12-28 10:46:00,
2013-12-28 03:47:00,44.6,26.3,29.47,West,273,5.4,6.0,48,-99.99,,,0.00,0,rob ver 1B,2013-12-28 10:47:00,
2013-12-28 03:48:00,44.4,26.3,29.47,West,263,5.7,6.0,48,-99.99,,,0.00,0,rob ver 1B,2013-12-28 10:48:00,
2013-12-28 03:49:00,44.3,26.2,29.47,West,266,6.0,6.8,48,-99.99,,,0.00,0,rob ver 1B,2013-12-28 10:49:00,
2013-12-28 03:50:00,44.3,26.0,29.47,West,262,6.3,7.1,47,-99.99,,,0.00,0,rob ver 1B,2013-12-28 10:50:00,
2013-12-28 03:51:00,44.6,25.9,29.47,West,265,6.0,6.5,47,-99.99,,,0.00,0,rob ver 1B,2013-12-28 10:51:00,
2013-12-28 03:52:00,44.8,25.9,29.47,West,273,5.9,6.8,46,-99.99,,,0.00,0,rob ver 1B,2013-12-28 10:52:00,
2013-12-28 03:53:00,45.0,25.8,29.47,WNW,284,5.6,6.8,46,-99.99,,,0.00,0,rob ver 1B,2013-12-28 10:53:00,
2013-12-28 03:54:00,45.3,25.8,29.47,WNW,285,5.2,6.6,46,-99.99,,,0.00,0,rob ver 1B,2013-12-28 10:54:00,
2013-12-28 03:55:00,45.3,25.8,29.47,WNW,287,4.5,5.1,45,-99.99,,,0.00,0,rob ver 1B,2013-12-28 10:55:00,
2013-12-28 03:56:00,45.4,25.8,29.44,WNW,285,4.1,4.7,45,-99.99,,,0.00,0,rob ver 1B,2013-12-28 10:56:00,
2013-12-28 03:57:00,45.5,25.9,29.44,WNW,282,4.0,4.2,45,-99.99,,,0.00,0,rob ver 1B,2013-12-28 10:57:00,
2013-12-28 03:58:00,45.5,25.9,29.47,WNW,282,4.2,4.9,46,-99.99,,,0.00,0,rob ver 1B,2013-12-28 10:58:00,
2013-12-28 03:59:00,45.5,25.9,29.44,West,280,4.4,4.7,45,-99.99,,,0.00,0,rob ver 1B,2013-12-28 10:59:00,
2013-12-28 04:00:00,45.5,25.7,29.44,WNW,285,4.7,5.1,45,-99.99,,,0.00,0,rob ver 1B,2013-12-28 11:00:00,
2013-12-28 04:01:00,45.7,25.5,29.47,WNW,294,5.1,5.4,44,-99.99,,,0.00,0,rob ver 1B,2013-12-28 11:01:00,
2013-12-28 04:02:00,46.1,25.4,29.44,WNW,299,5.6,6.2,43,-99.99,,,0.00,0,rob ver 1B,2013-12-28 11:02:00,
2013-12-28 04:03:00,46.4,25.4,29.44,WNW,300,5.4,6.7,43,-99.99,,,0.00,0,rob ver 1B,2013-12-28 11:03:00,
2013-12-28 04:04:00,46.5,25.5,29.44,WNW,299,5.2,6.2,43,-99.99,,,0.00,0,rob ver 1B,2013-12-28 11:04:00,
2013-12-28 04:05:00,46.5,25.7,29.44,WNW,293,5.0,5.5,44,-99.99,,,0.00,0,rob ver 1B,2013-12-28 11:05:00,
2013-12-28 04:06:00,46.2,25.7,29.44,WNW,285,5.4,5.7,44,-99.99,,,0.00,0,rob ver 1B,2013-12-28 11:06:00,
2013-12-28 04:07:00,46.1,25.5,29.44,WNW,292,5.4,5.6,43,-99.99,,,0.00,0,rob ver 1B,2013-12-28 11:07:00,
2013-12-28 04:08:00,46.3,25.6,29.44,WNW,292,5.2,5.5,44,-99.99,,,0.00,0,rob ver 1B,2013-12-28 11:08:00,
2013-12-28 04:09:00,46.3,25.7,29.44,WNW,284,5.0,5.3,44,-99.99,,,0.00,0,rob ver 1B,2013-12-28 11:09:00,
2013-12-28 04:10:00,46.1,25.8,29.44,West,276,5.0,5.5,45,-99.99,,,0.00,0,rob ver 1B,2013-12-28 11:10:00,
2013-12-28 04:11:00,45.9,25.8,29.47,West,277,5.0,5.4,45,-99.99,,,0.00,0,rob ver 1B,2013-12-28 11:11:00,
2013-12-28 04:12:00,45.7,25.9,29.44,West,276,4.9,5.4,45,-99.99,,,0.00,0,rob ver 1B,2013-12-28 11:12:00,
2013-12-28 04:13:00,45.6,26.0,29.44,West,274,4.6,5.1,46,-99.99,,,0.00,0,rob ver 1B,2013-12-28 11:13:00,
2013-12-28 04:14:00,45.3,26.1,29.44,West,272,4.7,5.1,46,-99.99,,,0.00,0,rob ver 1B,2013-12-28 11:14:00,
2013-12-28 04:15:00,45.1,26.1,29.44,West,275,5.3,5.9,47,-99.99,,,0.00,0,rob ver 1B,2013-12-28 11:15:00,
2013-12-28 04:16:00,44.9,26.1,29.44,West,276,5.2,5.7,47,-99.99,,,0.00,0,rob ver 1B,2013-12-28 11:16:00,
2013-12-28 04:17:00,44.6,26.2,29.44,West,280,5.4,6.4,48,-99.99,,,0.00,0,rob ver 1B,2013-12-28 11:17:00,
2013-12-28 04:18:00,44.5,26.0,29.44,West,278,6.4,7.0,47,-99.99,,,0.00,0,rob ver 1B,2013-12-28 11:18:00,
2013-12-28 04:19:00,44.6,26.0,29.44,WNW,284,6.2,7.2,47,-99.99,,,0.00,0,rob ver 1B,2013-12-28 11:19:00,
2013-12-28 04:20:00,44.5,26.1,29.44,West,278,5.8,6.9,48,-99.99,,,0.00,0,rob ver 1B,2013-12-28 11:20:00,
2013-12-28 04:21:00,44.3,26.2,29.47,West,270,5.8,6.3,49,-99.99,,,0.00,0,rob ver 1B,2013-12-28 11:21:00,
2013-12-28 04:22:00,44.0,26.2,29.44,West,276,5.9,6.6,49,-99.99,,,0.00,0,rob ver 1B,2013-12-28 11:22:00,
2013-12-28 04:23:00,43.9,26.2,29.44,WNW,283,5.5,6.0,49,-99.99,,,0.00,0,rob ver 1B,2013-12-28 11:23:00,
2013-12-28 04:24:00,43.8,26.2,29.47,WNW,286,5.1,5.6,49,-99.99,,,0.00,0,rob ver 1B,2013-12-28 11:24:00,
2013-12-28 04:25:00,43.8,26.2,29.44,WNW,287,4.9,5.5,49,-99.99,,,0.00,0,rob ver 1B,2013-12-28 11:25:00,
2013-12-28 04:26:00,43.8,26.2,29.44,WNW,286,4.5,5.6,49,-99.99,,,0.00,0,rob ver 1B,2013-12-28 11:26:00,
2013-12-28 04:27:00,43.8,26.2,29.47,West,278,4.5,5.3,49,-99.99,,,0.00,0,rob ver 1B,2013-12-28 11:27:00,
2013-12-28 04:28:00,43.8,26.2,29.47,West,273,4.4,5.1,49,-99.99,,,0.00,0,rob ver 1B,2013-12-28 11:28:00,
2013-12-28 04:29:00,43.7,26.1,29.44,West,273,4.8,5.3,49,-99.99,,,0.00,0,rob ver 1B,2013-12-28 11:29:00,
2013-12-28 04:30:00,43.7,26.1,29.47,West,271,4.6,5.5,49,-99.99,,,0.00,0,rob ver 1B,2013-12-28 11:30:00,
2013-12-28 04:31:00,43.6,26.0,29.47,West,280,4.8,5.8,49,-99.99,,,0.00,0,rob ver 1B,2013-12-28 11:31:00,
2013-12-28 04:32:00,43.7,25.9,29.44,WNW,287,5.6,6.4,49,-99.99,,,0.00,0,rob ver 1B,2013-12-28 11:32:00,
2013-12-28 04:33:00,44.0,25.8,29.47,WNW,301,6.0,7.4,47,-99.99,,,0.00,0,rob ver 1B,2013-12-28 11:33:00,
2013-12-28 04:34:00,44.4,25.5,29.47,NW,304,7.2,8.5,46,-99.99,,,0.00,0,rob ver 1B,2013-12-28 11:34:00,
2013-12-28 04:35:00,44.9,25.4,29.44,NW,307,7.3,8.0,45,-99.99,,,0.00,0,rob ver 1B,2013-12-28 11:35:00,
2013-12-28 04:36:00,45.2,25.4,29.47,NW,309,7.2,7.9,45,-99.99,,,0.00,0,rob ver 1B,2013-12-28 11:36:00,
2013-12-28 04:37:00,45.2,25.6,29.47,NW,313,6.7,7.6,46,-99.99,,,0.00,0,rob ver 1B,2013-12-28 11:37:00,
2013-12-28 04:38:00,45.2,25.7,29.47,NW,313,7.1,8.2,45,-99.99,,,0.00,0,rob ver 1B,2013-12-28 11:38:00,
2013-12-28 04:39:00,45.2,25.5,29.47,NW,312,7.3,8.1,45,-99.99,,,0.00,0,rob ver 1B,2013-12-28 11:39:00,
2013-12-28 04:40:00,45.4,25.4,29.47,NW,313,7.2,8.0,45,-99.99,,,0.00,0,rob ver 1B,2013-12-28 11:40:00,
2013-12-28 04:41:00,45.5,25.3,29.47,NW,317,6.8,7.8,44,-99.99,,,0.00,0,rob ver 1B,2013-12-28 11:41:00,
2013-12-28 04:42:00,45.6,25.2,29.47,NW,320,6.0,6.9,43,-99.99,,,0.00,0,rob ver 1B,2013-12-28 11:42:00,
2013-12-28 04:43:00,45.8,25.0,29.47,NW,317,6.5,7.2,43,-99.99,,,0.00,0,rob ver 1B,2013-12-28 11:43:00,
2013-12-28 04:44:00,45.9,25.1,29.47,NW,313,6.4,6.9,43,-99.99,,,0.00,0,rob ver 1B,2013-12-28 11:44:00,
2013-12-28 04:45:00,46.0,24.8,29.44,NW,312,6.4,6.9,43,-99.99,,,0.00,0,rob ver 1B,2013-12-28 11:45:00,
2013-12-28 04:46:00,46.1,25.0,29.47,NW,314,5.8,6.2,43,-99.99,,,0.00,0,rob ver 1B,2013-12-28 11:46:00,
2013-12-28 04:47:00,46.0,25.0,29.47,NW,315,5.9,6.6,43,-99.99,,,0.00,0,rob ver 1B,2013-12-28 11:47:00,
2013-12-28 04:48:00,45.9,24.9,29.47,NW,317,5.5,6.0,43,-99.99,,,0.00,0,rob ver 1B,2013-12-28 11:48:00,
2013-12-28 04:49:00,46.0,24.7,29.47,NW,312,5.4,7.2,42,-99.99,,,0.00,0,rob ver 1B,2013-12-28 11:49:00,
2013-12-28 04:50:00,46.1,24.5,29.47,WNW,303,5.9,6.9,42,-99.99,,,0.00,0,rob ver 1B,2013-12-28 11:50:00,
2013-12-28 04:51:00,46.4,24.3,29.47,NW,304,5.6,6.2,41,-99.99,,,0.00,0,rob ver 1B,2013-12-28 11:51:00,
2013-12-28 04:52:00,46.7,24.0,29.47,NW,306,5.4,6.8,40,-99.99,,,0.00,0,rob ver 1B,2013-12-28 11:52:00,
2013-12-28 04:53:00,47.0,24.0,29.47,NW,307,5.5,7.4,40,-99.99,,,0.00,0,rob ver 1B,2013-12-28 11:53:00,
2013-12-28 04:54:00,47.2,24.0,29.47,NW,306,6.1,8.1,39,-99.99,,,0.00,0,rob ver 1B,2013-12-28 11:54:00,
2013-12-28 04:55:00,47.4,24.0,29.47,WNW,295,4.9,7.6,39,-99.99,,,0.00,0,rob ver 1B,2013-12-28 11:55:00,
2013-12-28 04:56:00,47.3,24.0,29.47,WNW,291,5.2,6.7,39,-99.99,,,0.00,0,rob ver 1B,2013-12-28 11:56:00,
2013-12-28 04:57:00,47.4,23.9,29.47,WNW,287,3.7,5.5,39,-99.99,,,0.00,0,rob ver 1B,2013-12-28 11:57:00,
2013-12-28 04:58:00,47.3,23.9,29.47,WNW,301,3.3,4.0,39,-99.99,,,0.00,0,rob ver 1B,2013-12-28 11:58:00,
2013-12-28 04:59:00,47.3,24.0,29.47,WNW,295,3.9,7.0,39,-99.99,,,0.00,0,rob ver 1B,2013-12-28 11:59:00,
2013-12-28 05:00:00,47.2,23.9,29.47,WNW,298,4.1,6.9,39,-99.99,,,0.00,0,rob ver 1B,2013-12-28 12:00:00,
2013-12-28 05:01:00,47.2,23.9,29.47,West,280,5.1,7.5,39,-99.99,,,0.00,0,rob ver 1B,2013-12-28 12:01:00,
2013-12-28 05:02:00,47.2,24.0,29.47,West,281,5.2,6.1,39,-99.99,,,0.00,0,rob ver 1B,2013-12-28 12:02:00,
2013-12-28 05:03:00,47.1,23.9,29.47,WNW,287,5.8,8.1,39,-99.99,,,0.00,0,rob ver 1B,2013-12-28 12:03:00,
2013-12-28 05:04:00,47.1,24.1,29.47,WNW,295,6.2,8.9,40,-99.99,,,0.00,0,rob ver 1B,2013-12-28 12:04:00,
2013-12-28 05:05:00,46.9,24.3,29.47,WNW,283,4.7,6.3,41,-99.99,,,0.00,0,rob ver 1B,2013-12-28 12:05:00,
2013-12-28 05:06:00,46.6,24.3,29.47,WNW,284,6.0,7.0,41,-99.99,,,0.00,0,rob ver 1B,2013-12-28 12:06:00,
2013-12-28 05:07:00,46.3,24.4,29.47,West,278,6.1,7.0,42,-99.99,,,0.00,0,rob ver 1B,2013-12-28 12:07:00,
2013-12-28 05:08:00,46.1,24.5,29.47,West,278,5.5,6.5,42,-99.99,,,0.00,0,rob ver 1B,2013-12-28 12:08:00,
2013-12-28 05:09:00,45.7,24.7,29.47,West,281,5.9,6.8,43,-99.99,,,0.00,0,rob ver 1B,2013-12-28 12:09:00,
2013-12-28 05:10:00,45.4,24.7,29.47,West,276,6.3,8.3,44,-99.99,,,0.00,0,rob ver 1B,2013-12-28 12:10:00,
2013-12-28 05:11:00,45.0,24.8,29.47,West,278,6.5,8.4,44,-99.99,,,0.00,0,rob ver 1B,2013-12-28 12:11:00,
2013-12-28 05:12:00,44.9,24.7,29.47,West,276,6.6,8.1,45,-99.99,,,0.00,0,rob ver 1B,2013-12-28 12:12:00,
2013-12-28 05:13:00,44.7,24.7,29.47,West,280,6.8,8.5,44,-99.99,,,0.00,0,rob ver 1B,2013-12-28 12:13:00,
2013-12-28 05:14:00,44.7,24.6,29.47,West,278,7.1,8.4,44,-99.99,,,0.00,0,rob ver 1B,2013-12-28 12:14:00,
2013-12-28 05:15:00,44.8,24.5,29.47,West,275,6.9,8.3,44,-99.99,,,0.00,0,rob ver 1B,2013-12-28 12:15:00,
2013-12-28 05:16:00,44.9,24.5,29.47,West,275,6.9,8.3,44,-99.99,,,0.00,0,rob ver 1B,2013-12-28 12:16:00,
2013-12-28 05:17:00,44.9,24.5,29.47,West,278,6.8,7.9,44,-99.99,,,0.00,0,rob ver 1B,2013-12-28 12:17:00,
2013-12-28 05:18:00,45.0,24.5,29.47,WNW,283,6.4,7.4,44,-99.99,,,0.00,0,rob ver 1B,2013-12-28 12:18:00,
2013-12-28 05:19:00,45.0,24.5,29.47,West,280,6.8,8.0,44,-99.99,,,0.00,0,rob ver 1B,2013-12-28 12:19:00,
2013-12-28 05:20:00,45.0,24.5,29.47,West,280,7.0,8.7,44,-99.99,,,0.00,0,rob ver 1B,2013-12-28 12:20:00,
2013-12-28 05:21:00,45.0,24.5,29.47,West,281,6.7,7.9,44,-99.99,,,0.00,0,rob ver 1B,2013-12-28 12:21:00,
2013-12-28 05:22:00,45.0,24.6,29.47,WNW,282,7.3,8.8,44,-99.99,,,0.00,0,rob ver 1B,2013-12-28 12:22:00,
2013-12-28 05:23:00,45.0,24.5,29.47,WNW,282,8.3,11.2,44,-99.99,,,0.00,0,rob ver 1B,2013-12-28 12:23:00,
2013-12-28 05:24:00,45.1,24.6,29.47,WNW,284,8.2,9.6,44,-99.99,,,0.00,0,rob ver 1B,2013-12-28 12:24:00,
2013-12-28 05:25:00,45.1,24.7,29.47,West,281,7.7,8.9,44,-99.99,,,0.00,0,rob ver 1B,2013-12-28 12:25:00,
2013-12-28 05:26:00,44.9,24.7,29.47,West,271,7.5,9.2,44,-99.99,,,0.00,0,rob ver 1B,2013-12-28 12:26:00,
2013-12-28 05:27:00,44.8,24.8,29.47,West,271,7.4,9.1,45,-99.99,,,0.00,0,rob ver 1B,2013-12-28 12:27:00,
2013-12-28 05:28:00,44.7,24.9,29.47,West,267,6.7,8.0,45,-99.99,,,0.00,0,rob ver 1B,2013-12-28 12:28:00,
2013-12-28 05:29:00,44.5,25.0,29.47,West,267,6.4,7.3,46,-99.99,,,0.00,0,rob ver 1B,2013-12-28 12:29:00,
2013-12-28 05:30:00,44.3,25.1,29.47,West,262,6.3,7.3,46,-99.99,,,0.00,0,rob ver 1B,2013-12-28 12:30:00,
2013-12-28 05:31:00,44.0,25.1,29.47,West,263,5.8,6.8,47,-99.99,,,0.00,0,rob ver 1B,2013-12-28 12:31:00,
2013-12-28 05:32:00,43.8,25.1,29.47,WSW,258,5.6,6.8,47,-99.99,,,0.00,0,rob ver 1B,2013-12-28 12:32:00,
2013-12-28 05:33:00,43.7,25.2,29.47,WSW,252,4.6,5.7,48,-99.99,,,0.00,0,rob ver 1B,2013-12-28 12:33:00,
2013-12-28 05:34:00,43.4,25.4,29.47,WSW,256,4.6,6.1,49,-99.99,,,0.00,0,rob ver 1B,2013-12-28 12:34:00,
2013-12-28 05:35:00,43.1,25.6,29.47,WSW,257,3.8,4.9,50,-99.99,,,0.00,0,rob ver 1B,2013-12-28 12:35:00,
2013-12-28 05:36:00,42.9,25.6,29.47,West,268,4.1,5.9,50,-99.99,,,0.00,0,rob ver 1B,2013-12-28 12:36:00,
2013-12-28 05:37:00,42.8,25.6,29.47,West,274,4.8,6.8,50,-99.99,,,0.00,0,rob ver 1B,2013-12-28 12:37:00,
2013-12-28 05:38:00,42.9,25.4,29.47,West,274,6.1,8.0,49,-99.99,,,0.00,0,rob ver 1B,2013-12-28 12:38:00,
2013-12-28 05:39:00,43.2,25.1,29.47,West,277,7.7,10.6,47,-99.99,,,0.00,0,rob ver 1B,2013-12-28 12:39:00,
2013-12-28 05:40:00,43.7,25.0,29.47,West,276,8.4,10.8,46,-99.99,,,0.00,0,rob ver 1B,2013-12-28 12:40:00,
2013-12-28 05:41:00,44.0,24.9,29.47,West,276,8.3,9.8,46,-99.99,,,0.00,0,rob ver 1B,2013-12-28 12:41:00,
2013-12-28 05:42:00,44.2,24.7,29.47,West,276,9.3,12.1,45,-99.99,,,0.00,0,rob ver 1B,2013-12-28 12:42:00,
2013-12-28 05:43:00,44.4,24.5,29.47,West,281,10.2,13.1,44,-99.99,,,0.00,0,rob ver 1B,2013-12-28 12:43:00,
2013-12-28 05:44:00,44.7,24.4,29.47,WNW,283,10.8,13.7,43,-99.99,,,0.00,0,rob ver 1B,2013-12-28 12:44:00,
2013-12-28 05:45:00,45.1,23.9,29.47,WNW,288,10.0,12.4,42,-99.99,,,0.00,0,rob ver 1B,2013-12-28 12:45:00,
2013-12-28 05:46:00,45.5,23.5,29.47,WNW,287,11.8,14.8,40,-99.99,,,0.00,0,rob ver 1B,2013-12-28 12:46:00,
2013-12-28 05:47:00,46.2,22.9,29.47,WNW,288,12.1,14.7,38,-99.99,,,0.00,0,rob ver 1B,2013-12-28 12:47:00,
2013-12-28 05:48:00,46.8,22.7,29.47,WNW,287,12.3,15.2,37,-99.99,,,0.00,0,rob ver 1B,2013-12-28 12:48:00,
2013-12-28 05:49:00,47.3,22.5,29.47,WNW,287,12.1,14.7,36,-99.99,,,0.00,0,rob ver 1B,2013-12-28 12:49:00,
2013-12-28 05:50:00,47.7,21.9,29.47,WNW,287,11.8,14.1,35,-99.99,,,0.00,0,rob ver 1B,2013-12-28 12:50:00,
2013-12-28 05:51:00,48.1,21.5,29.47,WNW,283,11.8,14.4,34,-99.99,,,0.00,0,rob ver 1B,2013-12-28 12:51:00,
2013-12-28 05:52:00,48.5,21.4,29.47,WNW,284,11.0,12.9,33,-99.99,,,0.00,0,rob ver 1B,2013-12-28 12:52:00,
2013-12-28 05:53:00,48.8,21.2,29.47,West,281,12.5,15.1,32,-99.99,,,0.00,0,rob ver 1B,2013-12-28 12:53:00,
2013-12-28 05:54:00,49.2,21.1,29.47,WNW,284,11.3,13.0,32,-99.99,,,0.00,0,rob ver 1B,2013-12-28 12:54:00,
2013-12-28 05:55:00,49.6,21.0,29.47,WNW,288,11.3,17.6,31,-99.99,,,0.00,0,rob ver 1B,2013-12-28 12:55:00,
2013-12-28 05:56:00,50.0,20.8,29.47,WNW,290,12.4,15.3,31,-99.99,,,0.00,0,rob ver 1B,2013-12-28 12:56:00,
2013-12-28 05:57:00,50.3,20.9,29.47,WNW,288,10.8,12.5,30,-99.99,,,0.00,0,rob ver 1B,2013-12-28 12:57:00,
2013-12-28 05:58:00,50.5,20.8,29.47,WNW,289,10.9,15.0,30,-99.99,,,0.00,0,rob ver 1B,2013-12-28 12:58:00,
2013-12-28 05:59:00,50.6,20.8,29.47,WNW,287,10.9,13.1,30,-99.99,,,0.00,0,rob ver 1B,2013-12-28 12:59:00,
2013-12-28 06:00:00,50.6,20.9,29.47,WNW,286,10.2,12.1,30,-99.99,,,0.00,0,rob ver 1B,2013-12-28 13:00:00,
2013-12-28 06:01:00,50.5,20.8,29.47,WNW,285,11.1,13.8,30,-99.99,,,0.00,0,rob ver 1B,2013-12-28 13:01:00,
2013-12-28 06:02:00,50.5,20.9,29.47,WNW,290,9.8,11.9,31,-99.99,,,0.00,0,rob ver 1B,2013-12-28 13:02:00,
2013-12-28 06:03:00,50.2,21.0,29.47,WNW,294,9.7,11.8,31,-99.99,,,0.00,0,rob ver 1B,2013-12-28 13:03:00,
2013-12-28 06:04:00,50.1,20.9,29.47,WNW,295,10.5,13.0,31,-99.99,,,0.00,0,rob ver 1B,2013-12-28 13:04:00,
2013-12-28 06:05:00,50.0,21.0,29.47,WNW,296,10.5,13.0,31,-99.99,,,0.00,0,rob ver 1B,2013-12-28 13:05:00,
2013-12-28 06:06:00,49.9,20.8,29.47,WNW,298,11.3,12.9,31,-99.99,,,0.00,0,rob ver 1B,2013-12-28 13:06:00,
2013-12-28 06:07:00,49.9,20.8,29.47,WNW,301,12.0,15.0,31,-99.99,,,0.00,0,rob ver 1B,2013-12-28 13:07:00,
2013-12-28 06:08:00,50.1,20.7,29.47,WNW,302,13.3,15.8,30,-99.99,,,0.00,0,rob ver 1B,2013-12-28 13:08:00,
2013-12-28 06:09:00,50.3,20.5,29.47,NW,305,13.5,16.0,30,-99.99,,,0.00,0,rob ver 1B,2013-12-28 13:09:00,
2013-12-28 06:10:00,50.7,20.5,29.47,NW,308,13.6,16.5,29,-99.99,,,0.00,0,rob ver 1B,2013-12-28 13:10:00,
2013-12-28 06:11:00,50.9,20.5,29.47,NW,310,12.8,15.1,30,-99.99,,,0.00,0,rob ver 1B,2013-12-28 13:11:00,
2013-12-28 06:12:00,50.9,20.6,29.47,NW,308,12.8,16.2,29,-99.99,,,0.00,0,rob ver 1B,2013-12-28 13:12:00,
2013-12-28 06:13:00,51.1,20.5,29.47,NW,307,13.4,15.8,29,-99.99,,,0.00,0,rob ver 1B,2013-12-28 13:13:00,
2013-12-28 06:14:00,51.1,20.5,29.47,NW,311,12.9,16.4,29,-99.99,,,0.00,0,rob ver 1B,2013-12-28 13:14:00,
2013-12-28 06:15:00,51.2,20.5,29.47,NW,312,12.9,16.6,29,-99.99,,,0.00,0,rob ver 1B,2013-12-28 13:15:00,
2013-12-28 06:16:00,51.2,20.6,29.47,NW,313,11.5,14.5,29,-99.99,,,0.00,0,rob ver 1B,2013-12-28 13:16:00,
2013-12-28 06:17:00,51.2,20.5,29.47,NW,312,12.1,14.5,29,-99.99,,,0.00,0,rob ver 1B,2013-12-28 13:17:00,
2013-12-28 06:18:00,51.5,20.4,29.47,NW,312,13.9,18.9,29,-99.99,,,0.00,0,rob ver 1B,2013-12-28 13:18:00,
2013-12-28 06:19:00,51.7,20.4,29.47,NW,317,13.8,17.4,28,-99.99,,,0.00,0,rob ver 1B,2013-12-28 13:19:00,
2013-12-28 06:20:00,52.0,20.3,29.47,NW,317,12.7,15.1,28,-99.99,,,0.00,0,rob ver 1B,2013-12-28 13:20:00,
2013-12-28 06:21:00,51.9,20.6,29.47,NW,317,10.6,13.0,28,-99.99,,,0.00,0,rob ver 1B,2013-12-28 13:21:00,
2013-12-28 06:22:00,51.9,20.5,29.47,NW,315,11.4,14.0,29,-99.99,,,0.00,0,rob ver 1B,2013-12-28 13:22:00,
2013-12-28 06:23:00,51.9,20.4,29.47,NW,312,12.1,14.4,28,-99.99,,,0.00,0,rob ver 1B,2013-12-28 13:23:00,
2013-12-28 06:24:00,51.8,20.5,29.47,NW,309,10.3,11.9,29,-99.99,,,0.00,0,rob ver 1B,2013-12-28 13:24:00,
2013-12-28 06:25:00,51.5,20.5,29.47,NW,310,9.5,10.9,29,-99.99,,,0.00,0,rob ver 1B,2013-12-28 13:25:00,
2013-12-28 06:26:00,51.3,20.6,29.47,NW,308,9.3,12.2,29,-99.99,,,0.00,0,rob ver 1B,2013-12-28 13:26:00,
2013-12-28 06:27:00,51.1,20.6,29.47,NW,305,9.2,11.3,29,-99.99,,,0.00,0,rob ver 1B,2013-12-28 13:27:00,
2013-12-28 06:28:00,51.0,20.6,29.47,NW,305,10.4,12.4,29,-99.99,,,0.00,0,rob ver 1B,2013-12-28 13:28:00,
2013-12-28 06:29:00,50.9,20.6,29.47,WNW,303,9.7,12.0,30,-99.99,,,0.00,0,rob ver 1B,2013-12-28 13:29:00,
2013-12-28 06:30:00,50.7,20.7,29.47,WNW,303,8.9,10.3,30,-99.99,,,0.00,0,rob ver 1B,2013-12-28 13:30:00,
2013-12-28 06:31:00,50.5,20.7,29.47,WNW,301,9.6,10.8,30,-99.99,,,0.00,0,rob ver 1B,2013-12-28 13:31:00,
2013-12-28 06:32:00,50.3,20.8,29.47,NW,304,9.6,11.4,30,-99.99,,,0.00,0,rob ver 1B,2013-12-28 13:32:00,
2013-12-28 06:33:00,50.1,20.8,29.47,NW,307,8.8,10.3,31,-99.99,,,0.00,0,rob ver 1B,2013-12-28 13:33:00,
2013-12-28 06:34:00,49.9,20.8,29.47,NW,307,9.0,10.3,31,-99.99,,,0.00,0,rob ver 1B,2013-12-28 13:34:00,
2013-12-28 06:35:00,49.9,20.7,29.47,NW,309,9.8,13.1,31,-99.99,,,0.00,0,rob ver 1B,2013-12-28 13:35:00,
2013-12-28 06:36:00,49.9,20.8,29.47,NW,312,8.6,10.6,31,-99.99,,,0.00,0,rob ver 1B,2013-12-28 13:36:00,
2013-12-28 06:37:00,49.9,20.9,29.47,NW,311,8.8,9.9,31,-99.99,,,0.00,0,rob ver 1B,2013-12-28 13:37:00,
2013-12-28 06:38:00,49.9,20.8,29.47,NW,309,8.7,9.8,31,-99.99,,,0.00,0,rob ver 1B,2013-12-28 13:38:00,
2013-12-28 06:39:00,49.8,20.8,29.47,NW,306,8.8,10.6,31,-99.99,,,0.00,0,rob ver 1B,2013-12-28 13:39:00,
2013-12-28 06:40:00,49.9,20.7,29.47,WNW,302,8.3,10.4,31,-99.99,,,0.00,0,rob ver 1B,2013-12-28 13:40:00,
2013-12-28 06:41:00,49.8,20.7,29.47,WNW,303,8.6,10.9,31,-99.99,,,0.00,0,rob ver 1B,2013-12-28 13:41:00,
2013-12-28 06:42:00,49.9,20.6,29.47,NW,307,8.8,11.1,31,-99.99,,,0.00,0,rob ver 1B,2013-12-28 13:42:00,
2013-12-28 06:43:00,50.0,20.7,29.47,NW,314,9.4,12.1,30,-99.99,,,0.00,0,rob ver 1B,2013-12-28 13:43:00,
2013-12-28 06:44:00,50.4,20.6,29.47,NW,312,10.2,12.9,30,-99.99,,,0.00,0,rob ver 1B,2013-12-28 13:44:00,
2013-12-28 06:45:00,50.7,20.5,29.47,NW,313,10.2,14.0,30,-99.99,,,0.00,0,rob ver 1B,2013-12-28 13:45:00,
2013-12-28 06:46:00,50.9,20.6,29.47,NW,314,10.3,12.1,29,-99.99,,,0.00,0,rob ver 1B,2013-12-28 13:46:00,
2013-12-28 06:47:00,51.2,20.5,29.50,NW,314,10.4,12.5,29,-99.99,,,0.00,0,rob ver 1B,2013-12-28 13:47:00,
2013-12-28 06:48:00,51.3,20.6,29.47,NW,315,10.3,12.4,29,-99.99,,,0.00,0,rob ver 1B,2013-12-28 13:48:00,
2013-12-28 06:49:00,51.3,20.5,29.47,NW,315,10.9,13.6,29,-99.99,,,0.00,0,rob ver 1B,2013-12-28 13:49:00,
2013-12-28 06:50:00,51.5,20.5,29.47,NW,314,11.2,12.9,29,-99.99,,,0.00,0,rob ver 1B,2013-12-28 13:50:00,
2013-12-28 06:51:00,51.4,20.6,29.47,NW,313,10.2,13.1,29,-99.99,,,0.00,0,rob ver 1B,2013-12-28 13:51:00,
2013-12-28 06:52:00,51.5,20.5,29.47,NW,313,10.6,14.1,29,-99.99,,,0.00,0,rob ver 1B,2013-12-28 13:52:00,
2013-12-28 06:53:00,51.4,20.6,29.47,NW,310,10.0,11.5,29,-99.99,,,0.00,0,rob ver 1B,2013-12-28 13:53:00,
2013-12-28 06:54:00,51.2,20.5,29.50,NW,309,9.7,11.1,29,-99.99,,,0.00,0,rob ver 1B,2013-12-28 13:54:00,
2013-12-28 06:55:00,51.2,20.4,29.47,NW,306,11.0,13.1,29,-99.99,,,0.00,0,rob ver 1B,2013-12-28 13:55:00,
2013-12-28 06:56:00,51.4,20.2,29.47,NW,307,10.7,13.0,28,-99.99,,,0.00,0,rob ver 1B,2013-12-28 13:56:00,
2013-12-28 06:57:00,51.6,20.5,29.50,NW,313,10.0,11.8,29,-99.99,,,0.00,0,rob ver 1B,2013-12-28 13:57:00,
2013-12-28 06:58:00,51.5,20.5,29.50,NW,314,10.0,12.1,29,-99.99,,,0.00,0,rob ver 1B,2013-12-28 13:58:00,
2013-12-28 06:59:00,51.5,20.5,29.50,NW,317,9.2,11.6,29,-99.99,,,0.00,0,rob ver 1B,2013-12-28 13:59:00,
2013-12-28 07:00:00,51.5,20.6,29.50,NW,311,8.4,9.9,29,-99.99,,,0.00,0,rob ver 1B,2013-12-28 14:00:00,
2013-12-28 07:01:00,51.3,20.5,29.50,NW,310,8.0,9.6,29,-99.99,,,0.00,0,rob ver 1B,2013-12-28 14:01:00,
2013-12-28 07:02:00,51.2,20.7,29.50,NW,312,7.5,8.7,29,-99.99,,,0.00,0,rob ver 1B,2013-12-28 14:02:00,
2013-12-28 07:03:00,50.9,20.6,29.50,NW,312,7.4,9.2,30,-99.99,,,0.00,0,rob ver 1B,2013-12-28 14:03:00,
2013-12-28 07:04:00,50.8,20.8,29.50,NW,318,6.8,7.9,30,-99.99,,,0.00,0,rob ver 1B,2013-12-28 14:04:00,
2013-12-28 07:05:00,50.7,20.7,29.50,NW,317,7.0,9.0,30,-99.99,,,0.00,0,rob ver 1B,2013-12-28 14:05:00,
2013-12-28 07:06:00,50.6,20.8,29.50,NW,317,6.5,8.1,30,-99.99,,,0.00,0,rob ver 1B,2013-12-28 14:06:00,
2013-12-28 07:07:00,50.5,20.7,29.50,NW,316,7.6,9.7,30,-99.99,,,0.00,0,rob ver 1B,2013-12-28 14:07:00,
2013-12-28 07:08:00,50.5,20.7,29.50,NW,316,7.5,9.0,30,-99.99,,,0.00,0,rob ver 1B,2013-12-28 14:08:00,
2013-12-28 07:09:00,50.5,20.6,29.50,NW,315,8.0,10.7,30,-99.99,,,0.00,0,rob ver 1B,2013-12-28 14:09:00,
2013-12-28 07:10:00,50.6,20.7,29.50,NW,311,8.1,9.8,30,-99.99,,,0.00,0,rob ver 1B,2013-12-28 14:10:00,
2013-12-28 07:11:00,50.5,20.4,29.50,NW,305,8.6,10.2,30,-99.99,,,0.00,0,rob ver 1B,2013-12-28 14:11:00,
2013-12-28 07:12:00,50.7,20.3,29.50,NW,304,8.8,10.8,29,-99.99,,,0.00,0,rob ver 1B,2013-12-28 14:12:00,
2013-12-28 07:13:00,50.9,20.4,29.50,NW,312,8.7,11.4,29,-99.99,,,0.00,0,rob ver 1B,2013-12-28 14:13:00,
2013-12-28 07:14:00,51.0,20.3,29.50,NW,305,8.5,10.5,29,-99.99,,,0.00,0,rob ver 1B,2013-12-28 14:14:00,
2013-12-28 07:15:00,51.2,20.3,29.50,NW,308,8.3,11.1,29,-99.99,,,0.00,0,rob ver 1B,2013-12-28 14:15:00,
2013-12-28 07:16:00,51.2,20.4,29.50,NW,310,8.2,10.8,29,-99.99,,,0.00,0,rob ver 1B,2013-12-28 14:16:00,
2013-12-28 07:17:00,51.3,20.3,29.50,NW,312,7.0,8.9,29,-99.99,,,0.00,0,rob ver 1B,2013-12-28 14:17:00,
2013-12-28 07:18:00,51.2,20.5,29.50,NW,317,6.2,7.6,29,-99.99,,,0.00,.165,rob ver 1B,2013-12-28 14:18:00,
2013-12-28 07:19:00,51.0,20.5,29.50,NW,316,5.6,6.8,29,-99.99,,,0.00,.165,rob ver 1B,2013-12-28 14:19:00,
2013-12-28 07:20:00,50.9,20.5,29.50,NW,322,4.9,7.1,29,-99.99,,,0.00,.33,rob ver 1B,2013-12-28 14:20:00,
2013-12-28 07:21:00,51.0,20.2,29.50,NW,315,7.4,10.1,29,-99.99,,,0.00,.33,rob ver 1B,2013-12-28 14:21:00,
2013-12-28 07:22:00,51.4,20.1,29.50,NW,312,6.2,7.2,28,-99.99,,,0.00,.33,rob ver 1B,2013-12-28 14:22:00,
2013-12-28 07:23:00,51.5,20.2,29.50,WNW,301,6.5,10.0,28,-99.99,,,0.00,.33,rob ver 1B,2013-12-28 14:23:00,
2013-12-28 07:24:00,51.6,20.1,29.50,NW,314,7.7,11.1,28,-99.99,,,0.00,.33,rob ver 1B,2013-12-28 14:24:00,
2013-12-28 07:25:00,52.0,19.7,29.50,NW,313,11.7,17.6,27,-99.99,,,0.00,.33,rob ver 1B,2013-12-28 14:25:00,
2013-12-28 07:26:00,52.5,19.8,29.50,NW,317,10.6,15.3,27,-99.99,,,0.00,.495,rob ver 1B,2013-12-28 14:26:00,
2013-12-28 07:27:00,52.6,19.8,29.50,NW,311,11.3,14.9,26,-99.99,,,0.00,.66,rob ver 1B,2013-12-28 14:27:00,
2013-12-28 07:28:00,52.6,19.9,29.50,NW,312,10.0,12.3,27,-99.99,,,0.00,.66,rob ver 1B,2013-12-28 14:28:00,
2013-12-28 07:29:00,52.4,19.9,29.50,NW,311,10.6,12.5,27,-99.99,,,0.00,1.32,rob ver 1B,2013-12-28 14:29:00,
2013-12-28 07:30:00,52.3,20.0,29.50,NW,311,8.2,10.6,27,-99.99,,,0.00,1.32,rob ver 1B,2013-12-28 14:30:00,
2013-12-28 07:31:00,52.0,20.0,29.50,NW,311,8.9,10.7,28,-99.99,,,0.00,1.651,rob ver 1B,2013-12-28 14:31:00,
2013-12-28 07:32:00,51.8,20.0,29.50,NW,315,8.3,9.6,28,-99.99,,,0.00,1.981,rob ver 1B,2013-12-28 14:32:00,
2013-12-28 07:33:00,51.7,20.0,29.50,NW,312,7.1,8.2,28,-99.99,,,0.00,2.476,rob ver 1B,2013-12-28 14:33:00,
2013-12-28 07:34:00,51.5,20.0,29.50,NW,313,7.3,8.1,28,-99.99,,,0.00,2.641,rob ver 1B,2013-12-28 14:34:00,
2013-12-28 07:35:00,51.4,20.0,29.50,NW,319,6.7,8.6,28,-99.99,,,0.00,3.301,rob ver 1B,2013-12-28 14:35:00,
2013-12-28 07:36:00,51.5,20.0,29.50,NW,318,6.2,7.5,28,-99.99,,,0.00,3.961,rob ver 1B,2013-12-28 14:36:00,
2013-12-28 07:37:00,51.5,20.1,29.50,NW,315,6.8,7.8,28,-99.99,,,0.00,4.291,rob ver 1B,2013-12-28 14:37:00,
2013-12-28 07:38:00,51.7,19.8,29.50,NW,321,7.2,9.9,28,-99.99,,,0.00,4.786,rob ver 1B,2013-12-28 14:38:00,
2013-12-28 07:39:00,51.9,19.9,29.50,NW,319,6.5,7.9,28,-99.99,,,0.00,5.282,rob ver 1B,2013-12-28 14:39:00,
2013-12-28 07:40:00,52.1,19.8,29.50,NW,316,7.9,10.6,27,-99.99,,,0.00,5.942,rob ver 1B,2013-12-28 14:40:00,
2013-12-28 07:41:00,52.1,19.8,29.50,NW,317,7.8,10.3,27,-99.99,,,0.00,6.602,rob ver 1B,2013-12-28 14:41:00,
2013-12-28 07:42:00,52.2,19.7,29.50,NW,326,7.7,11.8,27,-99.99,,,0.00,8.58,rob ver 1B,2013-12-28 14:42:00,
2013-12-28 07:43:00,52.4,19.6,29.50,NW,321,6.8,9.9,27,-99.99,,,0.00,10.07,rob ver 1B,2013-12-28 14:43:00,
2013-12-28 07:44:00,52.5,19.7,29.50,NNW,331,6.9,11.0,27,-99.99,,,0.00,11.88,rob ver 1B,2013-12-28 14:44:00,
2013-12-28 07:45:00,52.6,19.7,29.50,NW,325,6.6,9.0,27,-99.99,,,0.00,15.51,rob ver 1B,2013-12-28 14:45:00,
2013-12-28 07:46:00,52.5,19.9,29.50,NNW,332,5.0,5.6,27,-99.99,,,0.00,19.15,rob ver 1B,2013-12-28 14:46:00,
2013-12-28 07:47:00,52.5,19.8,29.50,NNW,329,5.6,7.1,27,-99.99,,,0.00,21.13,rob ver 1B,2013-12-28 14:47:00,
2013-12-28 07:48:00,52.5,19.8,29.50,NNW,328,5.2,7.1,27,-99.99,,,0.00,23.6,rob ver 1B,2013-12-28 14:48:00,
2013-12-28 07:49:00,52.5,19.8,29.50,NNW,327,6.2,8.0,27,-99.99,,,0.00,25.75,rob ver 1B,2013-12-28 14:49:00,
2013-12-28 07:50:00,52.5,19.8,29.50,NW,315,8.3,13.3,27,-99.99,,,0.00,28.22,rob ver 1B,2013-12-28 14:50:00,
2013-12-28 07:51:00,52.6,19.5,29.50,NW,318,12.2,16.6,26,-99.99,,,0.00,30.37,rob ver 1B,2013-12-28 14:51:00,
2013-12-28 07:52:00,53.1,19.3,29.50,NW,315,14.4,17.6,25,-99.99,,,0.00,32.35,rob ver 1B,2013-12-28 14:52:00,
2013-12-28 07:53:00,53.6,19.0,29.50,NW,314,17.8,24.4,24,-99.99,,,0.00,34.83,rob ver 1B,2013-12-28 14:53:00,
2013-12-28 07:54:00,54.1,19.0,29.50,NW,313,16.0,20.6,24,-99.99,,,0.00,37.3,rob ver 1B,2013-12-28 14:54:00,
2013-12-28 07:55:00,54.3,18.9,29.50,NW,314,17.5,21.8,24,-99.99,,,0.00,39.61,rob ver 1B,2013-12-28 14:55:00,
2013-12-28 07:56:00,54.5,19.1,29.50,NW,316,14.7,19.2,24,-99.99,,,0.00,42.25,rob ver 1B,2013-12-28 14:56:00,
2013-12-28 07:57:00,54.6,18.9,29.50,NW,318,18.3,24.9,24,-99.99,,,0.00,44.23,rob ver 1B,2013-12-28 14:57:00,
2013-12-28 07:58:00,54.8,18.9,29.50,NW,315,17.5,21.6,24,-99.99,,,0.00,46.54,rob ver 1B,2013-12-28 14:58:00,
2013-12-28 07:59:00,54.8,19.0,29.50,NW,314,14.9,19.4,24,-99.99,,,0.00,48.85,rob ver 1B,2013-12-28 14:59:00,
2013-12-28 08:00:00,54.8,19.0,29.50,NW,312,16.7,22.1,24,-99.99,,,0.00,51.66,rob ver 1B,2013-12-28 15:00:00,
2013-12-28 08:01:00,54.9,18.9,29.50,NW,310,17.0,23.3,24,-99.99,,,0.00,53.81,rob ver 1B,2013-12-28 15:01:00,
2013-12-28 08:02:00,54.9,18.8,29.50,NW,313,16.8,20.4,23,-99.99,,,0.00,56.12,rob ver 1B,2013-12-28 15:02:00,
2013-12-28 08:03:00,55.0,18.8,29.50,NW,312,16.5,21.1,23,-99.99,,,0.00,58.43,rob ver 1B,2013-12-28 15:03:00,
2013-12-28 08:04:00,55.1,18.8,29.50,NW,311,16.0,19.6,23,-99.99,,,0.00,60.74,rob ver 1B,2013-12-28 15:04:00,
2013-12-28 08:05:00,55.0,18.8,29.50,NW,308,15.1,18.6,24,-99.99,,,0.00,63.05,rob ver 1B,2013-12-28 15:05:00,
2013-12-28 08:06:00,54.9,18.8,29.50,NW,314,16.3,20.2,23,-99.99,,,0.00,65.19,rob ver 1B,2013-12-28 15:06:00,
2013-12-28 08:07:00,54.9,18.9,29.50,NW,311,14.5,16.6,23,-99.99,,,0.00,68.17,rob ver 1B,2013-12-28 15:07:00,
2013-12-28 08:08:00,54.8,19.0,29.53,NW,311,13.1,17.3,24,-99.99,,,0.00,71,rob ver 1B,2013-12-28 15:08:00,
2013-12-28 08:09:00,54.7,19.0,29.53,NW,312,12.3,15.1,24,-99.99,,,0.00,73.6,rob ver 1B,2013-12-28 15:09:00,
2013-12-28 08:10:00,54.6,18.8,29.53,NW,308,15.3,19.7,24,-99.99,,,0.00,76.3,rob ver 1B,2013-12-28 15:10:00,
2013-12-28 08:11:00,54.6,18.8,29.53,NW,306,15.1,18.5,24,-99.99,,,0.00,78.9,rob ver 1B,2013-12-28 15:11:00,
2013-12-28 08:12:00,54.6,19.0,29.53,NW,313,13.9,18.2,24,-99.99,,,0.00,81.5,rob ver 1B,2013-12-28 15:12:00,
2013-12-28 08:13:00,54.5,18.9,29.53,NW,316,14.9,20.8,24,-99.99,,,0.00,84.2,rob ver 1B,2013-12-28 15:13:00,
2013-12-28 08:14:00,54.6,18.9,29.53,NW,316,15.4,18.4,24,-99.99,,,0.00,86.8,rob ver 1B,2013-12-28 15:14:00,
2013-12-28 08:15:00,54.5,19.1,29.53,NW,317,11.9,15.7,24,-99.99,,,0.00,89.5,rob ver 1B,2013-12-28 15:15:00,
2013-12-28 08:16:00,54.4,19.0,29.53,NW,319,12.5,16.0,24,-99.99,,,0.00,92.3,rob ver 1B,2013-12-28 15:16:00,
2013-12-28 08:17:00,54.4,19.1,29.53,NW,319,11.7,15.0,25,-99.99,,,0.00,94.7,rob ver 1B,2013-12-28 15:17:00,
2013-12-28 08:18:00,54.2,19.1,29.53,NW,317,13.5,17.4,24,-99.99,,,0.00,97.7,rob ver 1B,2013-12-28 15:18:00,
2013-12-28 08:19:00,54.3,19.0,29.53,NW,318,13.8,17.2,24,-99.99,,,0.00,100.5,rob ver 1B,2013-12-28 15:19:00,
2013-12-28 08:20:00,54.2,19.1,29.53,NW,316,13.4,15.2,24,-99.99,,,0.00,102.7,rob ver 1B,2013-12-28 15:20:00,
2013-12-28 08:21:00,54.2,19.0,29.53,NW,316,14.8,17.6,24,-99.99,,,0.00,105.3,rob ver 1B,2013-12-28 15:21:00,
2013-12-28 08:22:00,54.2,19.3,29.53,NW,316,11.3,14.5,25,-99.99,,,0.00,107.9,rob ver 1B,2013-12-28 15:22:00,
2013-12-28 08:23:00,54.2,19.2,29.53,NW,322,11.7,15.6,25,-99.99,,,0.00,111.2,rob ver 1B,2013-12-28 15:23:00,
2013-12-28 08:24:00,54.2,19.2,29.53,NW,322,10.8,13.8,25,-99.99,,,0.00,113.2,rob ver 1B,2013-12-28 15:24:00,
2013-12-28 08:25:00,54.2,19.2,29.53,NW,325,11.2,14.2,25,-99.99,,,0.00,115.9,rob ver 1B,2013-12-28 15:25:00,
2013-12-28 08:26:00,54.2,19.2,29.53,NW,320,11.9,14.1,24,-99.99,,,0.00,118.5,rob ver 1B,2013-12-28 15:26:00,
2013-12-28 08:27:00,54.3,19.1,29.53,NW,319,13.4,21.7,24,-99.99,,,0.00,121.1,rob ver 1B,2013-12-28 15:27:00,
2013-12-28 08:28:00,54.4,18.9,29.53,NW,311,16.2,21.7,24,-99.99,,,0.00,124.1,rob ver 1B,2013-12-28 15:28:00,
2013-12-28 08:29:00,54.5,19.0,29.53,NW,314,14.8,18.5,24,-99.99,,,0.00,127.1,rob ver 1B,2013-12-28 15:29:00,
2013-12-28 08:30:00,54.6,18.8,29.53,NW,309,16.9,21.7,24,-99.99,,,0.00,129.6,rob ver 1B,2013-12-28 15:30:00,
2013-12-28 08:31:00,54.9,18.6,29.53,NW,310,20.0,27.9,23,-99.99,,,0.00,132.2,rob ver 1B,2013-12-28 15:31:00,
2013-12-28 08:32:00,55.2,18.5,29.53,NW,310,20.4,25.4,23,-99.99,,,0.00,135,rob ver 1B,2013-12-28 15:32:00,
2013-12-28 08:33:00,55.3,18.6,29.53,NW,309,19.2,24.4,23,-99.99,,,0.00,137.6,rob ver 1B,2013-12-28 15:33:00,
2013-12-28 08:34:00,55.5,18.6,29.53,NW,308,18.5,23.5,23,-99.99,,,0.00,140.3,rob ver 1B,2013-12-28 15:34:00,
2013-12-28 08:35:00,55.5,18.8,29.53,NW,304,16.6,21.5,23,-99.99,,,0.00,142.9,rob ver 1B,2013-12-28 15:35:00,
2013-12-28 08:36:00,55.6,18.7,29.53,NW,311,19.6,23.5,23,-99.99,,,0.00,145.9,rob ver 1B,2013-12-28 15:36:00,
2013-12-28 08:37:00,55.8,18.6,29.53,NW,307,23.8,30.8,23,-99.99,,,0.00,148.2,rob ver 1B,2013-12-28 15:37:00,
2013-12-28 08:38:00,55.9,18.6,29.53,NW,308,26.2,32.3,22,-99.99,,,0.00,151,rob ver 1B,2013-12-28 15:38:00,
2013-12-28 08:39:00,56.1,18.6,29.53,NW,306,24.5,29.3,22,-99.99,,,0.00,153.5,rob ver 1B,2013-12-28 15:39:00,
2013-12-28 08:40:00,56.2,18.6,29.53,NW,305,26.9,33.7,22,-99.99,,,0.00,155.6,rob ver 1B,2013-12-28 15:40:00,
2013-12-28 08:41:00,56.3,18.7,29.53,NW,305,25.0,32.5,22,-99.99,,,0.00,159.4,rob ver 1B,2013-12-28 15:41:00,
2013-12-28 08:42:00,56.4,18.7,29.53,WNW,303,25.7,36.0,22,-99.99,,,0.00,162.2,rob ver 1B,2013-12-28 15:42:00,
2013-12-28 08:43:00,56.4,18.6,29.53,WNW,303,27.9,33.2,22,-99.99,,,0.00,165.4,rob ver 1B,2013-12-28 15:43:00,
2013-12-28 08:44:00,56.5,18.6,29.53,WNW,302,26.0,32.1,22,-99.99,,,0.00,168,rob ver 1B,2013-12-28 15:44:00,
2013-12-28 08:45:00,56.6,18.6,29.53,WNW,299,27.6,34.9,22,-99.99,,,0.00,170.8,rob ver 1B,2013-12-28 15:45:00,
2013-12-28 08:46:00,56.6,18.7,29.53,WNW,301,26.0,32.1,22,-99.99,,,0.00,173.9,rob ver 1B,2013-12-28 15:46:00,
2013-12-28 08:47:00,56.6,18.7,29.53,WNW,303,25.7,32.1,22,-99.99,,,0.00,176.7,rob ver 1B,2013-12-28 15:47:00,
2013-12-28 08:48:00,56.6,18.7,29.53,WNW,298,25.7,31.7,22,-99.99,,,0.00,179.2,rob ver 1B,2013-12-28 15:48:00,
2013-12-28 08:49:00,56.6,18.7,29.53,WNW,301,25.4,31.5,22,-99.99,,,0.00,182.2,rob ver 1B,2013-12-28 15:49:00,
2013-12-28 08:50:00,56.6,18.7,29.53,WNW,300,24.6,30.4,22,-99.99,,,0.00,185,rob ver 1B,2013-12-28 15:50:00,
2013-12-28 08:51:00,56.7,18.8,29.53,WNW,301,23.0,26.5,22,-99.99,,,0.00,187.1,rob ver 1B,2013-12-28 15:51:00,
2013-12-28 08:52:00,56.6,18.8,29.53,WNW,300,23.5,29.2,22,-99.99,,,0.00,190.4,rob ver 1B,2013-12-28 15:52:00,
2013-12-28 08:53:00,56.6,18.9,29.53,WNW,298,22.8,27.1,22,-99.99,,,0.00,193.6,rob ver 1B,2013-12-28 15:53:00,
2013-12-28 08:54:00,56.6,18.8,29.53,WNW,299,24.0,29.3,22,-99.99,,,0.00,196.4,rob ver 1B,2013-12-28 15:54:00,
2013-12-28 08:55:00,56.6,18.8,29.53,WNW,296,23.8,29.0,22,-99.99,,,0.00,200,rob ver 1B,2013-12-28 15:55:00,
2013-12-28 08:56:00,56.7,18.8,29.53,WNW,298,23.2,28.9,22,-99.99,,,0.00,202.3,rob ver 1B,2013-12-28 15:56:00,
2013-12-28 08:57:00,56.8,18.8,29.53,WNW,295,23.8,28.1,22,-99.99,,,0.00,205.3,rob ver 1B,2013-12-28 15:57:00,
2013-12-28 08:58:00,56.8,18.8,29.53,WNW,296,24.1,30.8,22,-99.99,,,0.00,208.3,rob ver 1B,2013-12-28 15:58:00,
2013-12-28 08:59:00,56.9,18.7,29.53,WNW,299,23.4,30.6,21,-99.99,,,0.00,211.6,rob ver 1B,2013-12-28 15:59:00,
2013-12-28 09:00:00,57.0,18.5,29.53,WNW,301,25.6,30.0,22,-99.99,,,0.00,214.2,rob ver 1B,2013-12-28 16:00:00,
2013-12-28 09:01:00,57.1,18.5,29.53,NW,304,22.8,27.5,21,-99.99,,,0.00,216.8,rob ver 1B,2013-12-28 16:01:00,
2013-12-28 09:02:00,57.2,18.6,29.53,NW,307,25.2,33.4,21,-99.99,,,0.00,220.1,rob ver 1B,2013-12-28 16:02:00,
2013-12-28 09:03:00,57.3,18.2,29.53,NW,307,28.8,35.3,21,-99.99,,,0.00,222.1,rob ver 1B,2013-12-28 16:03:00,
2013-12-28 09:04:00,57.4,18.5,29.53,NW,308,23.2,31.5,21,-99.99,,,0.00,225.1,rob ver 1B,2013-12-28 16:04:00,
2013-12-28 09:05:00,57.5,18.4,29.53,NW,314,23.9,30.4,21,-99.99,,,0.00,228.9,rob ver 1B,2013-12-28 16:05:00,
2013-12-28 09:06:00,57.5,18.5,29.53,NW,307,21.9,29.6,21,-99.99,,,0.00,232.3,rob ver 1B,2013-12-28 16:06:00,
2013-12-28 09:07:00,57.6,18.3,29.53,NW,312,27.5,32.7,21,-99.99,,,0.00,235.3,rob ver 1B,2013-12-28 16:07:00,
2013-12-28 09:08:00,57.7,18.2,29.53,NW,309,26.8,33.8,20,-99.99,,,0.00,237.6,rob ver 1B,2013-12-28 16:08:00,
2013-12-28 09:09:00,57.8,18.0,29.53,NW,314,28.6,35.2,20,-99.99,,,0.00,240.6,rob ver 1B,2013-12-28 16:09:00,
2013-12-28 09:10:00,57.9,18.1,29.53,NW,311,27.7,36.4,20,-99.99,,,0.00,243.7,rob ver 1B,2013-12-28 16:10:00,
2013-12-28 09:11:00,58.0,18.1,29.53,NW,312,26.4,35.9,20,-99.99,,,0.00,246.7,rob ver 1B,2013-12-28 16:11:00,
2013-12-28 09:12:00,58.0,18.3,29.53,NW,310,24.0,33.7,20,-99.99,,,0.00,250.2,rob ver 1B,2013-12-28 16:12:00,
2013-12-28 09:13:00,58.0,18.1,29.53,NW,311,27.9,33.9,21,-99.99,,,0.00,253.1,rob ver 1B,2013-12-28 16:13:00,
2013-12-28 09:14:00,58.0,18.1,29.53,NW,307,27.6,35.5,20,-99.99,,,0.00,254.6,rob ver 1B,2013-12-28 16:14:00,
2013-12-28 09:15:00,58.1,17.9,29.53,NW,309,31.7,40.3,20,-99.99,,,0.00,257.7,rob ver 1B,2013-12-28 16:15:00,
2013-12-28 09:16:00,58.1,18.1,29.53,NW,313,27.0,34.9,20,-99.99,,,0.00,261,rob ver 1B,2013-12-28 16:16:00,
2013-12-28 09:17:00,58.1,18.0,29.53,NW,311,26.2,32.1,20,-99.99,,,0.00,263.9,rob ver 1B,2013-12-28 16:17:00,
2013-12-28 09:18:00,58.1,18.1,29.53,NW,312,26.9,34.3,20,-99.99,,,0.00,266.7,rob ver 1B,2013-12-28 16:18:00,
2013-12-28 09:19:00,58.1,18.0,29.53,NW,311,26.6,34.7,20,-99.99,,,0.00,269.3,rob ver 1B,2013-12-28 16:19:00,
2013-12-28 09:20:00,58.2,17.7,29.53,NW,309,32.1,39.0,20,-99.99,,,0.00,272.9,rob ver 1B,2013-12-28 16:20:00,
2013-12-28 09:22:00,58.3,17.7,29.53,NW,310,32.1,40.5,20,-99.99,,,0.00,278.9,rob ver 1B,2013-12-28 16:22:00,
2013-12-28 09:23:00,58.3,17.6,29.53,NW,310,32.9,38.7,20,-99.99,,,0.00,281,rob ver 1B,2013-12-28 16:23:00,
2013-12-28 09:24:00,58.3,17.9,29.53,NW,310,26.3,33.4,20,-99.99,,,0.00,283.2,rob ver 1B,2013-12-28 16:24:00,
2013-12-28 09:25:00,58.3,17.8,29.53,NW,309,30.4,36.0,20,-99.99,,,0.00,287.4,rob ver 1B,2013-12-28 16:25:00,
2013-12-28 09:26:00,58.4,17.6,29.53,NW,310,33.6,42.3,20,-99.99,,,0.00,289.9,rob ver 1B,2013-12-28 16:26:00,
2013-12-28 09:27:00,58.4,17.7,29.53,NW,309,31.5,41.0,20,-99.99,,,0.00,293.2,rob ver 1B,2013-12-28 16:27:00,
2013-12-28 09:28:00,58.4,17.7,29.53,NW,308,27.9,32.3,20,-99.99,,,0.00,295.4,rob ver 1B,2013-12-28 16:28:00,
2013-12-28 09:29:00,58.4,17.7,29.53,NW,306,30.2,40.2,20,-99.99,,,0.00,298.8,rob ver 1B,2013-12-28 16:29:00,
2013-12-28 09:30:00,58.5,17.6,29.53,NW,306,32.3,39.4,20,-99.99,,,0.00,301.6,rob ver 1B,2013-12-28 16:30:00,
2013-12-28 09:31:00,58.5,17.8,29.53,NW,305,27.4,35.5,20,-99.99,,,0.00,303.6,rob ver 1B,2013-12-28 16:31:00,
2013-12-28 09:32:00,58.5,17.6,29.53,NW,308,30.5,39.3,20,-99.99,,,0.00,307.2,rob ver 1B,2013-12-28 16:32:00,
2013-12-28 09:33:00,58.6,17.8,29.53,WNW,303,26.3,32.7,20,-99.99,,,0.00,309.1,rob ver 1B,2013-12-28 16:33:00,
2013-12-28 09:34:00,58.6,17.6,29.53,NW,304,30.2,38.1,19,-99.99,,,0.00,312.2,rob ver 1B,2013-12-28 16:34:00,
2013-12-28 09:35:00,58.7,17.4,29.53,WNW,299,34.3,41.9,19,-99.99,,,0.00,314.2,rob ver 1B,2013-12-28 16:35:00,
2013-12-28 09:36:00,58.7,17.5,29.53,WNW,301,30.0,36.4,19,-99.99,,,0.00,317.3,rob ver 1B,2013-12-28 16:36:00,
2013-12-28 09:37:00,58.7,17.4,29.53,WNW,303,31.8,38.1,19,-99.99,,,0.00,321.3,rob ver 1B,2013-12-28 16:37:00,
2013-12-28 09:38:00,58.7,17.5,29.53,NW,304,29.6,35.8,19,-99.99,,,0.00,323.4,rob ver 1B,2013-12-28 16:38:00,
2013-12-28 09:39:00,58.7,17.6,29.53,WNW,302,24.7,29.2,19,-99.99,,,0.00,325.4,rob ver 1B,2013-12-28 16:39:00,
2013-12-28 09:40:00,58.8,17.6,29.53,WNW,299,28.0,38.2,19,-99.99,,,0.00,327.7,rob ver 1B,2013-12-28 16:40:00,
2013-12-28 09:41:00,58.8,17.4,29.53,WNW,301,30.1,36.0,19,-99.99,,,0.00,330.8,rob ver 1B,2013-12-28 16:41:00,
2013-12-28 09:42:00,58.8,17.5,29.53,NW,304,26.1,31.2,19,-99.99,,,0.00,333.8,rob ver 1B,2013-12-28 16:42:00,
2013-12-28 09:43:00,58.9,17.5,29.53,WNW,301,29.3,38.3,19,-99.99,,,0.00,336.6,rob ver 1B,2013-12-28 16:43:00,
2013-12-28 09:44:00,58.9,17.3,29.53,NW,305,29.4,35.8,19,-99.99,,,0.00,338.7,rob ver 1B,2013-12-28 16:44:00,
2013-12-28 09:45:00,58.9,17.4,29.56,NW,306,29.2,37.7,19,-99.99,,,0.00,342.7,rob ver 1B,2013-12-28 16:45:00,
2013-12-28 09:46:00,58.9,17.5,29.56,NW,305,26.0,32.7,19,-99.99,,,0.00,344.8,rob ver 1B,2013-12-28 16:46:00,
2013-12-28 09:47:00,59.0,17.5,29.56,NW,305,25.8,33.3,19,-99.99,,,0.00,347.1,rob ver 1B,2013-12-28 16:47:00,
2013-12-28 09:48:00,59.1,17.3,29.56,NW,307,28.7,38.3,19,-99.99,,,0.00,349.4,rob ver 1B,2013-12-28 16:48:00,
2013-12-28 09:49:00,59.1,17.4,29.56,NW,305,28.2,33.1,19,-99.99,,,0.00,352.6,rob ver 1B,2013-12-28 16:49:00,
2013-12-28 09:50:00,59.1,17.3,29.56,NW,306,28.1,35.0,19,-99.99,,,0.00,355.7,rob ver 1B,2013-12-28 16:50:00,
2013-12-28 09:51:00,59.0,17.2,29.56,NW,305,29.0,36.9,19,-99.99,,,0.00,356.7,rob ver 1B,2013-12-28 16:51:00,
2013-12-28 09:52:00,59.1,17.5,29.56,WNW,300,26.2,31.9,19,-99.99,,,0.00,360.3,rob ver 1B,2013-12-28 16:52:00,
2013-12-28 09:53:00,59.1,17.4,29.56,NW,306,25.3,33.6,19,-99.99,,,0.00,362.1,rob ver 1B,2013-12-28 16:53:00,
2013-12-28 09:54:00,59.2,17.4,29.56,WNW,303,26.1,33.8,19,-99.99,,,0.00,364.9,rob ver 1B,2013-12-28 16:54:00,
2013-12-28 09:55:00,59.1,17.4,29.56,NW,306,27.1,35.2,19,-99.99,,,0.00,368.2,rob ver 1B,2013-12-28 16:55:00,
2013-12-28 09:56:00,59.2,17.3,29.56,WNW,300,29.2,38.1,19,-99.99,,,0.00,369.7,rob ver 1B,2013-12-28 16:56:00,
2013-12-28 09:57:00,59.2,17.5,29.56,WNW,302,25.1,31.7,19,-99.99,,,0.00,372.2,rob ver 1B,2013-12-28 16:57:00,
2013-12-28 09:58:00,59.2,17.4,29.56,WNW,297,30.0,35.9,19,-99.99,,,0.00,375.2,rob ver 1B,2013-12-28 16:58:00,
2013-12-28 09:59:00,59.2,17.2,29.56,WNW,299,31.0,36.5,19,-99.99,,,0.00,377,rob ver 1B,2013-12-28 16:59:00,
2013-12-28 10:00:00,59.1,17.3,29.56,WNW,299,29.9,38.5,19,-99.99,,,0.00,380.4,rob ver 1B,2013-12-28 17:00:00,
2013-12-28 10:01:00,59.1,17.4,29.56,WNW,299,28.7,36.3,19,-99.99,,,0.00,383.1,rob ver 1B,2013-12-28 17:01:00,
2013-12-28 10:02:00,59.1,17.2,29.56,WNW,302,30.7,37.6,19,-99.99,,,0.00,384.7,rob ver 1B,2013-12-28 17:02:00,
2013-12-28 10:03:00,59.2,17.3,29.56,WNW,301,29.4,32.9,19,-99.99,,,0.00,387.5,rob ver 1B,2013-12-28 17:03:00,
2013-12-28 10:04:00,59.2,17.3,29.56,WNW,300,29.6,35.4,19,-99.99,,,0.00,390.3,rob ver 1B,2013-12-28 17:04:00,
2013-12-28 10:05:00,59.2,17.4,29.56,WNW,303,26.9,32.6,19,-99.99,,,0.00,393,rob ver 1B,2013-12-28 17:05:00,
2013-12-28 10:06:00,59.3,17.4,29.56,NW,304,27.0,31.9,19,-99.99,,,0.00,395.3,rob ver 1B,2013-12-28 17:06:00,
2013-12-28 10:07:00,59.4,17.5,29.56,WNW,300,27.0,32.7,19,-99.99,,,0.00,396.8,rob ver 1B,2013-12-28 17:07:00,
2013-12-28 10:08:00,59.5,17.6,29.56,WNW,300,24.2,30.7,19,-99.99,,,0.00,399.9,rob ver 1B,2013-12-28 17:08:00,
2013-12-28 10:09:00,59.6,17.7,29.56,NW,306,24.6,31.6,19,-99.99,,,0.00,402.4,rob ver 1B,2013-12-28 17:09:00,
2013-12-28 10:10:00,59.6,17.6,29.56,NW,307,24.5,31.1,19,-99.99,,,0.00,404.7,rob ver 1B,2013-12-28 17:10:00,
2013-12-28 10:11:00,59.7,17.8,29.56,NW,305,21.7,26.3,19,-99.99,,,0.00,406.5,rob ver 1B,2013-12-28 17:11:00,
2013-12-28 10:12:00,59.8,17.6,29.56,NW,310,24.9,29.6,19,-99.99,,,0.00,409.5,rob ver 1B,2013-12-28 17:12:00,
2013-12-28 10:13:00,59.8,17.5,29.56,NW,309,27.3,33.6,18,-99.99,,,0.00,411.9,rob ver 1B,2013-12-28 17:13:00,
2013-12-28 10:14:00,59.8,17.5,29.56,NW,306,26.2,31.5,19,-99.99,,,0.00,414.4,rob ver 1B,2013-12-28 17:14:00,
2013-12-28 10:15:00,59.8,17.7,29.56,NW,308,22.9,32.4,19,-99.99,,,0.00,415.7,rob ver 1B,2013-12-28 17:15:00,
2013-12-28 10:16:00,59.9,17.5,29.56,NW,316,27.2,33.6,19,-99.99,,,0.00,419.9,rob ver 1B,2013-12-28 17:16:00,
2013-12-28 10:17:00,59.8,17.5,29.56,NW,312,25.8,30.4,18,-99.99,,,0.00,421.3,rob ver 1B,2013-12-28 17:17:00,
2013-12-28 10:18:00,59.9,17.6,29.56,NW,310,23.3,27.9,18,-99.99,,,0.00,424.3,rob ver 1B,2013-12-28 17:18:00,
2013-12-28 10:19:00,60.0,17.5,29.56,NW,310,24.4,29.8,18,-99.99,,,0.00,426.3,rob ver 1B,2013-12-28 17:19:00,
2013-12-28 10:20:00,60.0,17.3,29.56,NW,308,26.2,31.9,18,-99.99,,,0.00,429.3,rob ver 1B,2013-12-28 17:20:00,
2013-12-28 10:21:00,60.0,17.5,29.56,NW,311,25.0,35.1,19,-99.99,,,0.00,430.4,rob ver 1B,2013-12-28 17:21:00,
2013-12-28 10:22:00,60.0,17.4,29.53,NW,309,25.8,32.1,18,-99.99,,,0.00,433.5,rob ver 1B,2013-12-28 17:22:00,
2013-12-28 10:23:00,60.0,17.3,29.53,NW,313,26.1,33.6,18,-99.99,,,0.00,435.2,rob ver 1B,2013-12-28 17:23:00,
2013-12-28 10:24:00,60.0,17.4,29.53,NW,313,24.7,32.3,18,-99.99,,,0.00,436.7,rob ver 1B,2013-12-28 17:24:00,
2013-12-28 10:25:00,60.0,17.4,29.56,NW,315,23.8,27.5,18,-99.99,,,0.00,439.3,rob ver 1B,2013-12-28 17:25:00,
2013-12-28 10:26:00,60.0,17.5,29.53,NW,314,24.0,29.0,19,-99.99,,,0.00,441.8,rob ver 1B,2013-12-28 17:26:00,
2013-12-28 10:27:00,60.2,17.7,29.53,NW,308,21.8,25.1,18,-99.99,,,0.00,444.3,rob ver 1B,2013-12-28 17:27:00,
2013-12-28 10:28:00,60.3,17.3,29.53,NW,314,26.6,31.6,18,-99.99,,,0.00,446.2,rob ver 1B,2013-12-28 17:28:00,
2013-12-28 10:29:00,60.2,17.1,29.53,NW,310,29.2,33.7,18,-99.99,,,0.00,447.7,rob ver 1B,2013-12-28 17:29:00,
2013-12-28 10:30:00,60.1,17.1,29.53,NW,307,29.1,35.2,18,-99.99,,,0.00,450.4,rob ver 1B,2013-12-28 17:30:00,
2013-12-28 10:31:00,60.1,17.2,29.53,NW,313,25.1,30.4,18,-99.99,,,0.00,452.2,rob ver 1B,2013-12-28 17:31:00,
2013-12-28 10:32:00,60.2,17.5,29.53,NW,307,22.7,30.6,18,-99.99,,,0.00,455.2,rob ver 1B,2013-12-28 17:32:00,
2013-12-28 10:33:00,60.4,17.2,29.53,NW,307,26.2,30.5,18,-99.99,,,0.00,457.6,rob ver 1B,2013-12-28 17:33:00,
2013-12-28 10:34:00,60.4,17.3,29.53,WNW,303,24.9,29.5,18,-99.99,,,0.00,459.1,rob ver 1B,2013-12-28 17:34:00,
2013-12-28 10:35:00,60.4,17.3,29.53,NW,312,25.2,28.9,18,-99.99,,,0.00,462.1,rob ver 1B,2013-12-28 17:35:00,
2013-12-28 10:36:00,60.4,17.4,29.53,NW,313,25.0,30.0,18,-99.99,,,0.00,464.4,rob ver 1B,2013-12-28 17:36:00,
2013-12-28 10:37:00,60.4,17.4,29.53,NW,310,23.1,30.5,18,-99.99,,,0.00,465.2,rob ver 1B,2013-12-28 17:37:00,
2013-12-28 10:38:00,60.6,17.4,29.53,WNW,303,25.8,32.1,18,-99.99,,,0.00,468,rob ver 1B,2013-12-28 17:38:00,
2013-12-28 10:39:00,60.6,17.3,29.53,NW,305,25.2,30.4,18,-99.99,,,0.00,470.5,rob ver 1B,2013-12-28 17:39:00,
2013-12-28 10:40:00,60.6,17.3,29.53,NW,304,27.3,33.6,18,-99.99,,,0.00,471.3,rob ver 1B,2013-12-28 17:40:00,
2013-12-28 10:41:00,60.6,17.1,29.53,NW,306,28.7,32.9,18,-99.99,,,0.00,474.6,rob ver 1B,2013-12-28 17:41:00,
2013-12-28 10:42:00,60.5,17.1,29.53,NW,306,27.5,33.1,18,-99.99,,,0.00,475.6,rob ver 1B,2013-12-28 17:42:00,
2013-12-28 10:43:00,60.5,17.2,29.53,NW,306,27.1,34.8,18,-99.99,,,0.00,477.9,rob ver 1B,2013-12-28 17:43:00,
2013-12-28 10:44:00,60.6,17.3,29.53,NW,309,26.8,32.1,18,-99.99,,,0.00,480.2,rob ver 1B,2013-12-28 17:44:00,
2013-12-28 10:45:00,60.6,17.1,29.53,NW,307,26.4,32.3,18,-99.99,,,0.00,480.6,rob ver 1B,2013-12-28 17:45:00,
2013-12-28 10:46:00,60.6,17.1,29.53,NW,305,27.0,30.6,18,-99.99,,,0.00,483,rob ver 1B,2013-12-28 17:46:00,
2013-12-28 10:47:00,60.7,17.4,29.53,NW,308,24.0,29.0,18,-99.99,,,0.00,485.5,rob ver 1B,2013-12-28 17:47:00,
2013-12-28 10:48:00,60.8,17.2,29.53,WNW,303,27.0,32.4,18,-99.99,,,0.00,488,rob ver 1B,2013-12-28 17:48:00,
2013-12-28 10:49:00,60.9,17.2,29.53,NW,305,26.2,30.2,18,-99.99,,,0.00,488.6,rob ver 1B,2013-12-28 17:49:00,
2013-12-28 10:50:00,60.9,17.2,29.53,NW,305,25.1,30.2,18,-99.99,,,0.00,490,rob ver 1B,2013-12-28 17:50:00,
2013-12-28 10:51:00,60.9,17.3,29.53,NW,307,24.6,30.4,18,-99.99,,,0.00,491.6,rob ver 1B,2013-12-28 17:51:00,
2013-12-28 10:52:00,61.0,17.3,29.53,NW,304,24.3,28.4,18,-99.99,,,0.00,493.8,rob ver 1B,2013-12-28 17:52:00,
2013-12-28 10:53:00,61.1,17.4,29.53,NW,312,21.7,27.1,18,-99.99,,,0.00,495.4,rob ver 1B,2013-12-28 17:53:00,
2013-12-28 10:54:00,61.1,17.4,29.53,NW,314,23.7,28.5,18,-99.99,,,0.00,497.2,rob ver 1B,2013-12-28 17:54:00,
2013-12-28 10:55:00,61.1,17.3,29.53,NW,311,24.0,29.0,17,-99.99,,,0.00,498.4,rob ver 1B,2013-12-28 17:55:00,
2013-12-28 10:56:00,61.0,17.3,29.53,NW,318,22.1,31.2,17,-99.99,,,0.00,501,rob ver 1B,2013-12-28 17:56:00,
2013-12-28 10:57:00,61.0,17.4,29.53,NW,317,22.3,27.2,18,-99.99,,,0.00,501.3,rob ver 1B,2013-12-28 17:57:00,
2013-12-28 10:58:00,61.2,17.3,29.53,WNW,302,22.5,29.9,17,-99.99,,,0.00,502.3,rob ver 1B,2013-12-28 17:58:00,
2013-12-28 10:59:00,61.2,17.2,29.56,WNW,301,22.3,27.7,17,-99.99,,,0.00,503.6,rob ver 1B,2013-12-28 17:59:00,
2013-12-28 11:00:00,61.2,17.1,29.53,WNW,297,24.5,28.5,17,-99.99,,,0.00,505.6,rob ver 1B,2013-12-28 18:00:00,
2013-12-28 11:01:00,61.3,17.4,29.56,NW,306,20.5,26.0,18,-99.99,,,0.00,507.8,rob ver 1B,2013-12-28 18:01:00,
2013-12-28 11:02:00,61.5,17.4,29.56,NW,315,18.3,24.2,17,-99.99,,,0.00,509.7,rob ver 1B,2013-12-28 18:02:00,
2013-12-28 11:03:00,61.6,17.5,29.56,NW,317,18.4,23.5,17,-99.99,,,0.00,509.9,rob ver 1B,2013-12-28 18:03:00,
2013-12-28 11:04:00,61.5,17.2,29.56,NW,314,20.7,25.6,17,-99.99,,,0.00,511.7,rob ver 1B,2013-12-28 18:04:00,
2013-12-28 11:05:00,61.4,17.2,29.56,NW,314,20.3,26.3,17,-99.99,,,0.00,514,rob ver 1B,2013-12-28 18:05:00,
2013-12-28 11:06:00,61.4,17.1,29.56,NW,307,21.5,25.4,17,-99.99,,,0.00,516.5,rob ver 1B,2013-12-28 18:06:00,
2013-12-28 11:07:00,61.5,17.0,29.56,NW,309,21.7,27.7,17,-99.99,,,0.00,516.7,rob ver 1B,2013-12-28 18:07:00,
2013-12-28 11:08:00,61.4,17.1,29.56,NW,311,20.0,23.9,17,-99.99,,,0.00,518.5,rob ver 1B,2013-12-28 18:08:00,
2013-12-28 11:09:00,61.4,17.1,29.56,NW,315,18.7,27.0,17,-99.99,,,0.00,519.5,rob ver 1B,2013-12-28 18:09:00,
2013-12-28 11:10:00,61.5,17.2,29.56,NW,309,17.5,20.9,17,-99.99,,,0.00,521.8,rob ver 1B,2013-12-28 18:10:00,
2013-12-28 11:11:00,61.7,17.3,29.56,NW,315,16.8,21.9,17,-99.99,,,0.00,521.8,rob ver 1B,2013-12-28 18:11:00,
2013-12-28 11:12:00,61.9,17.5,29.56,NW,311,16.0,21.1,17,-99.99,,,0.00,523.6,rob ver 1B,2013-12-28 18:12:00,
2013-12-28 11:13:00,62.3,17.7,29.56,NW,314,13.4,18.3,17,-99.99,,,0.00,524.9,rob ver 1B,2013-12-28 18:13:00,
2013-12-28 11:14:00,62.5,17.5,29.56,NW,308,14.9,20.4,16,-99.99,,,0.00,527.5,rob ver 1B,2013-12-28 18:14:00,
2013-12-28 11:15:00,62.5,17.3,29.56,NW,307,15.9,19.8,17,-99.99,,,0.00,529.2,rob ver 1B,2013-12-28 18:15:00,
2013-12-28 11:16:00,62.6,17.4,29.56,NW,309,15.9,23.1,16,-99.99,,,0.00,530.8,rob ver 1B,2013-12-28 18:16:00,
2013-12-28 11:17:00,62.4,17.1,29.56,NW,313,19.5,24.4,17,-99.99,,,0.00,532.5,rob ver 1B,2013-12-28 18:17:00,
2013-12-28 11:18:00,62.2,16.9,29.56,NW,309,21.2,26.2,16,-99.99,,,0.00,533.3,rob ver 1B,2013-12-28 18:18:00,
2013-12-28 11:19:00,62.0,16.8,29.56,NW,304,21.0,26.2,17,-99.99,,,0.00,534.3,rob ver 1B,2013-12-28 18:19:00,
2013-12-28 11:20:00,62.0,16.9,29.56,NW,308,18.9,24.3,17,-99.99,,,0.00,535.3,rob ver 1B,2013-12-28 18:20:00,
2013-12-28 11:21:00,62.0,16.9,29.56,NW,312,20.1,26.1,17,-99.99,,,0.00,537.1,rob ver 1B,2013-12-28 18:21:00,
2013-12-28 11:22:00,62.0,16.9,29.56,NW,314,21.2,25.3,17,-99.99,,,0.00,538.3,rob ver 1B,2013-12-28 18:22:00,
2013-12-28 11:23:00,61.9,16.9,29.56,NW,308,18.7,24.1,17,-99.99,,,0.00,539.7,rob ver 1B,2013-12-28 18:23:00,
2013-12-28 11:24:00,62.0,17.1,29.56,WNW,300,18.3,23.4,17,-99.99,,,0.00,539.6,rob ver 1B,2013-12-28 18:24:00,
2013-12-28 11:25:00,62.4,17.0,29.56,WNW,293,19.9,23.6,16,-99.99,,,0.00,541.4,rob ver 1B,2013-12-28 18:25:00,
2013-12-28 11:26:00,62.4,16.6,29.56,WNW,301,21.6,26.8,16,-99.99,,,0.00,542.7,rob ver 1B,2013-12-28 18:26:00,
2013-12-28 11:27:00,62.3,16.9,29.56,NW,308,17.9,22.5,17,-99.99,,,0.00,543.9,rob ver 1B,2013-12-28 18:27:00,
2013-12-28 11:28:00,62.3,16.6,29.56,NW,308,18.5,23.1,16,-99.99,,,0.00,544.7,rob ver 1B,2013-12-28 18:28:00,
2013-12-28 11:29:00,62.4,17.0,29.56,WNW,300,19.3,24.3,16,-99.99,,,0.00,545.7,rob ver 1B,2013-12-28 18:29:00,
2013-12-28 11:30:00,62.6,17.0,29.56,NW,314,17.8,21.8,16,-99.99,,,0.00,547.5,rob ver 1B,2013-12-28 18:30:00,
2013-12-28 11:31:00,62.6,16.8,29.56,NW,312,17.5,20.6,16,-99.99,,,0.00,548.8,rob ver 1B,2013-12-28 18:31:00,
2013-12-28 11:32:00,62.8,17.0,29.56,NW,309,15.3,19.4,16,-99.99,,,0.00,550.1,rob ver 1B,2013-12-28 18:32:00,
2013-12-28 11:33:00,62.9,16.7,29.56,NW,313,18.5,21.9,16,-99.99,,,0.00,550.6,rob ver 1B,2013-12-28 18:33:00,
2013-12-28 11:34:00,62.7,16.8,29.56,NW,314,18.1,22.6,16,-99.99,,,0.00,552.9,rob ver 1B,2013-12-28 18:34:00,
2013-12-28 11:35:00,62.6,16.8,29.56,NW,314,18.3,24.2,16,-99.99,,,0.00,553.7,rob ver 1B,2013-12-28 18:35:00,
2013-12-28 11:36:00,62.7,16.5,29.56,NW,307,19.5,25.4,15,-99.99,,,0.00,555.2,rob ver 1B,2013-12-28 18:36:00,
2013-12-28 11:37:00,62.6,15.7,29.56,WNW,296,21.1,26.0,16,-99.99,,,0.00,556.5,rob ver 1B,2013-12-28 18:37:00,
2013-12-28 11:38:00,62.5,16.1,29.56,WNW,292,22.6,27.2,16,-99.99,,,0.00,558.5,rob ver 1B,2013-12-28 18:38:00,
2013-12-28 11:39:00,62.5,16.2,29.56,WNW,302,22.7,27.7,16,-99.99,,,0.00,558.7,rob ver 1B,2013-12-28 18:39:00,
2013-12-28 11:40:00,62.4,16.2,29.56,WNW,300,20.8,27.2,16,-99.99,,,0.00,559.5,rob ver 1B,2013-12-28 18:40:00,
2013-12-28 11:41:00,62.4,15.9,29.56,NW,305,23.8,28.4,16,-99.99,,,0.00,562.1,rob ver 1B,2013-12-28 18:41:00,
2013-12-28 11:42:00,62.2,16.2,29.56,WNW,302,22.5,26.6,16,-99.99,,,0.00,561.5,rob ver 1B,2013-12-28 18:42:00,
2013-12-28 11:43:00,62.4,16.3,29.56,WNW,296,22.1,26.4,16,-99.99,,,0.00,563.9,rob ver 1B,2013-12-28 18:43:00,
2013-12-28 11:44:00,62.6,15.9,29.56,NW,305,21.5,26.4,16,-99.99,,,0.00,563.9,rob ver 1B,2013-12-28 18:44:00,
2013-12-28 11:45:00,62.6,16.3,29.56,NW,304,20.8,25.5,16,-99.99,,,0.00,565.1,rob ver 1B,2013-12-28 18:45:00,
2013-12-28 11:46:00,62.9,16.1,29.56,NW,309,20.1,25.1,16,-99.99,,,0.00,565.1,rob ver 1B,2013-12-28 18:46:00,
2013-12-28 11:47:00,63.2,15.9,29.56,NW,309,21.5,27.4,15,-99.99,,,0.00,566.9,rob ver 1B,2013-12-28 18:47:00,
2013-12-28 11:48:00,63.0,15.6,29.56,NW,314,22.3,26.9,16,-99.99,,,0.00,566.2,rob ver 1B,2013-12-28 18:48:00,
2013-12-28 11:49:00,63.0,15.9,29.56,NW,316,19.4,24.2,15,-99.99,,,0.00,568.9,rob ver 1B,2013-12-28 18:49:00,
2013-12-28 11:50:00,63.0,15.6,29.56,NW,318,19.1,26.5,16,-99.99,,,0.00,569.9,rob ver 1B,2013-12-28 18:50:00,
2013-12-28 11:51:00,63.1,15.9,29.56,NW,305,19.9,24.9,15,-99.99,,,0.00,570,rob ver 1B,2013-12-28 18:51:00,
2013-12-28 11:52:00,63.3,15.5,29.56,WNW,303,20.2,24.9,15,-99.99,,,0.00,570.7,rob ver 1B,2013-12-28 18:52:00,
2013-12-28 11:53:00,63.2,15.3,29.53,WNW,303,24.5,28.7,15,-99.99,,,0.00,570.7,rob ver 1B,2013-12-28 18:53:00,
2013-12-28 11:54:00,63.0,15.3,29.56,WNW,296,23.3,27.7,15,-99.99,,,0.00,572,rob ver 1B,2013-12-28 18:54:00,
2013-12-28 11:55:00,63.0,15.2,29.56,WNW,301,23.9,28.3,15,-99.99,,,0.00,571.7,rob ver 1B,2013-12-28 18:55:00,
2013-12-28 11:56:00,62.9,15.2,29.56,NW,309,23.5,29.2,15,-99.99,,,0.00,572.8,rob ver 1B,2013-12-28 18:56:00,
2013-12-28 11:57:00,62.9,15.1,29.56,NW,304,23.2,27.8,15,-99.99,,,0.00,573.5,rob ver 1B,2013-12-28 18:57:00,
2013-12-28 11:58:00,62.8,15.0,29.56,NW,310,23.4,28.6,15,-99.99,,,0.00,573,rob ver 1B,2013-12-28 18:58:00,
2013-12-28 11:59:00,62.8,15.5,29.56,NW,316,18.1,22.0,15,-99.99,,,0.00,573.3,rob ver 1B,2013-12-28 18:59:00,
2013-12-28 12:00:00,63.0,15.5,29.56,NW,308,17.9,21.7,15,-99.99,,,0.00,574.8,rob ver 1B,2013-12-28 19:00:00,
2013-12-28 12:01:00,63.2,15.5,29.56,NW,309,18.3,23.7,15,-99.99,,,0.00,574.8,rob ver 1B,2013-12-28 19:01:00,
2013-12-28 12:02:00,63.6,15.9,29.56,NW,304,15.9,23.5,15,-99.99,,,0.00,575.6,rob ver 1B,2013-12-28 19:02:00,
2013-12-28 12:03:00,63.8,15.4,29.56,WNW,297,19.5,24.5,15,-99.99,,,0.00,576.8,rob ver 1B,2013-12-28 19:03:00,
2013-12-28 12:04:00,63.8,15.4,29.56,NW,306,18.6,22.0,15,-99.99,,,0.00,578.6,rob ver 1B,2013-12-28 19:04:00,
2013-12-28 12:05:00,63.7,15.3,29.56,WNW,298,20.7,26.3,15,-99.99,,,0.00,578.6,rob ver 1B,2013-12-28 19:05:00,
2013-12-28 12:06:00,63.6,15.4,29.56,WNW,297,20.4,26.9,15,-99.99,,,0.00,577.8,rob ver 1B,2013-12-28 19:06:00,
2013-12-28 12:07:00,63.7,15.4,29.56,WNW,296,21.3,26.9,15,-99.99,,,0.00,579.6,rob ver 1B,2013-12-28 19:07:00,
2013-12-28 12:08:00,63.6,15.3,29.53,WNW,300,22.3,26.0,15,-99.99,,,0.00,579.6,rob ver 1B,2013-12-28 19:08:00,
2013-12-28 12:09:00,63.4,15.2,29.53,WNW,299,23.8,26.8,15,-99.99,,,0.00,579.4,rob ver 1B,2013-12-28 19:09:00,
2013-12-28 12:10:00,63.3,15.2,29.56,NW,305,21.3,27.2,15,-99.99,,,0.00,579.7,rob ver 1B,2013-12-28 19:10:00,
2013-12-28 12:11:00,63.3,15.3,29.56,NW,313,18.6,23.6,15,-99.99,,,0.00,581.7,rob ver 1B,2013-12-28 19:11:00,
2013-12-28 12:12:00,63.4,15.4,29.56,WNW,298,18.6,24.5,15,-99.99,,,0.00,582.5,rob ver 1B,2013-12-28 19:12:00,
2013-12-28 12:13:00,63.6,15.3,29.53,WNW,299,20.0,26.3,14,-99.99,,,0.00,583.4,rob ver 1B,2013-12-28 19:13:00,
2013-12-28 12:14:00,63.6,15.2,29.56,WNW,300,21.3,26.3,14,-99.99,,,0.00,583.5,rob ver 1B,2013-12-28 19:14:00,
2013-12-28 12:15:00,63.5,15.2,29.56,WNW,298,22.7,28.1,15,-99.99,,,0.00,583.7,rob ver 1B,2013-12-28 19:15:00,
2013-12-28 12:16:00,63.6,15.3,29.56,WNW,300,20.4,27.0,14,-99.99,,,0.00,582.9,rob ver 1B,2013-12-28 19:16:00,
2013-12-28 12:17:00,63.7,15.4,29.56,WNW,301,19.4,24.6,14,-99.99,,,0.00,582.5,rob ver 1B,2013-12-28 19:17:00,
2013-12-28 12:18:00,63.8,15.3,29.56,NW,307,20.3,25.0,15,-99.99,,,0.00,583.9,rob ver 1B,2013-12-28 19:18:00,
2013-12-28 12:19:00,63.8,15.4,29.56,NW,315,18.1,22.7,15,-99.99,,,0.00,585.3,rob ver 1B,2013-12-28 19:19:00,
2013-12-28 12:20:00,64.0,15.5,29.56,NW,306,15.7,19.0,15,-99.99,,,0.00,585.8,rob ver 1B,2013-12-28 19:20:00,
2013-12-28 12:21:00,64.2,15.5,29.56,WNW,303,15.1,20.8,14,-99.99,,,0.00,586.7,rob ver 1B,2013-12-28 19:21:00,
2013-12-28 12:22:00,64.3,15.5,29.56,WNW,286,16.0,21.0,14,-99.99,,,0.00,585.8,rob ver 1B,2013-12-28 19:22:00,
2013-12-28 12:23:00,64.3,15.4,29.56,WNW,298,17.4,22.8,14,-99.99,,,0.00,587.2,rob ver 1B,2013-12-28 19:23:00,
2013-12-28 12:24:00,64.0,15.3,29.56,NW,307,18.3,22.2,14,-99.99,,,0.00,587.3,rob ver 1B,2013-12-28 19:24:00,
2013-12-28 12:25:00,64.1,15.5,29.56,WNW,296,15.8,19.7,15,-99.99,,,0.00,587.8,rob ver 1B,2013-12-28 19:25:00,
2013-12-28 12:26:00,64.2,15.3,29.56,WNW,297,18.5,25.2,14,-99.99,,,0.00,588.6,rob ver 1B,2013-12-28 19:26:00,
2013-12-28 12:27:00,64.2,15.4,29.56,WNW,300,16.8,20.5,14,-99.99,,,0.00,588.5,rob ver 1B,2013-12-28 19:27:00,
2013-12-28 12:28:00,64.3,15.4,29.56,WNW,296,16.9,19.1,14,-99.99,,,0.00,589.1,rob ver 1B,2013-12-28 19:28:00,
2013-12-28 12:29:00,64.2,15.5,29.56,WNW,303,15.1,18.5,14,-99.99,,,0.00,589.5,rob ver 1B,2013-12-28 19:29:00,
2013-12-28 12:30:00,64.4,15.4,29.56,NW,306,16.4,19.9,14,-99.99,,,0.00,589.5,rob ver 1B,2013-12-28 19:30:00,
2013-12-28 12:31:00,64.2,15.3,29.56,NW,304,16.4,20.2,15,-99.99,,,0.00,589.1,rob ver 1B,2013-12-28 19:31:00,
2013-12-28 12:32:00,64.3,15.3,29.53,WNW,296,17.5,20.9,14,-99.99,,,0.00,589.1,rob ver 1B,2013-12-28 19:32:00,
2013-12-28 12:33:00,64.3,15.3,29.53,WNW,295,17.9,23.0,14,-99.99,,,0.00,589.5,rob ver 1B,2013-12-28 19:33:00,
2013-12-28 12:34:00,64.2,15.3,29.56,WNW,301,16.2,21.1,14,-99.99,,,0.00,589.3,rob ver 1B,2013-12-28 19:34:00,
2013-12-28 12:35:00,64.5,15.7,29.56,WNW,301,13.8,18.9,14,-99.99,,,0.00,590.1,rob ver 1B,2013-12-28 19:35:00,
2013-12-28 12:36:00,64.8,15.6,29.53,NW,308,15.2,22.1,14,-99.99,,,0.00,589.1,rob ver 1B,2013-12-28 19:36:00,
2013-12-28 12:37:00,64.9,15.3,29.53,WNW,296,16.8,22.2,14,-99.99,,,0.00,588.5,rob ver 1B,2013-12-28 19:37:00,
2013-12-28 12:38:00,64.6,15.3,29.53,WNW,292,15.5,20.0,14,-99.99,,,0.00,590.3,rob ver 1B,2013-12-28 19:38:00,
2013-12-28 12:39:00,64.5,15.3,29.53,WNW,290,18.1,23.4,14,-99.99,,,0.00,590.8,rob ver 1B,2013-12-28 19:39:00,
2013-12-28 12:40:00,64.5,15.2,29.53,WNW,287,18.0,21.8,14,-99.99,,,0.00,589.5,rob ver 1B,2013-12-28 19:40:00,
2013-12-28 12:41:00,64.7,15.2,29.53,WNW,291,18.9,23.3,14,-99.99,,,0.00,590.5,rob ver 1B,2013-12-28 19:41:00,
2013-12-28 12:42:00,64.6,15.0,29.53,WNW,292,19.6,24.4,14,-99.99,,,0.00,590.5,rob ver 1B,2013-12-28 19:42:00,
2013-12-28 12:43:00,64.3,14.8,29.53,WNW,290,20.4,25.3,14,-99.99,,,0.00,590.1,rob ver 1B,2013-12-28 19:43:00,
2013-12-28 12:44:00,64.2,15.1,29.53,WNW,290,16.2,21.9,14,-99.99,,,0.00,590.6,rob ver 1B,2013-12-28 19:44:00,
2013-12-28 12:45:00,64.4,15.1,29.53,WNW,295,20.1,24.4,14,-99.99,,,0.00,590.5,rob ver 1B,2013-12-28 19:45:00,
2013-12-28 12:46:00,64.3,14.8,29.53,NW,307,20.2,25.1,14,-99.99,,,0.00,589.6,rob ver 1B,2013-12-28 19:46:00,
2013-12-28 12:47:00,64.3,15.2,29.53,WNW,298,16.0,19.2,14,-99.99,,,0.00,590.1,rob ver 1B,2013-12-28 19:47:00,
2013-12-28 12:48:00,64.8,15.5,29.53,WNW,298,16.2,19.5,14,-99.99,,,0.00,589.8,rob ver 1B,2013-12-28 19:48:00,
2013-12-28 12:49:00,65.1,15.3,29.53,WNW,296,16.2,21.3,14,-99.99,,,0.00,589.5,rob ver 1B,2013-12-28 19:49:00,
2013-12-28 12:50:00,65.2,15.3,29.53,WNW,296,15.0,17.6,14,-99.99,,,0.00,588.5,rob ver 1B,2013-12-28 19:50:00,
2013-12-28 12:51:00,65.2,15.0,29.53,NW,307,19.6,23.6,13,-99.99,,,0.00,589.8,rob ver 1B,2013-12-28 19:51:00,
2013-12-28 12:52:00,65.1,14.8,29.53,NW,306,20.5,25.3,14,-99.99,,,0.00,589.3,rob ver 1B,2013-12-28 19:52:00,
2013-12-28 12:53:00,65.2,15.2,29.53,NW,305,16.4,19.1,14,-99.99,,,0.00,589,rob ver 1B,2013-12-28 19:53:00,
2013-12-28 12:54:00,65.4,15.3,29.53,NW,306,15.5,20.0,14,-99.99,,,0.00,588.8,rob ver 1B,2013-12-28 19:54:00,
2013-12-28 12:55:00,65.6,15.4,29.53,WNW,303,17.2,21.3,13,-99.99,,,0.00,589.8,rob ver 1B,2013-12-28 19:55:00,
2013-12-28 12:56:00,65.6,15.1,29.53,NW,310,17.1,21.9,14,-99.99,,,0.00,588,rob ver 1B,2013-12-28 19:56:00,
2013-12-28 12:57:00,65.5,15.0,29.53,WNW,299,18.9,23.4,14,-99.99,,,0.00,588.3,rob ver 1B,2013-12-28 19:57:00,
2013-12-28 12:58:00,65.4,14.9,29.53,NW,304,20.2,23.9,13,-99.99,,,0.00,588.3,rob ver 1B,2013-12-28 19:58:00,
2013-12-28 12:59:00,65.2,14.9,29.53,NW,309,18.2,22.5,13,-99.99,,,0.00,586.8,rob ver 1B,2013-12-28 19:59:00,
2013-12-28 13:00:00,65.1,14.8,29.53,NW,316,17.4,20.7,14,-99.99,,,0.00,585.8,rob ver 1B,2013-12-28 20:00:00,
2013-12-28 13:01:00,65.3,15.2,29.53,NW,305,18.5,24.6,14,-99.99,,,0.00,585,rob ver 1B,2013-12-28 20:01:00,
2013-12-28 13:02:00,65.5,15.0,29.53,NW,313,19.7,23.6,13,-99.99,,,0.00,585.5,rob ver 1B,2013-12-28 20:02:00,
2013-12-28 13:03:00,65.4,14.9,29.53,WNW,301,16.5,19.8,13,-99.99,,,0.00,584.5,rob ver 1B,2013-12-28 20:03:00,
2013-12-28 13:04:00,65.5,15.0,29.53,WNW,301,17.7,22.4,13,-99.99,,,0.00,585.2,rob ver 1B,2013-12-28 20:04:00,
2013-12-28 13:05:00,65.4,14.7,29.53,WNW,289,21.3,25.6,13,-99.99,,,0.00,585.2,rob ver 1B,2013-12-28 20:05:00,
2013-12-28 13:06:00,65.1,14.6,29.53,WNW,287,19.0,27.0,13,-99.99,,,0.00,584.2,rob ver 1B,2013-12-28 20:06:00,
2013-12-28 13:07:00,65.2,14.8,29.53,WNW,285,17.2,20.9,14,-99.99,,,0.00,583.5,rob ver 1B,2013-12-28 20:07:00,
2013-12-28 13:08:00,65.3,14.8,29.53,WNW,291,19.2,24.9,13,-99.99,,,0.00,583.5,rob ver 1B,2013-12-28 20:08:00,
2013-12-28 13:09:00,65.2,14.7,29.53,WNW,291,20.7,24.1,13,-99.99,,,0.00,582.7,rob ver 1B,2013-12-28 20:09:00,
2013-12-28 13:10:00,65.2,14.7,29.53,WNW,291,19.8,24.4,13,-99.99,,,0.00,582.2,rob ver 1B,2013-12-28 20:10:00,
2013-12-28 13:11:00,65.3,14.7,29.53,WNW,291,18.1,21.5,13,-99.99,,,0.00,582.3,rob ver 1B,2013-12-28 20:11:00,
2013-12-28 13:12:00,65.3,14.6,29.53,WNW,285,20.5,25.7,13,-99.99,,,0.00,579.7,rob ver 1B,2013-12-28 20:12:00,
2013-12-28 13:13:00,65.3,14.5,29.53,WNW,294,21.7,27.4,13,-99.99,,,0.00,579.8,rob ver 1B,2013-12-28 20:13:00,
2013-12-28 13:14:00,65.0,14.4,29.53,WNW,291,22.2,25.9,13,-99.99,,,0.00,579.7,rob ver 1B,2013-12-28 20:14:00,
2013-12-28 13:15:00,64.9,14.5,29.53,WNW,290,20.6,24.0,13,-99.99,,,0.00,579,rob ver 1B,2013-12-28 20:15:00,
2013-12-28 13:16:00,65.1,14.8,29.53,WNW,290,17.0,20.6,14,-99.99,,,0.00,578.3,rob ver 1B,2013-12-28 20:16:00,
2013-12-28 13:17:00,65.5,14.9,29.53,West,281,18.4,22.3,13,-99.99,,,0.00,577.5,rob ver 1B,2013-12-28 20:17:00,
2013-12-28 13:18:00,65.7,14.9,29.53,WNW,293,15.1,20.5,13,-99.99,,,0.00,577.2,rob ver 1B,2013-12-28 20:18:00,
2013-12-28 13:19:00,65.9,14.9,29.53,WNW,294,18.3,23.8,13,-99.99,,,0.00,576.8,rob ver 1B,2013-12-28 20:19:00,
2013-12-28 13:20:00,65.7,14.4,29.53,NW,306,18.5,23.6,13,-99.99,,,0.00,576.5,rob ver 1B,2013-12-28 20:20:00,
2013-12-28 13:21:00,65.5,14.6,29.53,NW,306,17.4,19.4,13,-99.99,,,0.00,573.5,rob ver 1B,2013-12-28 20:21:00,
2013-12-28 13:22:00,65.5,14.7,29.53,NW,304,16.4,19.8,13,-99.99,,,0.00,573.9,rob ver 1B,2013-12-28 20:22:00,
2013-12-28 13:23:00,65.8,14.9,29.53,NW,311,13.2,17.6,13,-99.99,,,0.00,572.5,rob ver 1B,2013-12-28 20:23:00,
2013-12-28 13:24:00,66.0,14.9,29.53,NW,304,17.2,24.0,13,-99.99,,,0.00,572.7,rob ver 1B,2013-12-28 20:24:00,
2013-12-28 13:25:00,65.9,14.6,29.53,WNW,290,19.6,24.0,13,-99.99,,,0.00,571.6,rob ver 1B,2013-12-28 20:25:00,
2013-12-28 13:26:00,65.5,14.4,29.53,WNW,297,19.1,23.4,13,-99.99,,,0.00,572.1,rob ver 1B,2013-12-28 20:26:00,
2013-12-28 13:27:00,65.5,14.6,29.53,WNW,299,17.5,21.7,13,-99.99,,,0.00,570.4,rob ver 1B,2013-12-28 20:27:00,
2013-12-28 13:28:00,65.6,14.5,29.53,WNW,288,14.0,19.1,13,-99.99,,,0.00,568.4,rob ver 1B,2013-12-28 20:28:00,
2013-12-28 13:29:00,65.8,14.9,29.53,WNW,295,16.5,28.6,13,-99.99,,,0.00,567.4,rob ver 1B,2013-12-28 20:29:00,
2013-12-28 13:30:00,66.0,14.6,29.53,NW,305,17.3,21.1,13,-99.99,,,0.00,567.3,rob ver 1B,2013-12-28 20:30:00,
2013-12-28 13:31:00,65.8,14.6,29.53,WNW,297,18.4,21.3,13,-99.99,,,0.00,566.3,rob ver 1B,2013-12-28 20:31:00,
2013-12-28 13:32:00,65.9,14.5,29.53,WNW,303,16.6,20.4,13,-99.99,,,0.00,565.8,rob ver 1B,2013-12-28 20:32:00,
2013-12-28 13:33:00,65.9,14.4,29.53,WNW,299,15.0,18.6,13,-99.99,,,0.00,565.4,rob ver 1B,2013-12-28 20:33:00,
2013-12-28 13:34:00,65.8,14.6,29.53,NW,312,16.5,20.1,13,-99.99,,,0.00,564.5,rob ver 1B,2013-12-28 20:34:00,
2013-12-28 13:35:00,66.0,14.6,29.53,WNW,290,18.5,24.3,13,-99.99,,,0.00,564,rob ver 1B,2013-12-28 20:35:00,
2013-12-28 13:36:00,66.0,14.5,29.53,WNW,293,18.1,21.2,13,-99.99,,,0.00,562,rob ver 1B,2013-12-28 20:36:00,
2013-12-28 13:37:00,65.9,14.4,29.53,WNW,301,18.1,22.8,13,-99.99,,,0.00,562,rob ver 1B,2013-12-28 20:37:00,
2013-12-28 13:38:00,65.8,14.2,29.53,WNW,300,15.9,21.2,13,-99.99,,,0.00,560.5,rob ver 1B,2013-12-28 20:38:00,
2013-12-28 13:39:00,65.6,14.3,29.53,WNW,292,16.5,21.0,13,-99.99,,,0.00,559.7,rob ver 1B,2013-12-28 20:39:00,
2013-12-28 13:40:00,65.7,14.4,29.53,WNW,292,18.1,22.0,13,-99.99,,,0.00,558,rob ver 1B,2013-12-28 20:40:00,
2013-12-28 13:41:00,65.8,14.3,29.53,WNW,284,16.7,20.2,13,-99.99,,,0.00,557.7,rob ver 1B,2013-12-28 20:41:00,
2013-12-28 13:42:00,65.8,14.3,29.53,WNW,295,17.3,22.4,13,-99.99,,,0.00,557.2,rob ver 1B,2013-12-28 20:42:00,
2013-12-28 13:43:00,65.8,14.2,29.53,WNW,300,19.3,22.3,13,-99.99,,,0.00,556.2,rob ver 1B,2013-12-28 20:43:00,
2013-12-28 13:44:00,65.6,14.0,29.53,WNW,293,18.6,23.0,13,-99.99,,,0.00,555,rob ver 1B,2013-12-28 20:44:00,
2013-12-28 13:45:00,65.6,14.3,29.53,WNW,282,16.6,21.7,13,-99.99,,,0.00,553.7,rob ver 1B,2013-12-28 20:45:00,
2013-12-28 13:46:00,65.8,14.3,29.53,WNW,294,16.3,21.0,13,-99.99,,,0.00,551.3,rob ver 1B,2013-12-28 20:46:00,
2013-12-28 13:47:00,65.9,14.2,29.53,WNW,300,18.1,22.3,13,-99.99,,,0.00,551.4,rob ver 1B,2013-12-28 20:47:00,
2013-12-28 13:48:00,65.9,14.3,29.53,WNW,301,17.7,23.1,13,-99.99,,,0.00,549.6,rob ver 1B,2013-12-28 20:48:00,
2013-12-28 13:49:00,66.1,14.2,29.53,WNW,301,17.6,20.3,13,-99.99,,,0.00,548.6,rob ver 1B,2013-12-28 20:49:00,
2013-12-28 13:50:00,66.1,14.3,29.53,WNW,294,15.6,20.6,13,-99.99,,,0.00,547.3,rob ver 1B,2013-12-28 20:50:00,
2013-12-28 13:51:00,66.1,14.3,29.53,WNW,284,16.4,21.7,13,-99.99,,,0.00,545.2,rob ver 1B,2013-12-28 20:51:00,
2013-12-28 13:52:00,66.2,14.5,29.53,WNW,285,17.8,23.6,13,-99.99,,,0.00,544.7,rob ver 1B,2013-12-28 20:52:00,
2013-12-28 13:53:00,66.5,14.4,29.53,WNW,295,18.5,23.7,13,-99.99,,,0.00,542.5,rob ver 1B,2013-12-28 20:53:00,
2013-12-28 13:54:00,66.6,14.4,29.53,WNW,295,17.9,23.2,13,-99.99,,,0.00,542.3,rob ver 1B,2013-12-28 20:54:00,
2013-12-28 13:55:00,66.6,14.5,29.53,WNW,303,17.4,21.3,13,-99.99,,,0.00,540.2,rob ver 1B,2013-12-28 20:55:00,
2013-12-28 13:56:00,66.7,14.3,29.53,WNW,303,18.1,22.1,13,-99.99,,,0.00,540,rob ver 1B,2013-12-28 20:56:00,
2013-12-28 13:57:00,66.7,14.2,29.53,WNW,287,20.0,23.7,12,-99.99,,,0.00,538.4,rob ver 1B,2013-12-28 20:57:00,
2013-12-28 13:58:00,66.4,14.1,29.53,WNW,283,18.8,21.3,13,-99.99,,,0.00,536.9,rob ver 1B,2013-12-28 20:58:00,
2013-12-28 13:59:00,66.1,14.0,29.53,WNW,283,18.5,23.4,13,-99.99,,,0.00,536.4,rob ver 1B,2013-12-28 20:59:00,
2013-12-28 14:00:00,66.1,14.0,29.53,WNW,283,18.8,21.9,13,-99.99,,,0.00,534.6,rob ver 1B,2013-12-28 21:00:00,
2013-12-28 14:01:00,66.0,13.9,29.53,West,280,19.8,24.3,13,-99.99,,,0.00,532.8,rob ver 1B,2013-12-28 21:01:00,
2013-12-28 14:02:00,66.0,14.1,29.53,WNW,284,15.9,19.5,13,-99.99,,,0.00,531.5,rob ver 1B,2013-12-28 21:02:00,
2013-12-28 14:03:00,66.2,14.1,29.53,WNW,293,18.9,23.4,13,-99.99,,,0.00,530.8,rob ver 1B,2013-12-28 21:03:00,
2013-12-28 14:04:00,66.2,14.1,29.53,WNW,299,19.1,23.6,13,-99.99,,,0.00,528.2,rob ver 1B,2013-12-28 21:04:00,
2013-12-28 14:05:00,66.3,13.8,29.53,WNW,290,21.4,25.7,12,-99.99,,,0.00,526.4,rob ver 1B,2013-12-28 21:05:00,
2013-12-28 14:06:00,66.2,14.1,29.53,WNW,296,18.2,22.7,12,-99.99,,,0.00,525,rob ver 1B,2013-12-28 21:06:00,
2013-12-28 14:07:00,66.4,14.2,29.53,WNW,295,16.2,22.4,12,-99.99,,,0.00,524.9,rob ver 1B,2013-12-28 21:07:00,
2013-12-28 14:08:00,66.4,14.1,29.53,WNW,284,18.7,25.6,13,-99.99,,,0.00,522.7,rob ver 1B,2013-12-28 21:08:00,
2013-12-28 14:09:00,66.5,14.1,29.53,WNW,285,20.1,25.8,12,-99.99,,,0.00,521.4,rob ver 1B,2013-12-28 21:09:00,
2013-12-28 14:10:00,66.6,14.2,29.53,WNW,293,16.8,20.7,12,-99.99,,,0.00,518.9,rob ver 1B,2013-12-28 21:10:00,
2013-12-28 14:11:00,66.6,14.1,29.53,WNW,294,17.3,22.2,12,-99.99,,,0.00,517.5,rob ver 1B,2013-12-28 21:11:00,
2013-12-28 14:12:00,66.5,14.1,29.53,WNW,290,18.8,22.1,12,-99.99,,,0.00,516.5,rob ver 1B,2013-12-28 21:12:00,
2013-12-28 14:13:00,66.5,13.9,29.53,WNW,285,20.4,24.0,12,-99.99,,,0.00,514.7,rob ver 1B,2013-12-28 21:13:00,
2013-12-28 14:14:00,66.4,13.9,29.53,WNW,287,19.1,23.5,12,-99.99,,,0.00,512.7,rob ver 1B,2013-12-28 21:14:00,
2013-12-28 14:15:00,66.4,13.8,29.53,WNW,298,18.1,23.0,12,-99.99,,,0.00,511.4,rob ver 1B,2013-12-28 21:15:00,
2013-12-28 14:16:00,66.5,13.8,29.53,WNW,290,18.2,21.8,12,-99.99,,,0.00,510.5,rob ver 1B,2013-12-28 21:16:00,
2013-12-28 14:17:00,66.7,13.9,29.53,WNW,295,18.0,27.5,12,-99.99,,,0.00,507.6,rob ver 1B,2013-12-28 21:17:00,
2013-12-28 14:18:00,66.6,13.7,29.53,WNW,294,20.5,24.5,12,-99.99,,,0.00,506.4,rob ver 1B,2013-12-28 21:18:00,
2013-12-28 14:19:00,66.3,13.8,29.53,WNW,286,16.6,21.3,12,-99.99,,,0.00,503.3,rob ver 1B,2013-12-28 21:19:00,
2013-12-28 14:20:00,66.3,13.7,29.53,WNW,282,18.1,21.9,12,-99.99,,,0.00,502,rob ver 1B,2013-12-28 21:20:00,
2013-12-28 14:21:00,66.3,13.9,29.53,WNW,287,17.0,21.5,12,-99.99,,,0.00,499.7,rob ver 1B,2013-12-28 21:21:00,
2013-12-28 14:22:00,66.4,13.9,29.53,WNW,288,20.0,23.2,12,-99.99,,,0.00,499.5,rob ver 1B,2013-12-28 21:22:00,
2013-12-28 14:23:00,66.4,13.7,29.53,WNW,294,20.4,24.9,12,-99.99,,,0.00,497.3,rob ver 1B,2013-12-28 21:23:00,
2013-12-28 14:24:00,66.2,13.5,29.53,WNW,294,22.0,25.5,12,-99.99,,,0.00,495.7,rob ver 1B,2013-12-28 21:24:00,
2013-12-28 14:25:00,66.2,13.7,29.53,WNW,289,21.1,25.5,12,-99.99,,,0.00,494.7,rob ver 1B,2013-12-28 21:25:00,
2013-12-28 14:26:00,66.3,13.8,29.53,WNW,285,19.3,22.9,12,-99.99,,,0.00,492.9,rob ver 1B,2013-12-28 21:26:00,
2013-12-28 14:27:00,66.4,13.7,29.53,WNW,290,18.2,21.8,12,-99.99,,,0.00,491.4,rob ver 1B,2013-12-28 21:27:00,
2013-12-28 14:28:00,66.3,13.6,29.53,WNW,294,18.3,22.7,12,-99.99,,,0.00,490.4,rob ver 1B,2013-12-28 21:28:00,
2013-12-28 14:29:00,66.4,13.7,29.53,WNW,299,18.5,21.6,12,-99.99,,,0.00,487.3,rob ver 1B,2013-12-28 21:29:00,
2013-12-28 14:30:00,66.5,13.7,29.53,WNW,301,17.6,20.5,12,-99.99,,,0.00,485.3,rob ver 1B,2013-12-28 21:30:00,
2013-12-28 14:31:00,66.6,13.8,29.53,WNW,289,17.7,21.4,12,-99.99,,,0.00,483.6,rob ver 1B,2013-12-28 21:31:00,
2013-12-28 14:32:00,66.6,13.6,29.53,WNW,298,18.7,22.1,12,-99.99,,,0.00,480.9,rob ver 1B,2013-12-28 21:32:00,
2013-12-28 14:33:00,66.6,13.7,29.53,WNW,297,15.7,18.5,12,-99.99,,,0.00,479.7,rob ver 1B,2013-12-28 21:33:00,
2013-12-28 14:34:00,66.6,13.6,29.53,WNW,290,17.9,20.9,12,-99.99,,,0.00,477.7,rob ver 1B,2013-12-28 21:34:00,
2013-12-28 14:35:00,66.8,13.9,29.53,WNW,296,15.6,19.5,12,-99.99,,,0.00,475.6,rob ver 1B,2013-12-28 21:35:00,
2013-12-28 14:36:00,66.9,13.6,29.53,WNW,292,15.7,19.1,12,-99.99,,,0.00,472.4,rob ver 1B,2013-12-28 21:36:00,
2013-12-28 14:37:00,66.8,13.7,29.53,WNW,300,13.8,17.3,12,-99.99,,,0.00,471.6,rob ver 1B,2013-12-28 21:37:00,
2013-12-28 14:38:00,66.8,13.9,29.53,WNW,300,15.6,19.5,12,-99.99,,,0.00,469.6,rob ver 1B,2013-12-28 21:38:00,
2013-12-28 14:39:00,66.9,13.9,29.53,WNW,293,16.3,20.7,12,-99.99,,,0.00,467.7,rob ver 1B,2013-12-28 21:39:00,
2013-12-28 14:40:00,66.9,13.8,29.53,WNW,297,15.5,20.1,12,-99.99,,,0.00,464,rob ver 1B,2013-12-28 21:40:00,
2013-12-28 14:41:00,66.9,13.9,29.53,WNW,285,17.8,22.3,12,-99.99,,,0.00,463.9,rob ver 1B,2013-12-28 21:41:00,
2013-12-28 14:42:00,66.8,13.7,29.53,WNW,288,15.1,17.9,12,-99.99,,,0.00,462.1,rob ver 1B,2013-12-28 21:42:00,
2013-12-28 14:43:00,66.8,13.9,29.53,WNW,291,13.8,16.9,12,-99.99,,,0.00,458.8,rob ver 1B,2013-12-28 21:43:00,
2013-12-28 14:44:00,66.9,13.9,29.53,NW,304,16.2,22.6,12,-99.99,,,0.00,457.4,rob ver 1B,2013-12-28 21:44:00,
2013-12-28 14:45:00,66.9,13.7,29.53,WNW,294,17.0,20.6,12,-99.99,,,0.00,455.1,rob ver 1B,2013-12-28 21:45:00,
2013-12-28 14:46:00,66.9,14.0,29.53,WNW,293,16.2,19.6,12,-99.99,,,0.00,451.7,rob ver 1B,2013-12-28 21:46:00,
2013-12-28 14:47:00,67.1,14.2,29.53,WNW,296,14.2,18.1,12,-99.99,,,0.00,450,rob ver 1B,2013-12-28 21:47:00,
2013-12-28 14:48:00,67.3,14.2,29.53,NW,313,15.0,20.3,12,-99.99,,,0.00,450.4,rob ver 1B,2013-12-28 21:48:00,
2013-12-28 14:49:00,67.2,13.9,29.53,WNW,303,17.4,22.3,12,-99.99,,,0.00,447.6,rob ver 1B,2013-12-28 21:49:00,
2013-12-28 14:50:00,67.3,14.1,29.53,NW,304,16.6,20.1,12,-99.99,,,0.00,443.1,rob ver 1B,2013-12-28 21:50:00,
2013-12-28 14:51:00,67.4,14.1,29.53,WNW,296,17.4,22.1,12,-99.99,,,0.00,441.8,rob ver 1B,2013-12-28 21:51:00,
2013-12-28 14:52:00,67.4,13.8,29.53,WNW,295,18.4,21.3,12,-99.99,,,0.00,440,rob ver 1B,2013-12-28 21:52:00,
2013-12-28 14:53:00,67.1,13.7,29.53,WNW,295,16.2,19.8,12,-99.99,,,0.00,438.6,rob ver 1B,2013-12-28 21:53:00,
2013-12-28 14:54:00,67.0,13.6,29.53,WNW,297,16.6,19.6,12,-99.99,,,0.00,436,rob ver 1B,2013-12-28 21:54:00,
2013-12-28 14:55:00,67.1,13.7,29.53,WNW,294,18.2,24.2,12,-99.99,,,0.00,433.5,rob ver 1B,2013-12-28 21:55:00,
2013-12-28 14:56:00,66.9,13.5,29.53,WNW,292,17.0,19.7,12,-99.99,,,0.00,431.6,rob ver 1B,2013-12-28 21:56:00,
2013-12-28 14:57:00,66.8,13.3,29.53,WNW,298,15.9,19.0,12,-99.99,,,0.00,428.9,rob ver 1B,2013-12-28 21:57:00,
2013-12-28 14:58:00,66.7,13.4,29.53,WNW,298,11.9,15.3,12,-99.99,,,0.00,426.3,rob ver 1B,2013-12-28 21:58:00,
2013-12-28 14:59:00,66.8,13.6,29.53,WNW,289,14.9,19.4,12,-99.99,,,0.00,425.1,rob ver 1B,2013-12-28 21:59:00,
2013-12-28 15:00:00,67.0,13.8,29.53,NW,311,17.2,23.9,12,-99.99,,,0.00,422.8,rob ver 1B,2013-12-28 22:00:00,
2013-12-28 15:01:00,67.1,13.8,29.53,NW,320,14.4,17.2,12,-99.99,,,0.00,420.9,rob ver 1B,2013-12-28 22:01:00,
2013-12-28 15:02:00,67.1,13.4,29.53,WNW,302,17.4,21.4,12,-99.99,,,0.00,418.9,rob ver 1B,2013-12-28 22:02:00,
2013-12-28 15:03:00,66.8,13.1,29.53,NW,307,12.0,16.9,12,-99.99,,,0.00,415.9,rob ver 1B,2013-12-28 22:03:00,
2013-12-28 15:04:00,66.7,13.3,29.53,WNW,303,13.8,16.9,12,-99.99,,,0.00,412.9,rob ver 1B,2013-12-28 22:04:00,
2013-12-28 15:05:00,66.8,13.6,29.53,WNW,301,14.7,19.5,12,-99.99,,,0.00,411,rob ver 1B,2013-12-28 22:05:00,
2013-12-28 15:06:00,67.0,13.5,29.53,NW,304,16.4,20.3,12,-99.99,,,0.00,408.6,rob ver 1B,2013-12-28 22:06:00,
2013-12-28 15:07:00,67.1,13.7,29.53,WNW,301,17.6,21.1,12,-99.99,,,0.00,406.7,rob ver 1B,2013-12-28 22:07:00,
2013-12-28 15:08:00,67.2,13.6,29.53,NW,323,18.5,21.9,12,-99.99,,,0.00,405.2,rob ver 1B,2013-12-28 22:08:00,
2013-12-28 15:09:00,66.9,13.4,29.53,NW,315,14.4,18.0,12,-99.99,,,0.00,403,rob ver 1B,2013-12-28 22:09:00,
2013-12-28 15:10:00,66.9,13.6,29.53,NW,308,14.9,18.4,12,-99.99,,,0.00,399.9,rob ver 1B,2013-12-28 22:10:00,
2013-12-28 15:11:00,67.0,13.4,29.53,NW,308,17.7,21.1,12,-99.99,,,0.00,398.1,rob ver 1B,2013-12-28 22:11:00,
2013-12-28 15:12:00,67.0,13.5,29.53,WNW,303,18.3,21.3,12,-99.99,,,0.00,394.6,rob ver 1B,2013-12-28 22:12:00,
2013-12-28 15:13:00,67.0,13.3,29.53,WNW,300,17.5,20.8,12,-99.99,,,0.00,392.5,rob ver 1B,2013-12-28 22:13:00,
2013-12-28 15:14:00,66.9,13.0,29.53,NW,313,20.8,26.3,12,-99.99,,,0.00,390.5,rob ver 1B,2013-12-28 22:14:00,
2013-12-28 15:15:00,66.7,13.3,29.53,WNW,299,16.7,19.0,12,-99.99,,,0.00,387.9,rob ver 1B,2013-12-28 22:15:00,
2013-12-28 15:16:00,66.8,13.1,29.53,WNW,300,15.4,19.1,12,-99.99,,,0.00,382.9,rob ver 1B,2013-12-28 22:16:00,
2013-12-28 15:17:00,66.8,13.4,29.53,WNW,301,14.6,18.7,12,-99.99,,,0.00,381.4,rob ver 1B,2013-12-28 22:17:00,
2013-12-28 15:18:00,66.9,13.3,29.53,WNW,303,16.6,20.6,12,-99.99,,,0.00,380.6,rob ver 1B,2013-12-28 22:18:00,
2013-12-28 15:19:00,66.8,13.2,29.53,NW,317,17.0,21.8,12,-99.99,,,0.00,378.1,rob ver 1B,2013-12-28 22:19:00,
2013-12-28 15:20:00,66.7,13.3,29.53,NW,309,16.3,19.4,12,-99.99,,,0.00,373.7,rob ver 1B,2013-12-28 22:20:00,
2013-12-28 15:21:00,66.7,13.2,29.53,WNW,302,17.3,23.2,12,-99.99,,,0.00,372.2,rob ver 1B,2013-12-28 22:21:00,
2013-12-28 15:22:00,66.8,13.2,29.53,NW,305,17.7,20.8,12,-99.99,,,0.00,370.6,rob ver 1B,2013-12-28 22:22:00,
2013-12-28 15:23:00,66.7,13.2,29.53,NW,307,15.1,17.5,12,-99.99,,,0.00,368.1,rob ver 1B,2013-12-28 22:23:00,
2013-12-28 15:24:00,66.8,13.4,29.53,WNW,296,17.0,21.3,12,-99.99,,,0.00,365.6,rob ver 1B,2013-12-28 22:24:00,
2013-12-28 15:25:00,66.8,13.1,29.53,NW,305,19.2,21.9,12,-99.99,,,0.00,362.1,rob ver 1B,2013-12-28 22:25:00,
2013-12-28 15:26:00,66.8,13.3,29.53,WNW,303,17.6,20.9,12,-99.99,,,0.00,358.2,rob ver 1B,2013-12-28 22:26:00,
2013-12-28 15:27:00,67.0,13.6,29.53,NW,308,15.8,19.3,12,-99.99,,,0.00,354.6,rob ver 1B,2013-12-28 22:27:00,
2013-12-28 15:28:00,67.2,13.5,29.53,NW,321,14.0,17.3,12,-99.99,,,0.00,351.9,rob ver 1B,2013-12-28 22:28:00,
2013-12-28 15:29:00,67.0,13.4,29.53,NW,319,13.8,18.2,12,-99.99,,,0.00,349.6,rob ver 1B,2013-12-28 22:29:00,
2013-12-28 15:30:00,67.0,13.5,29.53,NW,320,10.2,13.2,12,-99.99,,,0.00,346.6,rob ver 1B,2013-12-28 22:30:00,
2013-12-28 15:31:00,67.1,13.7,29.53,NW,325,9.9,14.0,12,-99.99,,,0.00,343.7,rob ver 1B,2013-12-28 22:31:00,
2013-12-28 15:32:00,67.1,13.7,29.53,NW,325,12.3,15.9,12,-99.99,,,0.00,341,rob ver 1B,2013-12-28 22:32:00,
2013-12-28 15:33:00,67.2,13.8,29.53,NW,325,12.0,15.0,12,-99.99,,,0.00,339.6,rob ver 1B,2013-12-28 22:33:00,
2013-12-28 15:34:00,67.3,13.8,29.53,NW,322,13.0,15.0,12,-99.99,,,0.00,337.2,rob ver 1B,2013-12-28 22:34:00,
2013-12-28 15:35:00,67.4,14.0,29.53,NW,313,10.6,13.5,12,-99.99,,,0.00,334.3,rob ver 1B,2013-12-28 22:35:00,
2013-12-28 15:36:00,67.6,13.8,29.53,NW,321,10.6,12.6,12,-99.99,,,0.00,331.3,rob ver 1B,2013-12-28 22:36:00,
2013-12-28 15:37:00,67.4,13.6,29.53,NW,311,8.6,11.0,12,-99.99,,,0.00,330.3,rob ver 1B,2013-12-28 22:37:00,
2013-12-28 15:38:00,67.5,14.3,29.53,NW,317,8.0,10.5,12,-99.99,,,0.00,326.5,rob ver 1B,2013-12-28 22:38:00,
2013-12-28 15:39:00,67.6,13.7,29.53,North,352,11.1,14.9,12,-99.99,,,0.00,323.5,rob ver 1B,2013-12-28 22:39:00,
2013-12-28 15:40:00,67.4,13.9,29.53,NNW,332,9.8,11.8,12,-99.99,,,0.00,320.3,rob ver 1B,2013-12-28 22:40:00,
2013-12-28 15:41:00,67.4,13.8,29.53,NW,315,9.9,13.2,12,-99.99,,,0.00,318.3,rob ver 1B,2013-12-28 22:41:00,
2013-12-28 15:42:00,67.4,13.7,29.53,NW,315,10.9,13.2,12,-99.99,,,0.00,316,rob ver 1B,2013-12-28 22:42:00,
2013-12-28 15:43:00,67.3,13.6,29.53,NW,308,11.0,14.4,12,-99.99,,,0.00,314,rob ver 1B,2013-12-28 22:43:00,
2013-12-28 15:44:00,67.2,13.3,29.53,NW,308,9.8,14.2,12,-99.99,,,0.00,312,rob ver 1B,2013-12-28 22:44:00,
2013-12-28 15:45:00,67.1,13.5,29.53,NW,308,12.8,16.5,12,-99.99,,,0.00,308.7,rob ver 1B,2013-12-28 22:45:00,
2013-12-28 15:46:00,67.0,13.4,29.53,NW,308,12.1,14.5,12,-99.99,,,0.00,305.4,rob ver 1B,2013-12-28 22:46:00,
2013-12-28 15:47:00,67.0,13.7,29.53,NW,310,12.2,16.2,12,-99.99,,,0.00,302.8,rob ver 1B,2013-12-28 22:47:00,
2013-12-28 15:48:00,67.0,13.5,29.53,NW,311,11.7,15.2,12,-99.99,,,0.00,299.5,rob ver 1B,2013-12-28 22:48:00,
2013-12-28 15:49:00,67.0,13.5,29.53,NW,310,12.5,15.2,12,-99.99,,,0.00,296.8,rob ver 1B,2013-12-28 22:49:00,
2013-12-28 15:50:00,67.0,13.3,29.53,WNW,292,10.8,13.7,12,-99.99,,,0.00,294.2,rob ver 1B,2013-12-28 22:50:00,
2013-12-28 15:51:00,67.0,13.3,29.53,WNW,297,10.6,13.6,12,-99.99,,,0.00,291.6,rob ver 1B,2013-12-28 22:51:00,
2013-12-28 15:52:00,67.0,13.3,29.53,WNW,303,10.9,13.5,12,-99.99,,,0.00,288.6,rob ver 1B,2013-12-28 22:52:00,
2013-12-28 15:53:00,67.0,13.4,29.53,WNW,296,12.4,14.8,12,-99.99,,,0.00,285.6,rob ver 1B,2013-12-28 22:53:00,
2013-12-28 15:54:00,67.1,13.7,29.53,WNW,295,13.0,16.5,12,-99.99,,,0.00,282.7,rob ver 1B,2013-12-28 22:54:00,
2013-12-28 15:55:00,67.2,13.8,29.53,NNW,333,9.5,13.0,12,-99.99,,,0.00,279.7,rob ver 1B,2013-12-28 22:55:00,
2013-12-28 15:56:00,67.2,13.7,29.53,NNW,330,9.3,12.6,12,-99.99,,,0.00,275.7,rob ver 1B,2013-12-28 22:56:00,
2013-12-28 15:57:00,67.2,13.9,29.53,NNW,336,10.7,15.0,12,-99.99,,,0.00,272.8,rob ver 1B,2013-12-28 22:57:00,
2013-12-28 15:58:00,67.2,14.0,29.53,NNW,329,8.8,10.6,12,-99.99,,,0.00,270.5,rob ver 1B,2013-12-28 22:58:00,
2013-12-28 15:59:00,67.3,14.2,29.53,NW,319,8.0,10.4,12,-99.99,,,0.00,267.2,rob ver 1B,2013-12-28 22:59:00,
2013-12-28 16:00:00,67.4,14.1,29.53,NW,314,9.5,11.7,12,-99.99,,,0.00,264.5,rob ver 1B,2013-12-28 23:00:00,
2013-12-28 16:01:00,67.4,13.9,29.53,NW,307,10.8,14.5,12,-99.99,,,0.00,261.9,rob ver 1B,2013-12-28 23:01:00,
2013-12-28 16:02:00,67.4,13.7,29.53,WNW,299,14.8,19.1,12,-99.99,,,0.00,259.7,rob ver 1B,2013-12-28 23:02:00,
2013-12-28 16:03:00,67.2,13.7,29.53,NW,309,14.4,18.7,12,-99.99,,,0.00,256.6,rob ver 1B,2013-12-28 23:03:00,
2013-12-28 16:04:00,67.1,13.5,29.53,NW,322,13.1,16.6,12,-99.99,,,0.00,253.3,rob ver 1B,2013-12-28 23:04:00,
2013-12-28 16:05:00,66.9,13.3,29.53,NW,325,10.2,13.1,12,-99.99,,,0.00,250,rob ver 1B,2013-12-28 23:05:00,
2013-12-28 16:06:00,66.9,13.6,29.53,NW,314,10.5,14.9,12,-99.99,,,0.00,247.5,rob ver 1B,2013-12-28 23:06:00,
2013-12-28 16:07:00,66.9,13.6,29.53,NNW,327,11.3,14.0,12,-99.99,,,0.00,244.7,rob ver 1B,2013-12-28 23:07:00,
2013-12-28 16:08:00,67.0,13.8,29.53,NW,321,8.6,11.4,12,-99.99,,,0.00,241.4,rob ver 1B,2013-12-28 23:08:00,
2013-12-28 16:09:00,67.1,14.1,29.53,NW,318,8.1,10.8,12,-99.99,,,0.00,238.8,rob ver 1B,2013-12-28 23:09:00,
2013-12-28 16:10:00,67.2,14.1,29.53,NW,313,11.1,16.6,12,-99.99,,,0.00,236.8,rob ver 1B,2013-12-28 23:10:00,
2013-12-28 16:11:00,67.2,13.8,29.53,NW,314,14.3,17.4,12,-99.99,,,0.00,234.2,rob ver 1B,2013-12-28 23:11:00,
2013-12-28 16:12:00,67.1,13.4,29.53,NW,312,13.4,15.5,12,-99.99,,,0.00,230.9,rob ver 1B,2013-12-28 23:12:00,
2013-12-28 16:13:00,67.0,13.4,29.53,NW,310,14.5,16.9,12,-99.99,,,0.00,227.4,rob ver 1B,2013-12-28 23:13:00,
2013-12-28 16:14:00,66.9,13.3,29.53,NW,304,14.7,16.7,12,-99.99,,,0.00,224.3,rob ver 1B,2013-12-28 23:14:00,
2013-12-28 16:15:00,67.0,13.5,29.53,NW,305,12.6,15.1,12,-99.99,,,0.00,220.3,rob ver 1B,2013-12-28 23:15:00,
2013-12-28 16:16:00,67.0,13.5,29.53,NW,306,11.7,14.6,12,-99.99,,,0.00,217.7,rob ver 1B,2013-12-28 23:16:00,
2013-12-28 16:17:00,67.0,13.7,29.53,NW,315,10.3,13.4,12,-99.99,,,0.00,214.4,rob ver 1B,2013-12-28 23:17:00,
2013-12-28 16:18:00,67.0,13.6,29.53,NW,311,11.9,14.3,12,-99.99,,,0.00,211.7,rob ver 1B,2013-12-28 23:18:00,
2013-12-28 16:19:00,66.9,13.5,29.53,NW,320,10.6,13.0,12,-99.99,,,0.00,208.6,rob ver 1B,2013-12-28 23:19:00,
2013-12-28 16:20:00,66.8,13.5,29.53,NW,308,11.8,14.7,12,-99.99,,,0.00,205.8,rob ver 1B,2013-12-28 23:20:00,
2013-12-28 16:21:00,66.9,13.5,29.53,NW,311,12.0,14.0,12,-99.99,,,0.00,203,rob ver 1B,2013-12-28 23:21:00,
2013-12-28 16:22:00,66.8,13.4,29.53,NW,306,12.1,14.0,12,-99.99,,,0.00,199.9,rob ver 1B,2013-12-28 23:22:00,
2013-12-28 16:23:00,66.8,13.4,29.53,NW,308,11.1,13.0,12,-99.99,,,0.00,197.6,rob ver 1B,2013-12-28 23:23:00,
2013-12-28 16:24:00,66.8,13.4,29.53,NW,313,11.6,13.9,12,-99.99,,,0.00,195.3,rob ver 1B,2013-12-28 23:24:00,
2013-12-28 16:25:00,66.8,13.8,29.53,NW,319,9.3,13.2,12,-99.99,,,0.00,192.3,rob ver 1B,2013-12-28 23:25:00,
2013-12-28 16:26:00,66.8,13.8,29.53,NW,323,8.1,10.2,12,-99.99,,,0.00,190.5,rob ver 1B,2013-12-28 23:26:00,
2013-12-28 16:27:00,66.9,14.0,29.53,NNW,330,7.9,10.6,12,-99.99,,,0.00,187.3,rob ver 1B,2013-12-28 23:27:00,
2013-12-28 16:28:00,66.9,14.1,29.53,NNW,334,9.0,12.1,12,-99.99,,,0.00,184.7,rob ver 1B,2013-12-28 23:28:00,
2013-12-28 16:29:00,66.8,13.8,29.53,NNW,335,9.4,11.1,12,-99.99,,,0.00,182.7,rob ver 1B,2013-12-28 23:29:00,
2013-12-28 16:30:00,66.8,14.1,29.53,NNW,333,8.2,10.4,12,-99.99,,,0.00,178.8,rob ver 1B,2013-12-28 23:30:00,
2013-12-28 16:31:00,66.8,13.8,29.53,NNW,336,10.2,12.5,12,-99.99,,,0.00,175.5,rob ver 1B,2013-12-28 23:31:00,
2013-12-28 16:32:00,66.7,13.7,29.53,NNW,333,11.9,14.5,12,-99.99,,,0.00,172.2,rob ver 1B,2013-12-28 23:32:00,
2013-12-28 16:33:00,66.6,13.6,29.53,NNW,339,11.2,14.7,12,-99.99,,,0.00,169.5,rob ver 1B,2013-12-28 23:33:00,
2013-12-28 16:34:00,66.6,13.8,29.53,NNW,332,8.9,11.2,12,-99.99,,,0.00,166.9,rob ver 1B,2013-12-28 23:34:00,
2013-12-28 16:35:00,66.6,14.1,29.53,NW,326,8.0,11.0,13,-99.99,,,0.00,164.1,rob ver 1B,2013-12-28 23:35:00,
2013-12-28 16:36:00,66.7,14.3,29.53,NW,321,8.0,11.1,13,-99.99,,,0.00,161.6,rob ver 1B,2013-12-28 23:36:00,
2013-12-28 16:37:00,66.7,14.5,29.53,NW,314,7.5,10.9,13,-99.99,,,0.00,159,rob ver 1B,2013-12-28 23:37:00,
2013-12-28 16:38:00,66.8,14.4,29.53,NW,314,9.5,13.0,12,-99.99,,,0.00,156.3,rob ver 1B,2013-12-28 23:38:00,
2013-12-28 16:39:00,66.7,13.9,29.53,NW,308,12.3,15.5,12,-99.99,,,0.00,153.7,rob ver 1B,2013-12-28 23:39:00,
2013-12-28 16:40:00,66.7,14.1,29.53,NW,316,11.0,13.3,12,-99.99,,,0.00,151.1,rob ver 1B,2013-12-28 23:40:00,
2013-12-28 16:41:00,66.6,14.3,29.53,NW,324,9.2,11.8,13,-99.99,,,0.00,148.4,rob ver 1B,2013-12-28 23:41:00,
2013-12-28 16:42:00,66.6,14.4,29.53,NW,323,7.7,10.9,13,-99.99,,,0.00,145.8,rob ver 1B,2013-12-28 23:42:00,
2013-12-28 16:43:00,66.6,14.2,29.53,NW,318,11.2,15.0,13,-99.99,,,0.00,142.8,rob ver 1B,2013-12-28 23:43:00,
2013-12-28 16:44:00,66.5,14.1,29.53,NW,324,10.3,13.0,13,-99.99,,,0.00,139.8,rob ver 1B,2013-12-28 23:44:00,
2013-12-28 16:45:00,66.4,14.1,29.53,NW,322,10.8,15.5,12,-99.99,,,0.00,137.7,rob ver 1B,2013-12-28 23:45:00,
2013-12-28 16:46:00,66.4,14.1,29.53,NNW,329,10.9,13.3,13,-99.99,,,0.00,134.6,rob ver 1B,2013-12-28 23:46:00,
2013-12-28 16:47:00,66.3,14.0,29.53,NNW,338,13.4,16.3,12,-99.99,,,0.00,130.6,rob ver 1B,2013-12-28 23:47:00,
2013-12-28 16:48:00,66.3,13.8,29.53,NNW,332,14.0,17.0,12,-99.99,,,0.00,128.1,rob ver 1B,2013-12-28 23:48:00,
2013-12-28 16:49:00,66.3,13.8,29.53,NNW,330,12.5,15.2,12,-99.99,,,0.00,125.3,rob ver 1B,2013-12-28 23:49:00,
2013-12-28 16:50:00,66.2,13.9,29.53,NW,322,12.0,15.7,12,-99.99,,,0.00,122.7,rob ver 1B,2013-12-28 23:50:00,
2013-12-28 16:51:00,66.1,13.7,29.53,NNW,327,13.6,16.4,12,-99.99,,,0.00,120.1,rob ver 1B,2013-12-28 23:51:00,
2013-12-28 16:52:00,66.1,13.7,29.53,NW,326,13.0,15.3,12,-99.99,,,0.00,116.8,rob ver 1B,2013-12-28 23:52:00,
2013-12-28 16:53:00,66.1,13.7,29.53,NW,323,10.4,14.4,13,-99.99,,,0.00,114.1,rob ver 1B,2013-12-28 23:53:00,
2013-12-28 16:54:00,66.1,14.1,29.53,NW,318,9.0,11.6,13,-99.99,,,0.00,111.5,rob ver 1B,2013-12-28 23:54:00,
2013-12-28 16:55:00,66.0,14.1,29.53,NW,321,9.3,11.9,12,-99.99,,,0.00,108.5,rob ver 1B,2013-12-28 23:55:00,
2013-12-28 16:56:00,66.0,14.0,29.53,NW,326,9.0,12.1,12,-99.99,,,0.00,106,rob ver 1B,2013-12-28 23:56:00,
2013-12-28 16:57:00,66.0,13.9,29.53,NNW,330,12.2,15.1,13,-99.99,,,0.00,103.6,rob ver 1B,2013-12-28 23:57:00,
2013-12-28 16:58:00,66.0,14.0,29.53,NW,326,11.4,13.4,13,-99.99,,,0.00,100.9,rob ver 1B,2013-12-28 23:58:00,
2013-12-28 16:59:00,66.0,13.6,29.53,NW,320,12.2,14.9,13,-99.99,,,0.00,97.6,rob ver 1B,2013-12-28 23:59:00,
2013-12-28 17:00:00,65.9,13.7,29.53,NW,317,12.3,15.3,13,-99.99,,,0.00,95.7,rob ver 1B,2013-12-29 00:00:00,
2013-12-28 17:01:00,65.9,14.0,29.56,NW,321,9.8,12.2,13,-99.99,,,0.00,93,rob ver 1B,2013-12-29 00:01:00,
2013-12-28 17:02:00,65.8,14.0,29.56,NW,320,10.5,15.7,13,-99.99,,,0.00,90.4,rob ver 1B,2013-12-29 00:02:00,
2013-12-28 17:03:00,65.8,14.0,29.53,NW,310,12.9,15.1,13,-99.99,,,0.00,87.7,rob ver 1B,2013-12-29 00:03:00,
2013-12-28 17:04:00,65.7,14.2,29.56,NW,312,9.6,12.9,13,-99.99,,,0.00,85.1,rob ver 1B,2013-12-29 00:04:00,
2013-12-28 17:05:00,65.6,14.3,29.56,NW,311,8.5,10.2,13,-99.99,,,0.00,82.5,rob ver 1B,2013-12-29 00:05:00,
2013-12-28 17:06:00,65.5,14.1,29.56,NW,311,10.4,12.9,13,-99.99,,,0.00,79.8,rob ver 1B,2013-12-29 00:06:00,
2013-12-28 17:07:00,65.5,14.0,29.56,NW,312,10.6,13.2,13,-99.99,,,0.00,77.2,rob ver 1B,2013-12-29 00:07:00,
2013-12-28 17:08:00,65.5,14.0,29.53,WNW,299,10.9,14.3,13,-99.99,,,0.00,74.5,rob ver 1B,2013-12-29 00:08:00,
2013-12-28 17:09:00,65.4,13.9,29.53,WNW,299,13.4,15.9,13,-99.99,,,0.00,71.9,rob ver 1B,2013-12-29 00:09:00,
2013-12-28 17:10:00,65.5,13.9,29.56,NW,304,12.1,14.0,13,-99.99,,,0.00,69.26,rob ver 1B,2013-12-29 00:10:00,
2013-12-28 17:11:00,65.4,13.8,29.53,WNW,299,13.4,15.5,13,-99.99,,,0.00,66.63,rob ver 1B,2013-12-29 00:11:00,
2013-12-28 17:12:00,65.5,13.8,29.53,WNW,303,11.9,13.9,13,-99.99,,,0.00,63.99,rob ver 1B,2013-12-29 00:12:00,
2013-12-28 17:13:00,65.4,13.8,29.56,NW,306,10.3,12.5,13,-99.99,,,0.00,61.35,rob ver 1B,2013-12-29 00:13:00,
2013-12-28 17:14:00,65.4,13.9,29.56,NW,308,10.0,12.7,13,-99.99,,,0.00,58.38,rob ver 1B,2013-12-29 00:14:00,
2013-12-28 17:15:00,65.4,14.2,29.56,NW,309,7.7,9.7,13,-99.99,,,0.00,56.07,rob ver 1B,2013-12-29 00:15:00,
2013-12-28 17:16:00,65.2,14.1,29.56,NW,319,7.6,10.1,13,-99.99,,,0.00,54.09,rob ver 1B,2013-12-29 00:16:00,
2013-12-28 17:17:00,65.1,14.1,29.56,NW,313,8.2,9.8,13,-99.99,,,0.00,51.45,rob ver 1B,2013-12-29 00:17:00,
2013-12-28 17:18:00,65.1,14.1,29.56,NW,313,9.2,11.5,13,-99.99,,,0.00,49.14,rob ver 1B,2013-12-29 00:18:00,
2013-12-28 17:19:00,65.0,14.1,29.56,NW,322,8.3,11.2,13,-99.99,,,0.00,46.67,rob ver 1B,2013-12-29 00:19:00,
2013-12-28 17:20:00,64.9,14.1,29.56,NW,316,9.2,12.1,13,-99.99,,,0.00,44.03,rob ver 1B,2013-12-29 00:20:00,
2013-12-28 17:21:00,64.9,14.0,29.56,NW,314,9.8,12.9,13,-99.99,,,0.00,41.56,rob ver 1B,2013-12-29 00:21:00,
2013-12-28 17:22:00,64.8,14.2,29.56,NW,307,8.1,10.3,13,-99.99,,,0.00,38.92,rob ver 1B,2013-12-29 00:22:00,
2013-12-28 17:23:00,64.7,14.2,29.56,NW,305,8.5,11.5,13,-99.99,,,0.00,36.61,rob ver 1B,2013-12-29 00:23:00,
2013-12-28 17:24:00,64.7,14.1,29.56,NW,309,9.4,12.4,13,-99.99,,,0.00,34.3,rob ver 1B,2013-12-29 00:24:00,
2013-12-28 17:25:00,64.7,14.1,29.56,NW,307,9.2,11.9,13,-99.99,,,0.00,32.32,rob ver 1B,2013-12-29 00:25:00,
2013-12-28 17:26:00,64.6,14.0,29.56,NW,309,9.2,11.1,13,-99.99,,,0.00,30.34,rob ver 1B,2013-12-29 00:26:00,
2013-12-28 17:27:00,64.5,13.9,29.56,NW,310,9.6,12.4,13,-99.99,,,0.00,28.04,rob ver 1B,2013-12-29 00:27:00,
2013-12-28 17:28:00,64.4,13.9,29.56,NW,310,9.6,11.5,13,-99.99,,,0.00,26.06,rob ver 1B,2013-12-29 00:28:00,
2013-12-28 17:29:00,64.3,13.9,29.56,NW,312,9.7,12.0,13,-99.99,,,0.00,24.08,rob ver 1B,2013-12-29 00:29:00,
2013-12-28 17:30:00,64.2,14.0,29.56,NW,313,8.6,10.6,13,-99.99,,,0.00,21.77,rob ver 1B,2013-12-29 00:30:00,
2013-12-28 17:31:00,64.1,14.0,29.56,NW,316,7.8,9.8,14,-99.99,,,0.00,20.12,rob ver 1B,2013-12-29 00:31:00,
2013-12-28 17:32:00,63.9,14.0,29.56,NW,314,7.5,10.1,14,-99.99,,,0.00,18.14,rob ver 1B,2013-12-29 00:32:00,
2013-12-28 17:33:00,63.8,14.0,29.56,NW,314,7.1,9.0,14,-99.99,,,0.00,15.5,rob ver 1B,2013-12-29 00:33:00,
2013-12-28 17:34:00,63.6,14.0,29.56,NW,313,7.3,8.5,14,-99.99,,,0.00,12.2,rob ver 1B,2013-12-29 00:34:00,
2013-12-28 17:35:00,63.5,13.9,29.56,NW,312,8.3,10.1,14,-99.99,,,0.00,9.57,rob ver 1B,2013-12-29 00:35:00,
2013-12-28 17:36:00,63.6,13.9,29.56,NW,312,8.5,10.8,14,-99.99,,,0.00,8.25,rob ver 1B,2013-12-29 00:36:00,
2013-12-28 17:37:00,63.5,13.9,29.56,NW,312,9.1,10.9,14,-99.99,,,0.00,7.26,rob ver 1B,2013-12-29 00:37:00,
2013-12-28 17:38:00,63.4,13.9,29.56,NW,310,8.0,9.4,14,-99.99,,,0.00,6.597,rob ver 1B,2013-12-29 00:38:00,
2013-12-28 17:39:00,63.4,13.8,29.56,NW,310,8.9,10.6,14,-99.99,,,0.00,5.937,rob ver 1B,2013-12-29 00:39:00,
2013-12-28 17:40:00,63.3,13.9,29.56,NW,308,8.5,10.4,14,-99.99,,,0.00,5.278,rob ver 1B,2013-12-29 00:40:00,
2013-12-28 17:41:00,63.3,13.8,29.56,NW,311,8.7,10.9,14,-99.99,,,0.00,4.618,rob ver 1B,2013-12-29 00:41:00,
2013-12-28 17:42:00,63.2,13.9,29.56,NW,311,8.5,10.5,14,-99.99,,,0.00,4.123,rob ver 1B,2013-12-29 00:42:00,
2013-12-28 17:43:00,63.1,13.8,29.56,NW,315,9.6,12.8,14,-99.99,,,0.00,3.628,rob ver 1B,2013-12-29 00:43:00,
2013-12-28 17:44:00,63.1,13.8,29.56,NW,315,9.1,10.8,14,-99.99,,,0.00,3.298,rob ver 1B,2013-12-29 00:44:00,
2013-12-28 17:45:00,63.0,13.9,29.56,NW,317,8.4,10.9,14,-99.99,,,0.00,2.969,rob ver 1B,2013-12-29 00:45:00,
2013-12-28 17:46:00,62.8,13.9,29.56,NW,316,7.9,9.2,14,-99.99,,,0.00,2.474,rob ver 1B,2013-12-29 00:46:00,
2013-12-28 17:47:00,62.6,13.9,29.56,NW,318,8.3,10.1,14,-99.99,,,0.00,1.979,rob ver 1B,2013-12-29 00:47:00,
2013-12-28 17:48:00,62.6,13.9,29.56,NW,318,8.2,9.6,14,-99.99,,,0.00,1.649,rob ver 1B,2013-12-29 00:48:00,
2013-12-28 17:49:00,62.4,14.0,29.56,NW,316,7.8,9.0,14,-99.99,,,0.00,1.319,rob ver 1B,2013-12-29 00:49:00,
2013-12-28 17:50:00,62.3,14.0,29.56,NW,317,8.0,9.6,14,-99.99,,,0.00,.99,rob ver 1B,2013-12-29 00:50:00,
2013-12-28 17:51:00,62.2,13.9,29.56,NW,316,8.7,9.8,14,-99.99,,,0.00,.99,rob ver 1B,2013-12-29 00:51:00,
2013-12-28 17:52:00,62.2,14.0,29.56,NW,316,8.6,10.0,15,-99.99,,,0.00,.99,rob ver 1B,2013-12-29 00:52:00,
2013-12-28 17:53:00,62.0,14.0,29.56,NW,314,8.5,10.4,15,-99.99,,,0.00,.99,rob ver 1B,2013-12-29 00:53:00,
2013-12-28 17:54:00,62.0,13.9,29.56,NW,314,9.2,10.3,15,-99.99,,,0.00,.66,rob ver 1B,2013-12-29 00:54:00,
2013-12-28 17:55:00,62.0,13.9,29.56,NW,315,9.0,10.8,15,-99.99,,,0.00,.66,rob ver 1B,2013-12-29 00:55:00,
2013-12-28 17:56:00,61.9,14.0,29.56,NW,314,8.6,10.0,15,-99.99,,,0.00,.66,rob ver 1B,2013-12-29 00:56:00,
2013-12-28 17:57:00,61.8,14.0,29.56,NW,315,8.8,10.0,15,-99.99,,,0.00,.33,rob ver 1B,2013-12-29 00:57:00,
2013-12-28 17:58:00,61.7,14.0,29.56,NW,314,8.6,9.7,15,-99.99,,,0.00,.33,rob ver 1B,2013-12-29 00:58:00,
2013-12-28 17:59:00,61.6,14.0,29.56,NW,314,8.6,9.9,15,-99.99,,,0.00,.165,rob ver 1B,2013-12-29 00:59:00,
2013-12-28 18:00:00,61.5,14.0,29.56,NW,313,8.2,9.3,15,-99.99,,,0.00,.165,rob ver 1B,2013-12-29 01:00:00,
2013-12-28 18:01:00,61.4,14.0,29.56,NW,312,8.5,10.0,15,-99.99,,,0.00,0,rob ver 1B,2013-12-29 01:01:00,
2013-12-28 18:02:00,61.4,13.9,29.56,NW,310,8.2,9.8,15,-99.99,,,0.00,0,rob ver 1B,2013-12-29 01:02:00,
2013-12-28 18:03:00,61.4,13.9,29.56,NW,309,7.3,8.3,15,-99.99,,,0.00,0,rob ver 1B,2013-12-29 01:03:00,
2013-12-28 18:04:00,61.3,13.9,29.56,NW,310,7.2,9.9,15,-99.99,,,0.00,0,rob ver 1B,2013-12-29 01:04:00,
2013-12-28 18:05:00,61.2,13.8,29.56,NW,309,7.2,7.9,15,-99.99,,,0.00,0,rob ver 1B,2013-12-29 01:05:00,
2013-12-28 18:06:00,61.2,13.9,29.56,NW,308,6.5,7.2,15,-99.99,,,0.00,0,rob ver 1B,2013-12-29 01:06:00,
2013-12-28 18:07:00,61.1,14.0,29.56,NW,308,6.1,7.4,15,-99.99,,,0.00,0,rob ver 1B,2013-12-29 01:07:00,
2013-12-28 18:08:00,61.0,14.1,29.56,NW,306,5.9,8.0,15,-99.99,,,0.00,0,rob ver 1B,2013-12-29 01:08:00,
2013-12-28 18:09:00,60.9,14.4,29.56,NW,309,6.2,7.5,16,-99.99,,,0.00,0,rob ver 1B,2013-12-29 01:09:00,
2013-12-28 18:10:00,60.9,14.4,29.56,NW,310,5.6,6.8,16,-99.99,,,0.00,0,rob ver 1B,2013-12-29 01:10:00,
2013-12-28 18:11:00,60.8,14.8,29.56,NW,312,5.5,6.5,16,-99.99,,,0.00,0,rob ver 1B,2013-12-29 01:11:00,
2013-12-28 18:12:00,60.7,15.1,29.56,NW,311,5.5,6.4,16,-99.99,,,0.00,0,rob ver 1B,2013-12-29 01:12:00,
2013-12-28 18:13:00,60.6,15.2,29.56,NW,313,5.2,6.1,16,-99.99,,,0.00,0,rob ver 1B,2013-12-29 01:13:00,
2013-12-28 18:14:00,60.5,14.6,29.56,NW,312,6.0,7.1,16,-99.99,,,0.00,0,rob ver 1B,2013-12-29 01:14:00,
2013-12-28 18:15:00,60.6,14.1,29.56,NW,311,6.5,7.6,15,-99.99,,,0.00,0,rob ver 1B,2013-12-29 01:15:00,
2013-12-28 18:16:00,60.7,14.0,29.56,NW,308,6.7,9.0,15,-99.99,,,0.00,0,rob ver 1B,2013-12-29 01:16:00,
2013-12-28 18:17:00,60.7,13.6,29.56,NW,312,7.8,9.6,15,-99.99,,,0.00,0,rob ver 1B,2013-12-29 01:17:00,
2013-12-28 18:18:00,60.7,13.8,29.56,NW,312,6.8,7.8,15,-99.99,,,0.00,0,rob ver 1B,2013-12-29 01:18:00,
2013-12-28 18:19:00,60.7,14.1,29.56,NW,313,6.3,8.2,16,-99.99,,,0.00,0,rob ver 1B,2013-12-29 01:19:00,
2013-12-28 18:20:00,60.5,14.8,29.56,NW,316,5.8,7.1,16,-99.99,,,0.00,0,rob ver 1B,2013-12-29 01:20:00,
2013-12-28 18:21:00,60.3,14.8,29.56,NW,319,5.3,6.2,16,-99.99,,,0.00,0,rob ver 1B,2013-12-29 01:21:00,
2013-12-28 18:22:00,60.1,14.9,29.56,NW,315,6.3,7.7,16,-99.99,,,0.00,0,rob ver 1B,2013-12-29 01:22:00,
2013-12-28 18:23:00,60.1,14.6,29.56,NW,316,6.7,8.1,16,-99.99,,,0.00,0,rob ver 1B,2013-12-29 01:23:00,
2013-12-28 18:24:00,60.1,14.8,29.56,NW,316,6.4,8.3,16,-99.99,,,0.00,0,rob ver 1B,2013-12-29 01:24:00,
2013-12-28 18:25:00,60.0,14.7,29.56,NW,313,6.8,8.0,16,-99.99,,,0.00,0,rob ver 1B,2013-12-29 01:25:00,
2013-12-28 18:26:00,60.0,14.4,29.56,NW,314,7.9,9.6,16,-99.99,,,0.00,0,rob ver 1B,2013-12-29 01:26:00,
2013-12-28 18:27:00,60.1,14.3,29.56,NW,314,8.2,9.6,16,-99.99,,,0.00,0,rob ver 1B,2013-12-29 01:27:00,
2013-12-28 18:28:00,60.1,14.2,29.56,NW,314,7.9,9.3,16,-99.99,,,0.00,0,rob ver 1B,2013-12-29 01:28:00,
2013-12-28 18:29:00,60.1,14.5,29.56,NW,311,7.5,8.3,16,-99.99,,,0.00,0,rob ver 1B,2013-12-29 01:29:00,
2013-12-28 18:30:00,60.0,14.3,29.56,NW,308,7.6,8.8,16,-99.99,,,0.00,0,rob ver 1B,2013-12-29 01:30:00,
2013-12-28 18:31:00,60.0,14.2,29.56,NW,307,7.7,8.7,16,-99.99,,,0.00,0,rob ver 1B,2013-12-29 01:31:00,
2013-12-28 18:32:00,60.0,14.1,29.56,NW,305,7.8,8.7,16,-99.99,,,0.00,0,rob ver 1B,2013-12-29 01:32:00,
2013-12-28 18:33:00,60.0,14.3,29.56,NW,306,7.3,8.5,16,-99.99,,,0.00,0,rob ver 1B,2013-12-29 01:33:00,
2013-12-28 18:34:00,59.9,14.4,29.56,WNW,303,7.9,9.6,16,-99.99,,,0.00,0,rob ver 1B,2013-12-29 01:34:00,
2013-12-28 18:35:00,59.9,14.5,29.56,WNW,302,7.9,9.1,16,-99.99,,,0.00,0,rob ver 1B,2013-12-29 01:35:00,
2013-12-28 18:36:00,59.8,14.7,29.56,WNW,303,7.6,8.8,16,-99.99,,,0.00,0,rob ver 1B,2013-12-29 01:36:00,
2013-12-28 18:37:00,59.6,14.8,29.56,WNW,303,7.6,8.9,17,-99.99,,,0.00,0,rob ver 1B,2013-12-29 01:37:00,
2013-12-28 18:38:00,59.5,14.8,29.56,WNW,301,7.6,8.7,17,-99.99,,,0.00,0,rob ver 1B,2013-12-29 01:38:00,
2013-12-28 18:39:00,59.4,14.8,29.56,NW,304,8.0,8.8,17,-99.99,,,0.00,0,rob ver 1B,2013-12-29 01:39:00,
2013-12-28 18:40:00,59.3,14.8,29.56,NW,306,7.8,9.0,17,-99.99,,,0.00,0,rob ver 1B,2013-12-29 01:40:00,
2013-12-28 18:41:00,59.3,14.6,29.56,NW,306,8.4,10.4,16,-99.99,,,0.00,0,rob ver 1B,2013-12-29 01:41:00,
2013-12-28 18:42:00,59.3,14.4,29.59,NW,310,8.6,10.0,16,-99.99,,,0.00,0,rob ver 1B,2013-12-29 01:42:00,
2013-12-28 18:43:00,59.5,14.5,29.59,NW,311,8.1,9.6,16,-99.99,,,0.00,0,rob ver 1B,2013-12-29 01:43:00,
2013-12-28 18:44:00,59.5,14.5,29.56,NW,312,8.7,10.5,16,-99.99,,,0.00,0,rob ver 1B,2013-12-29 01:44:00,
2013-12-28 18:45:00,59.5,14.3,29.59,NW,311,8.7,10.2,16,-99.99,,,0.00,0,rob ver 1B,2013-12-29 01:45:00,
2013-12-28 18:46:00,59.6,14.3,29.59,NW,312,8.6,10.0,16,-99.99,,,0.00,0,rob ver 1B,2013-12-29 01:46:00,
2013-12-28 18:47:00,59.6,14.5,29.59,NW,313,8.1,8.9,16,-99.99,,,0.00,0,rob ver 1B,2013-12-29 01:47:00,
2013-12-28 18:48:00,59.5,14.6,29.59,NW,315,8.0,9.1,16,-99.99,,,0.00,0,rob ver 1B,2013-12-29 01:48:00,
2013-12-28 18:49:00,59.4,14.4,29.59,NW,314,8.1,9.9,16,-99.99,,,0.00,0,rob ver 1B,2013-12-29 01:49:00,
2013-12-28 18:50:00,59.4,14.4,29.59,NW,315,8.1,9.2,16,-99.99,,,0.00,0,rob ver 1B,2013-12-29 01:50:00,
2013-12-28 18:51:00,59.4,14.3,29.59,NW,314,7.6,9.1,16,-99.99,,,0.00,0,rob ver 1B,2013-12-29 01:51:00,
2013-12-28 18:52:00,59.5,14.1,29.59,NW,316,8.7,11.4,16,-99.99,,,0.00,0,rob ver 1B,2013-12-29 01:52:00,
2013-12-28 18:53:00,59.6,13.6,29.59,NW,314,9.2,10.6,15,-99.99,,,0.00,0,rob ver 1B,2013-12-29 01:53:00,
2013-12-28 18:54:00,59.7,13.3,29.59,NW,307,8.6,10.0,15,-99.99,,,0.00,0,rob ver 1B,2013-12-29 01:54:00,
2013-12-28 18:55:00,59.7,13.7,29.59,NW,306,7.3,9.7,16,-99.99,,,0.00,0,rob ver 1B,2013-12-29 01:55:00,
2013-12-28 18:56:00,59.6,14.0,29.59,NW,309,7.2,8.4,16,-99.99,,,0.00,0,rob ver 1B,2013-12-29 01:56:00,
2013-12-28 18:57:00,59.5,14.3,29.59,NW,312,6.9,7.9,16,-99.99,,,0.00,0,rob ver 1B,2013-12-29 01:57:00,
2013-12-28 18:58:00,59.3,14.4,29.59,NW,312,7.3,8.6,17,-99.99,,,0.00,0,rob ver 1B,2013-12-29 01:58:00,
2013-12-28 18:59:00,59.2,14.5,29.59,NW,312,6.9,7.9,17,-99.99,,,0.00,0,rob ver 1B,2013-12-29 01:59:00,
2013-12-28 19:00:00,59.1,14.3,29.59,NW,308,6.9,9.0,17,-99.99,,,0.00,0,rob ver 1B,2013-12-29 02:00:00,
2013-12-28 19:01:00,59.1,14.3,29.59,NW,309,6.8,7.6,16,-99.99,,,0.00,0,rob ver 1B,2013-12-29 02:01:00,
2013-12-28 19:02:00,59.1,14.0,29.59,NW,305,7.2,8.1,16,-99.99,,,0.00,0,rob ver 1B,2013-12-29 02:02:00,
2013-12-28 19:03:00,59.2,14.2,29.59,WNW,301,6.8,7.6,16,-99.99,,,0.00,0,rob ver 1B,2013-12-29 02:03:00,
2013-12-28 19:04:00,59.1,14.1,29.59,WNW,301,7.6,9.4,16,-99.99,,,0.00,0,rob ver 1B,2013-12-29 02:04:00,
2013-12-28 19:05:00,59.2,13.7,29.59,WNW,302,8.7,10.5,16,-99.99,,,0.00,0,rob ver 1B,2013-12-29 02:05:00,
2013-12-28 19:06:00,59.3,13.8,29.59,WNW,301,8.2,9.4,16,-99.99,,,0.00,0,rob ver 1B,2013-12-29 02:06:00,
2013-12-28 19:07:00,59.3,13.9,29.59,WNW,298,8.0,9.8,16,-99.99,,,0.00,0,rob ver 1B,2013-12-29 02:07:00,
2013-12-28 19:08:00,59.2,14.2,29.59,WNW,297,7.4,8.3,16,-99.99,,,0.00,0,rob ver 1B,2013-12-29 02:08:00,
2013-12-28 19:09:00,59.0,14.3,29.59,WNW,293,7.5,8.5,16,-99.99,,,0.00,0,rob ver 1B,2013-12-29 02:09:00,
2013-12-28 19:10:00,58.9,14.4,29.59,WNW,292,7.7,8.7,17,-99.99,,,0.00,0,rob ver 1B,2013-12-29 02:10:00,
2013-12-28 19:11:00,58.7,14.5,29.59,WNW,290,7.9,8.9,17,-99.99,,,0.00,0,rob ver 1B,2013-12-29 02:11:00,
2013-12-28 19:12:00,58.6,14.6,29.59,WNW,289,7.7,8.6,17,-99.99,,,0.00,0,rob ver 1B,2013-12-29 02:12:00,
2013-12-28 19:13:00,58.4,14.9,29.59,WNW,289,7.2,8.1,17,-99.99,,,0.00,0,rob ver 1B,2013-12-29 02:13:00,
2013-12-28 19:14:00,58.2,14.9,29.59,WNW,292,7.8,8.9,18,-99.99,,,0.00,0,rob ver 1B,2013-12-29 02:14:00,
2013-12-28 19:15:00,58.0,14.8,29.59,WNW,292,7.6,8.7,18,-99.99,,,0.00,0,rob ver 1B,2013-12-29 02:15:00,
2013-12-28 19:16:00,57.9,14.8,29.59,WNW,294,7.5,9.7,17,-99.99,,,0.00,0,rob ver 1B,2013-12-29 02:16:00,
2013-12-28 19:17:00,57.9,14.6,29.59,WNW,295,7.7,8.7,18,-99.99,,,0.00,0,rob ver 1B,2013-12-29 02:17:00,
2013-12-28 19:18:00,57.9,14.5,29.59,WNW,296,8.1,8.7,17,-99.99,,,0.00,0,rob ver 1B,2013-12-29 02:18:00,
2013-12-28 19:19:00,58.0,14.5,29.59,WNW,299,7.9,8.6,17,-99.99,,,0.00,0,rob ver 1B,2013-12-29 02:19:00,
2013-12-28 19:20:00,58.1,14.5,29.59,WNW,300,7.6,9.2,17,-99.99,,,0.00,0,rob ver 1B,2013-12-29 02:20:00,
2013-12-28 19:21:00,58.0,14.5,29.59,WNW,300,8.0,8.8,17,-99.99,,,0.00,0,rob ver 1B,2013-12-29 02:21:00,
2013-12-28 19:22:00,58.1,14.5,29.59,WNW,302,7.7,9.1,17,-99.99,,,0.00,0,rob ver 1B,2013-12-29 02:22:00,
2013-12-28 19:23:00,58.1,14.4,29.59,WNW,303,8.1,9.6,17,-99.99,,,0.00,0,rob ver 1B,2013-12-29 02:23:00,
2013-12-28 19:24:00,58.2,14.4,29.59,WNW,303,8.3,9.6,17,-99.99,,,0.00,0,rob ver 1B,2013-12-29 02:24:00,
2013-12-28 19:25:00,58.2,14.4,29.59,WNW,303,8.4,10.0,17,-99.99,,,0.00,0,rob ver 1B,2013-12-29 02:25:00,
2013-12-28 19:26:00,58.3,14.4,29.59,WNW,303,8.4,9.2,17,-99.99,,,0.00,0,rob ver 1B,2013-12-29 02:26:00,
2013-12-28 19:27:00,58.3,14.3,29.59,NW,305,8.6,10.0,17,-99.99,,,0.00,0,rob ver 1B,2013-12-29 02:27:00,
2013-12-28 19:28:00,58.4,14.3,29.59,NW,304,8.4,9.3,17,-99.99,,,0.00,0,rob ver 1B,2013-12-29 02:28:00,
2013-12-28 19:29:00,58.6,14.1,29.59,NW,305,8.7,9.7,17,-99.99,,,0.00,0,rob ver 1B,2013-12-29 02:29:00,
2013-12-28 19:30:00,58.7,14.0,29.59,WNW,303,8.5,10.3,16,-99.99,,,0.00,0,rob ver 1B,2013-12-29 02:30:00,
2013-12-28 19:31:00,58.7,14.0,29.59,NW,305,7.8,8.9,16,-99.99,,,0.00,0,rob ver 1B,2013-12-29 02:31:00,
2013-12-28 19:32:00,58.8,14.0,29.59,NW,305,7.4,8.3,16,-99.99,,,0.00,0,rob ver 1B,2013-12-29 02:32:00,
2013-12-28 19:33:00,58.8,13.9,29.59,NW,307,7.8,9.1,16,-99.99,,,0.00,0,rob ver 1B,2013-12-29 02:33:00,
2013-12-28 19:35:00,58.9,14.0,29.59,NW,307,7.5,8.3,16,-99.99,,,0.00,0,rob ver 1B,2013-12-29 02:35:00,
2013-12-28 19:36:00,58.8,14.1,29.59,NW,307,7.3,8.1,17,-99.99,,,0.00,0,rob ver 1B,2013-12-29 02:36:00,
2013-12-28 19:37:00,58.5,14.4,29.59,NW,311,6.7,7.8,17,-99.99,,,0.00,0,rob ver 1B,2013-12-29 02:37:00,
2013-12-28 19:38:00,58.3,14.6,29.59,NW,310,6.5,7.7,18,-99.99,,,0.00,0,rob ver 1B,2013-12-29 02:38:00,
2013-12-28 19:39:00,58.1,14.6,29.59,NW,311,7.1,8.2,17,-99.99,,,0.00,0,rob ver 1B,2013-12-29 02:39:00,
2013-12-28 19:40:00,58.0,14.8,29.59,NW,311,6.6,7.4,18,-99.99,,,0.00,0,rob ver 1B,2013-12-29 02:40:00,
2013-12-28 19:41:00,57.9,14.6,29.59,NW,310,6.3,7.0,17,-99.99,,,0.00,0,rob ver 1B,2013-12-29 02:41:00,
2013-12-28 19:42:00,57.8,14.6,29.59,NW,309,6.0,6.5,17,-99.99,,,0.00,0,rob ver 1B,2013-12-29 02:42:00,
2013-12-28 19:43:00,57.9,14.5,29.59,NW,308,6.2,7.0,17,-99.99,,,0.00,0,rob ver 1B,2013-12-29 02:43:00,
2013-12-28 19:44:00,58.0,14.2,29.59,NW,307,6.2,7.7,17,-99.99,,,0.00,0,rob ver 1B,2013-12-29 02:44:00,
2013-12-28 19:45:00,58.0,14.3,29.59,NW,310,6.9,9.0,17,-99.99,,,0.00,0,rob ver 1B,2013-12-29 02:45:00,
2013-12-28 19:46:00,58.1,14.4,29.59,NW,310,7.2,8.7,17,-99.99,,,0.00,0,rob ver 1B,2013-12-29 02:46:00,
2013-12-28 19:47:00,58.2,14.2,29.59,NW,307,7.5,9.4,17,-99.99,,,0.00,0,rob ver 1B,2013-12-29 02:47:00,
2013-12-28 19:48:00,58.3,14.2,29.59,NW,312,8.2,9.8,17,-99.99,,,0.00,0,rob ver 1B,2013-12-29 02:48:00,
2013-12-28 19:49:00,58.4,14.3,29.59,NW,310,7.2,8.8,17,-99.99,,,0.00,0,rob ver 1B,2013-12-29 02:49:00,
2013-12-28 19:50:00,58.2,14.5,29.59,NW,312,7.1,9.4,17,-99.99,,,0.00,0,rob ver 1B,2013-12-29 02:50:00,
2013-12-28 19:51:00,58.1,14.4,29.59,NW,309,7.7,8.9,17,-99.99,,,0.00,0,rob ver 1B,2013-12-29 02:51:00,
2013-12-28 19:52:00,58.1,14.4,29.59,NW,311,7.5,9.1,17,-99.99,,,0.00,0,rob ver 1B,2013-12-29 02:52:00,
2013-12-28 19:53:00,58.0,14.7,29.59,NW,313,6.5,8.0,17,-99.99,,,0.00,0,rob ver 1B,2013-12-29 02:53:00,
2013-12-28 19:54:00,57.8,14.8,29.59,NW,315,6.3,7.1,18,-99.99,,,0.00,0,rob ver 1B,2013-12-29 02:54:00,
2013-12-28 19:55:00,57.7,14.7,29.59,NW,314,6.5,8.6,18,-99.99,,,0.00,0,rob ver 1B,2013-12-29 02:55:00,
2013-12-28 19:56:00,57.6,14.7,29.59,NW,314,6.9,8.1,18,-99.99,,,0.00,0,rob ver 1B,2013-12-29 02:56:00,
2013-12-28 19:57:00,57.6,14.6,29.59,NW,312,7.3,8.8,18,-99.99,,,0.00,0,rob ver 1B,2013-12-29 02:57:00,
2013-12-28 19:58:00,57.6,14.7,29.59,NW,312,6.4,7.4,18,-99.99,,,0.00,0,rob ver 1B,2013-12-29 02:58:00,
2013-12-28 19:59:00,57.5,14.8,29.59,NW,315,6.5,7.8,18,-99.99,,,0.00,0,rob ver 1B,2013-12-29 02:59:00,
2013-12-28 20:00:00,57.4,14.8,29.59,NW,316,6.3,7.9,18,-99.99,,,0.00,0,rob ver 1B,2013-12-29 03:00:00,
2013-12-28 20:01:00,57.4,14.7,29.59,NW,317,6.4,7.8,18,-99.99,,,0.00,0,rob ver 1B,2013-12-29 03:01:00,
2013-12-28 20:02:00,57.4,14.6,29.59,NW,320,6.0,7.0,18,-99.99,,,0.00,0,rob ver 1B,2013-12-29 03:02:00,
2013-12-28 20:03:00,57.5,14.6,29.59,NW,319,6.2,8.4,18,-99.99,,,0.00,0,rob ver 1B,2013-12-29 03:03:00,
2013-12-28 20:04:00,57.5,14.6,29.59,NW,320,5.7,7.2,18,-99.99,,,0.00,0,rob ver 1B,2013-12-29 03:04:00,
2013-12-28 20:05:00,57.6,14.6,29.59,NW,318,5.3,6.4,18,-99.99,,,0.00,0,rob ver 1B,2013-12-29 03:05:00,
2013-12-28 20:06:00,57.6,14.6,29.59,NW,320,4.9,6.0,18,-99.99,,,0.00,0,rob ver 1B,2013-12-29 03:06:00,
2013-12-28 20:07:00,57.5,14.6,29.59,NW,319,4.9,5.6,18,-99.99,,,0.00,0,rob ver 1B,2013-12-29 03:07:00,
2013-12-28 20:08:00,57.5,14.6,29.59,NW,319,4.6,5.5,18,-99.99,,,0.00,0,rob ver 1B,2013-12-29 03:08:00,
2013-12-28 20:09:00,57.4,14.8,29.59,NW,320,4.2,5.1,18,-99.99,,,0.00,0,rob ver 1B,2013-12-29 03:09:00,
2013-12-28 20:10:00,57.3,14.8,29.59,NW,318,4.0,4.4,18,-99.99,,,0.00,0,rob ver 1B,2013-12-29 03:10:00,
2013-12-28 20:11:00,57.2,14.9,29.59,NW,316,3.6,4.1,18,-99.99,,,0.00,0,rob ver 1B,2013-12-29 03:11:00,
2013-12-28 20:12:00,57.0,15.0,29.59,NW,313,3.7,4.1,18,-99.99,,,0.00,0,rob ver 1B,2013-12-29 03:12:00,
2013-12-28 20:13:00,56.9,14.9,29.59,NW,316,4.0,4.3,18,-99.99,,,0.00,0,rob ver 1B,2013-12-29 03:13:00,
2013-12-28 20:14:00,56.9,14.8,29.59,NW,315,4.2,4.5,18,-99.99,,,0.00,0,rob ver 1B,2013-12-29 03:14:00,
2013-12-28 20:15:00,56.9,14.8,29.59,NW,312,4.3,4.8,18,-99.99,,,0.00,0,rob ver 1B,2013-12-29 03:15:00,
2013-12-28 20:16:00,56.9,14.8,29.59,NW,309,4.4,4.7,18,-99.99,,,0.00,0,rob ver 1B,2013-12-29 03:16:00,
2013-12-28 20:17:00,57.0,14.8,29.59,NW,304,4.3,4.7,18,-99.99,,,0.00,0,rob ver 1B,2013-12-29 03:17:00,
2013-12-28 20:18:00,57.0,14.8,29.59,WNW,303,4.5,5.1,18,-99.99,,,0.00,0,rob ver 1B,2013-12-29 03:18:00,
2013-12-28 20:19:00,57.0,14.7,29.59,WNW,303,4.5,5.0,18,-99.99,,,0.00,0,rob ver 1B,2013-12-29 03:19:00,
2013-12-28 20:20:00,57.0,14.7,29.59,WNW,301,4.7,5.5,18,-99.99,,,0.00,0,rob ver 1B,2013-12-29 03:20:00,
2013-12-28 20:21:00,57.0,14.7,29.59,NW,304,4.7,5.4,18,-99.99,,,0.00,0,rob ver 1B,2013-12-29 03:21:00,
2013-12-28 20:22:00,57.0,14.7,29.59,NW,304,4.8,5.7,18,-99.99,,,0.00,0,rob ver 1B,2013-12-29 03:22:00,
2013-12-28 20:23:00,57.0,14.6,29.59,NW,305,5.1,6.3,18,-99.99,,,0.00,0,rob ver 1B,2013-12-29 03:23:00,
2013-12-28 20:24:00,57.0,14.6,29.59,NW,307,5.1,5.6,18,-99.99,,,0.00,0,rob ver 1B,2013-12-29 03:24:00,
2013-12-28 20:25:00,56.9,14.6,29.62,NW,308,5.0,6.1,18,-99.99,,,0.00,0,rob ver 1B,2013-12-29 03:25:00,
2013-12-28 20:26:00,56.9,14.6,29.62,NW,308,5.2,6.0,18,-99.99,,,0.00,0,rob ver 1B,2013-12-29 03:26:00,
2013-12-28 20:27:00,56.9,14.6,29.59,NW,307,5.3,6.9,18,-99.99,,,0.00,0,rob ver 1B,2013-12-29 03:27:00,
2013-12-28 20:28:00,56.9,14.6,29.59,NW,306,5.6,6.6,18,-99.99,,,0.00,0,rob ver 1B,2013-12-29 03:28:00,
2013-12-28 20:29:00,56.9,14.6,29.62,NW,306,5.5,6.9,18,-99.99,,,0.00,0,rob ver 1B,2013-12-29 03:29:00,
2013-12-28 20:30:00,56.8,14.7,29.59,NW,305,5.2,6.1,18,-99.99,,,0.00,0,rob ver 1B,2013-12-29 03:30:00,
2013-12-28 20:31:00,56.7,14.7,29.59,WNW,302,5.7,6.7,18,-99.99,,,0.00,0,rob ver 1B,2013-12-29 03:31:00,
2013-12-28 20:32:00,56.7,14.8,29.62,WNW,300,5.3,5.9,18,-99.99,,,0.00,0,rob ver 1B,2013-12-29 03:32:00,
2013-12-28 20:33:00,56.6,14.9,29.62,WNW,294,5.4,5.8,19,-99.99,,,0.00,0,rob ver 1B,2013-12-29 03:33:00,
2013-12-28 20:34:00,56.5,15.1,29.59,West,279,5.2,5.7,19,-99.99,,,0.00,0,rob ver 1B,2013-12-29 03:34:00,
2013-12-28 20:35:00,56.1,15.5,29.62,WSW,258,5.1,5.5,20,-99.99,,,0.00,0,rob ver 1B,2013-12-29 03:35:00,
2013-12-28 20:36:00,55.6,15.7,29.62,WSW,254,5.6,6.5,20,-99.99,,,0.00,0,rob ver 1B,2013-12-29 03:36:00,
2013-12-28 20:37:00,55.2,15.3,29.62,West,259,6.0,6.7,20,-99.99,,,0.00,0,rob ver 1B,2013-12-29 03:37:00,
2013-12-28 20:38:00,55.3,15.0,29.62,West,266,6.3,7.2,20,-99.99,,,0.00,0,rob ver 1B,2013-12-29 03:38:00,
2013-12-28 20:39:00,55.5,15.0,29.62,West,275,6.6,8.4,19,-99.99,,,0.00,0,rob ver 1B,2013-12-29 03:39:00,
2013-12-28 20:40:00,55.6,14.9,29.62,West,281,6.8,7.7,19,-99.99,,,0.00,0,rob ver 1B,2013-12-29 03:40:00,
2013-12-28 20:41:00,55.8,14.8,29.62,WNW,282,6.9,8.2,19,-99.99,,,0.00,0,rob ver 1B,2013-12-29 03:41:00,
2013-12-28 20:42:00,56.0,14.7,29.62,WNW,282,7.3,8.7,19,-99.99,,,0.00,0,rob ver 1B,2013-12-29 03:42:00,
2013-12-28 20:43:00,56.1,14.7,29.62,WNW,283,7.3,9.0,19,-99.99,,,0.00,0,rob ver 1B,2013-12-29 03:43:00,
2013-12-28 20:44:00,56.1,15.0,29.62,WNW,283,7.2,9.4,19,-99.99,,,0.00,0,rob ver 1B,2013-12-29 03:44:00,
2013-12-28 20:45:00,56.0,15.0,29.62,WNW,283,7.6,9.2,19,-99.99,,,0.00,0,rob ver 1B,2013-12-29 03:45:00,
2013-12-28 20:46:00,55.8,15.0,29.62,WNW,282,7.0,8.1,19,-99.99,,,0.00,0,rob ver 1B,2013-12-29 03:46:00,
2013-12-28 20:47:00,55.7,15.1,29.62,WNW,284,7.1,8.2,20,-99.99,,,0.00,0,rob ver 1B,2013-12-29 03:47:00,
2013-12-28 20:48:00,55.5,15.1,29.62,WNW,285,7.3,8.4,20,-99.99,,,0.00,0,rob ver 1B,2013-12-29 03:48:00,
2013-12-28 20:49:00,55.5,15.0,29.62,WNW,290,7.8,9.9,19,-99.99,,,0.00,0,rob ver 1B,2013-12-29 03:49:00,
2013-12-28 20:50:00,55.6,14.9,29.62,WNW,290,7.9,9.3,20,-99.99,,,0.00,0,rob ver 1B,2013-12-29 03:50:00,
2013-12-28 20:51:00,55.6,15.1,29.62,WNW,291,7.9,9.2,19,-99.99,,,0.00,0,rob ver 1B,2013-12-29 03:51:00,
2013-12-28 20:52:00,55.5,15.1,29.62,WNW,292,7.7,9.2,19,-99.99,,,0.00,0,rob ver 1B,2013-12-29 03:52:00,
2013-12-28 20:53:00,55.5,15.1,29.62,WNW,295,7.6,8.8,20,-99.99,,,0.00,0,rob ver 1B,2013-12-29 03:53:00,
2013-12-28 20:54:00,55.4,15.1,29.62,WNW,294,7.7,9.0,20,-99.99,,,0.00,0,rob ver 1B,2013-12-29 03:54:00,
2013-12-28 20:55:00,55.3,15.2,29.62,WNW,296,7.7,9.6,20,-99.99,,,0.00,0,rob ver 1B,2013-12-29 03:55:00,
2013-12-28 20:56:00,55.2,15.3,29.62,WNW,294,7.2,8.5,20,-99.99,,,0.00,0,rob ver 1B,2013-12-29 03:56:00,
2013-12-28 20:57:00,55.0,15.4,29.62,WNW,293,7.0,7.8,20,-99.99,,,0.00,0,rob ver 1B,2013-12-29 03:57:00,
2013-12-28 20:58:00,54.9,15.5,29.62,WNW,290,7.2,8.2,20,-99.99,,,0.00,0,rob ver 1B,2013-12-29 03:58:00,
2013-12-28 20:59:00,54.7,15.6,29.62,WNW,291,7.0,8.3,21,-99.99,,,0.00,0,rob ver 1B,2013-12-29 03:59:00,
2013-12-28 21:00:00,54.5,15.6,29.62,WNW,291,6.6,7.5,21,-99.99,,,0.00,0,rob ver 1B,2013-12-29 04:00:00,
2013-12-28 21:01:00,54.3,15.7,29.62,WNW,290,6.8,7.6,21,-99.99,,,0.00,0,rob ver 1B,2013-12-29 04:01:00,
2013-12-28 21:02:00,54.2,15.8,29.62,WNW,291,7.0,7.8,21,-99.99,,,0.00,0,rob ver 1B,2013-12-29 04:02:00,
2013-12-28 21:03:00,54.1,15.8,29.62,WNW,293,7.0,8.0,21,-99.99,,,0.00,0,rob ver 1B,2013-12-29 04:03:00,
2013-12-28 21:04:00,54.1,15.6,29.62,WNW,294,7.6,8.9,21,-99.99,,,0.00,0,rob ver 1B,2013-12-29 04:04:00,
2013-12-28 21:05:00,54.2,15.5,29.62,WNW,294,7.5,8.9,21,-99.99,,,0.00,0,rob ver 1B,2013-12-29 04:05:00,
2013-12-28 21:06:00,54.2,15.6,29.62,WNW,293,7.4,8.7,21,-99.99,,,0.00,0,rob ver 1B,2013-12-29 04:06:00,
2013-12-28 21:07:00,54.2,15.5,29.62,WNW,292,7.3,8.7,21,-99.99,,,0.00,0,rob ver 1B,2013-12-29 04:07:00,
2013-12-28 21:08:00,54.3,15.4,29.62,WNW,293,7.6,8.6,21,-99.99,,,0.00,0,rob ver 1B,2013-12-29 04:08:00,
2013-12-28 21:09:00,54.4,15.4,29.62,WNW,291,8.0,10.0,21,-99.99,,,0.00,0,rob ver 1B,2013-12-29 04:09:00,
2013-12-28 21:10:00,54.5,15.3,29.62,WNW,290,8.3,9.8,20,-99.99,,,0.00,0,rob ver 1B,2013-12-29 04:10:00,
2013-12-28 21:11:00,54.5,15.5,29.62,WNW,288,7.5,8.7,21,-99.99,,,0.00,0,rob ver 1B,2013-12-29 04:11:00,
2013-12-28 21:12:00,54.4,15.5,29.62,WNW,288,7.9,9.5,21,-99.99,,,0.00,0,rob ver 1B,2013-12-29 04:12:00,
2013-12-28 21:13:00,54.3,15.5,29.62,WNW,289,8.2,9.3,21,-99.99,,,0.00,0,rob ver 1B,2013-12-29 04:13:00,
2013-12-28 21:14:00,54.3,15.5,29.62,WNW,288,8.1,9.7,21,-99.99,,,0.00,0,rob ver 1B,2013-12-29 04:14:00,
2013-12-28 21:15:00,54.2,15.5,29.62,WNW,286,8.1,9.2,21,-99.99,,,0.00,0,rob ver 1B,2013-12-29 04:15:00,
2013-12-28 21:16:00,54.2,15.4,29.62,WNW,285,7.9,8.9,21,-99.99,,,0.00,0,rob ver 1B,2013-12-29 04:16:00,
2013-12-28 21:17:00,54.1,15.4,29.62,WNW,285,7.8,9.1,21,-99.99,,,0.00,0,rob ver 1B,2013-12-29 04:17:00,
2013-12-28 21:18:00,54.1,15.5,29.62,WNW,285,7.7,8.8,21,-99.99,,,0.00,0,rob ver 1B,2013-12-29 04:18:00,
2013-12-28 21:19:00,54.0,15.5,29.62,WNW,283,7.9,9.6,21,-99.99,,,0.00,0,rob ver 1B,2013-12-29 04:19:00,
2013-12-28 21:20:00,54.0,15.5,29.62,WNW,283,8.0,9.4,21,-99.99,,,0.00,0,rob ver 1B,2013-12-29 04:20:00,
2013-12-28 21:21:00,53.9,15.6,29.62,West,280,7.9,8.9,21,-99.99,,,0.00,0,rob ver 1B,2013-12-29 04:21:00,
2013-12-28 21:22:00,53.7,15.7,29.62,West,276,7.7,8.9,22,-99.99,,,0.00,0,rob ver 1B,2013-12-29 04:22:00,
2013-12-28 21:23:00,53.5,15.8,29.62,West,275,7.9,9.0,22,-99.99,,,0.00,0,rob ver 1B,2013-12-29 04:23:00,
2013-12-28 21:24:00,53.3,16.0,29.62,West,277,7.7,8.9,22,-99.99,,,0.00,0,rob ver 1B,2013-12-29 04:24:00,
2013-12-28 21:25:00,53.1,16.1,29.62,West,280,7.8,9.0,22,-99.99,,,0.00,0,rob ver 1B,2013-12-29 04:25:00,
2013-12-28 21:26:00,52.9,16.0,29.62,West,281,8.1,9.4,22,-99.99,,,0.00,0,rob ver 1B,2013-12-29 04:26:00,
2013-12-28 21:27:00,52.9,16.0,29.62,West,281,8.2,9.2,22,-99.99,,,0.00,0,rob ver 1B,2013-12-29 04:27:00,
2013-12-28 21:28:00,52.8,16.0,29.62,West,281,8.0,10.0,22,-99.99,,,0.00,0,rob ver 1B,2013-12-29 04:28:00,
2013-12-28 21:29:00,52.8,15.9,29.62,WNW,284,8.5,10.4,22,-99.99,,,0.00,0,rob ver 1B,2013-12-29 04:29:00,
2013-12-28 21:30:00,52.8,15.8,29.62,WNW,287,8.7,10.0,22,-99.99,,,0.00,0,rob ver 1B,2013-12-29 04:30:00,
2013-12-28 21:31:00,52.8,15.8,29.62,WNW,290,8.7,10.1,22,-99.99,,,0.00,0,rob ver 1B,2013-12-29 04:31:00,
2013-12-28 21:32:00,52.8,15.8,29.62,WNW,292,8.5,10.2,22,-99.99,,,0.00,0,rob ver 1B,2013-12-29 04:32:00,
2013-12-28 21:33:00,53.0,15.6,29.62,WNW,293,8.6,10.0,22,-99.99,,,0.00,0,rob ver 1B,2013-12-29 04:33:00,
2013-12-28 21:34:00,53.2,15.4,29.62,WNW,296,8.7,10.3,22,-99.99,,,0.00,0,rob ver 1B,2013-12-29 04:34:00,
2013-12-28 21:35:00,53.3,15.4,29.62,WNW,298,8.2,9.8,22,-99.99,,,0.00,0,rob ver 1B,2013-12-29 04:35:00,
2013-12-28 21:36:00,53.4,15.4,29.62,WNW,299,8.0,9.7,22,-99.99,,,0.00,0,rob ver 1B,2013-12-29 04:36:00,
2013-12-28 21:37:00,53.4,15.3,29.62,WNW,300,8.4,10.5,21,-99.99,,,0.00,0,rob ver 1B,2013-12-29 04:37:00,
2013-12-28 21:38:00,53.5,15.2,29.62,WNW,302,8.8,10.1,21,-99.99,,,0.00,0,rob ver 1B,2013-12-29 04:38:00,
2013-12-28 21:39:00,53.6,15.2,29.62,WNW,303,9.1,10.6,21,-99.99,,,0.00,0,rob ver 1B,2013-12-29 04:39:00,
2013-12-28 21:40:00,53.6,15.0,29.62,WNW,302,8.9,10.4,21,-99.99,,,0.00,0,rob ver 1B,2013-12-29 04:40:00,
2013-12-28 21:41:00,53.7,14.9,29.62,WNW,303,9.3,11.0,21,-99.99,,,0.00,0,rob ver 1B,2013-12-29 04:41:00,
2013-12-28 21:42:00,53.8,14.9,29.62,WNW,301,8.6,9.9,21,-99.99,,,0.00,0,rob ver 1B,2013-12-29 04:42:00,
2013-12-28 21:43:00,53.8,14.8,29.62,WNW,303,9.6,11.1,20,-99.99,,,0.00,0,rob ver 1B,2013-12-29 04:43:00,
2013-12-28 21:44:00,53.9,14.8,29.62,WNW,301,9.1,11.4,20,-99.99,,,0.00,0,rob ver 1B,2013-12-29 04:44:00,
2013-12-28 21:45:00,54.0,14.6,29.62,WNW,303,9.6,11.6,20,-99.99,,,0.00,0,rob ver 1B,2013-12-29 04:45:00,
2013-12-28 21:46:00,54.1,14.6,29.62,NW,304,9.6,10.7,20,-99.99,,,0.00,0,rob ver 1B,2013-12-29 04:46:00,
2013-12-28 21:47:00,54.2,14.5,29.62,WNW,303,9.6,11.1,20,-99.99,,,0.00,0,rob ver 1B,2013-12-29 04:47:00,
2013-12-28 21:48:00,54.2,14.4,29.62,NW,304,9.7,11.9,20,-99.99,,,0.00,0,rob ver 1B,2013-12-29 04:48:00,
2013-12-28 21:49:00,54.4,14.3,29.62,NW,306,10.6,12.2,19,-99.99,,,0.00,0,rob ver 1B,2013-12-29 04:49:00,
2013-12-28 21:50:00,54.5,14.2,29.62,NW,304,10.5,12.5,19,-99.99,,,0.00,0,rob ver 1B,2013-12-29 04:50:00,
2013-12-28 21:51:00,54.6,14.1,29.62,NW,304,11.0,12.7,19,-99.99,,,0.00,0,rob ver 1B,2013-12-29 04:51:00,
2013-12-28 21:52:00,54.8,13.9,29.62,NW,306,12.0,14.5,19,-99.99,,,0.00,0,rob ver 1B,2013-12-29 04:52:00,
2013-12-28 21:53:00,55.0,13.9,29.62,NW,305,11.0,12.8,19,-99.99,,,0.00,0,rob ver 1B,2013-12-29 04:53:00,
2013-12-28 21:54:00,55.0,13.8,29.62,NW,306,11.4,13.4,19,-99.99,,,0.00,0,rob ver 1B,2013-12-29 04:54:00,
2013-12-28 21:55:00,55.2,13.7,29.62,NW,307,11.7,13.8,18,-99.99,,,0.00,0,rob ver 1B,2013-12-29 04:55:00,
2013-12-28 21:56:00,55.4,13.5,29.62,NW,308,12.6,15.3,18,-99.99,,,0.00,0,rob ver 1B,2013-12-29 04:56:00,
2013-12-28 21:57:00,55.5,13.5,29.62,NW,309,11.7,14.0,18,-99.99,,,0.00,0,rob ver 1B,2013-12-29 04:57:00,
2013-12-28 21:58:00,55.6,13.5,29.62,NW,308,11.8,14.1,18,-99.99,,,0.00,0,rob ver 1B,2013-12-29 04:58:00,
2013-12-28 21:59:00,55.7,13.4,29.62,NW,309,12.2,15.7,18,-99.99,,,0.00,0,rob ver 1B,2013-12-29 04:59:00,
2013-12-28 22:00:00,55.7,13.5,29.62,NW,309,11.2,13.2,18,-99.99,,,0.00,0,rob ver 1B,2013-12-29 05:00:00,
2013-12-28 22:01:00,55.7,13.3,29.62,NW,309,12.1,14.3,18,-99.99,,,0.00,0,rob ver 1B,2013-12-29 05:01:00,
2013-12-28 22:02:00,55.8,13.3,29.62,NW,308,11.2,13.2,18,-99.99,,,0.00,0,rob ver 1B,2013-12-29 05:02:00,
2013-12-28 22:03:00,55.9,13.2,29.62,NW,310,13.0,15.5,18,-99.99,,,0.00,0,rob ver 1B,2013-12-29 05:03:00,
2013-12-28 22:04:00,56.0,13.2,29.62,NW,309,12.4,14.1,18,-99.99,,,0.00,0,rob ver 1B,2013-12-29 05:04:00,
2013-12-28 22:05:00,56.0,13.2,29.62,NW,309,12.6,16.6,17,-99.99,,,0.00,0,rob ver 1B,2013-12-29 05:05:00,
2013-12-28 22:06:00,56.1,13.0,29.62,NW,310,13.4,16.1,17,-99.99,,,0.00,0,rob ver 1B,2013-12-29 05:06:00,
2013-12-28 22:07:00,56.2,13.0,29.62,NW,311,13.4,15.4,17,-99.99,,,0.00,0,rob ver 1B,2013-12-29 05:07:00,
2013-12-28 22:08:00,56.3,13.1,29.62,NW,310,12.5,14.6,17,-99.99,,,0.00,0,rob ver 1B,2013-12-29 05:08:00,
2013-12-28 22:09:00,56.2,13.1,29.62,NW,310,11.9,13.9,17,-99.99,,,0.00,0,rob ver 1B,2013-12-29 05:09:00,
2013-12-28 22:10:00,56.1,13.1,29.62,NW,309,12.5,15.0,17,-99.99,,,0.00,0,rob ver 1B,2013-12-29 05:10:00,
2013-12-28 22:11:00,56.1,13.0,29.62,NW,310,13.5,16.9,17,-99.99,,,0.00,0,rob ver 1B,2013-12-29 05:11:00,
2013-12-28 22:12:00,56.2,13.0,29.62,NW,310,13.5,15.7,17,-99.99,,,0.00,0,rob ver 1B,2013-12-29 05:12:00,
2013-12-28 22:13:00,56.2,13.1,29.62,NW,310,12.5,14.3,18,-99.99,,,0.00,0,rob ver 1B,2013-12-29 05:13:00,
2013-12-28 22:14:00,56.0,13.1,29.62,NW,308,13.2,16.6,17,-99.99,,,0.00,0,rob ver 1B,2013-12-29 05:14:00,
2013-12-28 22:15:00,56.0,13.1,29.62,NW,308,12.6,14.8,18,-99.99,,,0.00,0,rob ver 1B,2013-12-29 05:15:00,
2013-12-28 22:16:00,55.9,13.2,29.62,NW,307,11.5,13.6,18,-99.99,,,0.00,0,rob ver 1B,2013-12-29 05:16:00,
2013-12-28 22:17:00,55.8,13.2,29.62,NW,304,11.9,14.5,18,-99.99,,,0.00,0,rob ver 1B,2013-12-29 05:17:00,
2013-12-28 22:18:00,55.8,13.0,29.62,WNW,303,12.4,14.2,18,-99.99,,,0.00,0,rob ver 1B,2013-12-29 05:18:00,
2013-12-28 22:19:00,55.8,13.1,29.62,WNW,301,11.1,13.7,18,-99.99,,,0.00,0,rob ver 1B,2013-12-29 05:19:00,
2013-12-28 22:20:00,55.7,13.2,29.62,WNW,301,10.7,13.2,18,-99.99,,,0.00,0,rob ver 1B,2013-12-29 05:20:00,
2013-12-28 22:21:00,55.5,13.3,29.62,WNW,300,10.6,12.0,18,-99.99,,,0.00,0,rob ver 1B,2013-12-29 05:21:00,
2013-12-28 22:22:00,55.4,13.3,29.62,WNW,300,10.8,12.1,18,-99.99,,,0.00,0,rob ver 1B,2013-12-29 05:22:00,
2013-12-28 22:23:00,55.3,13.4,29.62,WNW,300,9.9,11.6,18,-99.99,,,0.00,0,rob ver 1B,2013-12-29 05:23:00,
2013-12-28 22:24:00,55.1,13.3,29.62,WNW,298,10.5,12.5,18,-99.99,,,0.00,0,rob ver 1B,2013-12-29 05:24:00,
2013-12-28 22:25:00,55.1,13.4,29.62,WNW,298,10.9,12.7,18,-99.99,,,0.00,0,rob ver 1B,2013-12-29 05:25:00,
2013-12-28 22:26:00,55.1,13.3,29.62,WNW,299,11.3,13.2,18,-99.99,,,0.00,0,rob ver 1B,2013-12-29 05:26:00,
2013-12-28 22:27:00,55.1,13.3,29.62,WNW,300,11.3,13.3,18,-99.99,,,0.00,0,rob ver 1B,2013-12-29 05:27:00,
2013-12-28 22:28:00,55.0,13.3,29.62,WNW,300,10.8,12.7,18,-99.99,,,0.00,0,rob ver 1B,2013-12-29 05:28:00,
2013-12-28 22:29:00,55.0,13.3,29.62,WNW,300,11.2,13.3,19,-99.99,,,0.00,0,rob ver 1B,2013-12-29 05:29:00,
2013-12-28 22:30:00,54.9,13.4,29.62,WNW,300,10.8,13.0,18,-99.99,,,0.00,0,rob ver 1B,2013-12-29 05:30:00,
2013-12-28 22:31:00,54.8,13.4,29.62,WNW,301,11.1,13.7,18,-99.99,,,0.00,0,rob ver 1B,2013-12-29 05:31:00,
2013-12-28 22:32:00,54.8,13.2,29.62,WNW,303,11.3,12.6,19,-99.99,,,0.00,0,rob ver 1B,2013-12-29 05:32:00,
2013-12-28 22:33:00,54.8,13.2,29.62,WNW,303,11.6,14.1,18,-99.99,,,0.00,0,rob ver 1B,2013-12-29 05:33:00,
2013-12-28 22:34:00,54.8,13.2,29.62,WNW,303,10.9,12.9,19,-99.99,,,0.00,0,rob ver 1B,2013-12-29 05:34:00,
2013-12-28 22:35:00,54.8,13.1,29.62,NW,304,12.2,14.2,18,-99.99,,,0.00,0,rob ver 1B,2013-12-29 05:35:00,
2013-12-28 22:36:00,54.8,13.0,29.62,NW,305,12.2,14.6,18,-99.99,,,0.00,0,rob ver 1B,2013-12-29 05:36:00,
2013-12-28 22:37:00,55.0,12.9,29.62,NW,306,13.5,16.0,18,-99.99,,,0.00,0,rob ver 1B,2013-12-29 05:37:00,
2013-12-28 22:38:00,55.2,12.7,29.62,NW,305,14.2,18.7,18,-99.99,,,0.00,0,rob ver 1B,2013-12-29 05:38:00,
2013-12-28 22:39:00,55.2,12.7,29.62,NW,304,14.4,17.2,18,-99.99,,,0.00,0,rob ver 1B,2013-12-29 05:39:00,
2013-12-28 22:40:00,55.3,12.6,29.62,NW,305,14.8,17.9,18,-99.99,,,0.00,0,rob ver 1B,2013-12-29 05:40:00,
2013-12-28 22:41:00,55.4,12.6,29.62,NW,306,14.4,17.6,17,-99.99,,,0.00,0,rob ver 1B,2013-12-29 05:41:00,
2013-12-28 22:42:00,55.4,12.6,29.62,NW,305,14.0,16.1,17,-99.99,,,0.00,0,rob ver 1B,2013-12-29 05:42:00,
2013-12-28 22:43:00,55.4,12.6,29.62,NW,305,13.6,16.1,18,-99.99,,,0.00,0,rob ver 1B,2013-12-29 05:43:00,
2013-12-28 22:44:00,55.4,12.5,29.62,NW,307,14.7,17.5,17,-99.99,,,0.00,0,rob ver 1B,2013-12-29 05:44:00,
2013-12-28 22:45:00,55.4,12.4,29.62,NW,306,14.7,18.0,17,-99.99,,,0.00,0,rob ver 1B,2013-12-29 05:45:00,
2013-12-28 22:46:00,55.5,12.5,29.62,NW,307,14.1,16.8,17,-99.99,,,0.00,0,rob ver 1B,2013-12-29 05:46:00,
2013-12-28 22:47:00,55.4,12.5,29.62,NW,305,13.5,18.1,17,-99.99,,,0.00,0,rob ver 1B,2013-12-29 05:47:00,
2013-12-28 22:48:00,55.4,12.5,29.62,NW,306,13.4,15.2,17,-99.99,,,0.00,0,rob ver 1B,2013-12-29 05:48:00,
2013-12-28 22:49:00,55.3,12.5,29.62,NW,306,13.6,15.5,18,-99.99,,,0.00,0,rob ver 1B,2013-12-29 05:49:00,
2013-12-28 22:50:00,55.3,12.5,29.62,NW,306,13.6,15.6,18,-99.99,,,0.00,0,rob ver 1B,2013-12-29 05:50:00,
2013-12-28 22:51:00,55.2,12.4,29.62,NW,306,14.4,17.4,17,-99.99,,,0.00,0,rob ver 1B,2013-12-29 05:51:00,
2013-12-28 22:52:00,55.4,12.3,29.62,NW,307,14.3,17.6,17,-99.99,,,0.00,0,rob ver 1B,2013-12-29 05:52:00,
2013-12-28 22:53:00,55.5,12.2,29.62,NW,307,15.4,18.3,17,-99.99,,,0.00,0,rob ver 1B,2013-12-29 05:53:00,
2013-12-28 22:54:00,55.6,12.1,29.62,NW,307,14.6,18.4,17,-99.99,,,0.00,0,rob ver 1B,2013-12-29 05:54:00,
2013-12-28 22:55:00,55.6,12.1,29.62,NW,307,14.1,16.0,17,-99.99,,,0.00,0,rob ver 1B,2013-12-29 05:55:00,
2013-12-28 22:56:00,55.6,12.1,29.62,NW,307,13.7,17.6,17,-99.99,,,0.00,0,rob ver 1B,2013-12-29 05:56:00,
2013-12-28 22:57:00,55.5,12.1,29.62,NW,306,14.1,16.9,17,-99.99,,,0.00,0,rob ver 1B,2013-12-29 05:57:00,
2013-12-28 22:58:00,55.5,12.2,29.62,NW,307,13.1,15.5,17,-99.99,,,0.00,0,rob ver 1B,2013-12-29 05:58:00,
2013-12-28 22:59:00,55.4,12.2,29.62,NW,307,12.4,15.5,17,-99.99,,,0.00,0,rob ver 1B,2013-12-29 05:59:00,
2013-12-28 23:00:00,55.3,12.2,29.62,NW,307,12.7,14.6,17,-99.99,,,0.00,0,rob ver 1B,2013-12-29 06:00:00,
2013-12-28 23:01:00,55.3,12.0,29.62,NW,308,14.9,17.7,17,-99.99,,,0.00,0,rob ver 1B,2013-12-29 06:01:00,
2013-12-28 23:02:00,55.5,12.1,29.62,NW,305,14.2,17.1,17,-99.99,,,0.00,0,rob ver 1B,2013-12-29 06:02:00,
2013-12-28 23:03:00,55.4,12.1,29.62,NW,306,14.0,17.3,17,-99.99,,,0.00,0,rob ver 1B,2013-12-29 06:03:00,
2013-12-28 23:04:00,55.3,12.2,29.62,NW,305,12.8,15.8,17,-99.99,,,0.00,0,rob ver 1B,2013-12-29 06:04:00,
2013-12-28 23:05:00,55.2,12.2,29.62,NW,304,14.1,17.1,17,-99.99,,,0.00,0,rob ver 1B,2013-12-29 06:05:00,
2013-12-28 23:06:00,55.2,12.2,29.62,NW,305,13.4,16.2,17,-99.99,,,0.00,0,rob ver 1B,2013-12-29 06:06:00,
2013-12-28 23:07:00,55.1,12.2,29.62,NW,304,13.7,16.1,17,-99.99,,,0.00,0,rob ver 1B,2013-12-29 06:07:00,
2013-12-28 23:08:00,55.1,12.2,29.62,WNW,303,14.1,17.5,17,-99.99,,,0.00,0,rob ver 1B,2013-12-29 06:08:00,
2013-12-28 23:09:00,55.1,12.3,29.62,WNW,302,13.0,15.7,18,-99.99,,,0.00,0,rob ver 1B,2013-12-29 06:09:00,
2013-12-28 23:10:00,54.9,12.4,29.62,WNW,299,12.2,13.9,18,-99.99,,,0.00,0,rob ver 1B,2013-12-29 06:10:00,
2013-12-28 23:11:00,54.7,12.4,29.62,WNW,301,13.1,15.9,18,-99.99,,,0.00,0,rob ver 1B,2013-12-29 06:11:00,
2013-12-28 23:12:00,54.7,12.4,29.62,WNW,302,12.8,15.4,18,-99.99,,,0.00,0,rob ver 1B,2013-12-29 06:12:00,
2013-12-28 23:13:00,54.6,12.4,29.62,WNW,302,11.8,13.3,18,-99.99,,,0.00,0,rob ver 1B,2013-12-29 06:13:00,
2013-12-28 23:14:00,54.5,12.5,29.62,WNW,301,12.0,15.0,18,-99.99,,,0.00,0,rob ver 1B,2013-12-29 06:14:00,
2013-12-28 23:15:00,54.4,12.4,29.62,WNW,302,13.5,16.4,18,-99.99,,,0.00,0,rob ver 1B,2013-12-29 06:15:00,
2013-12-28 23:16:00,54.5,12.4,29.62,WNW,302,12.4,14.6,18,-99.99,,,0.00,0,rob ver 1B,2013-12-29 06:16:00,
2013-12-28 23:17:00,54.4,12.4,29.62,NW,304,12.6,15.5,18,-99.99,,,0.00,0,rob ver 1B,2013-12-29 06:17:00,
2013-12-28 23:18:00,54.5,12.3,29.62,WNW,303,13.2,15.6,18,-99.99,,,0.00,0,rob ver 1B,2013-12-29 06:18:00,
2013-12-28 23:19:00,54.5,12.5,29.62,WNW,302,11.4,13.9,18,-99.99,,,0.00,0,rob ver 1B,2013-12-29 06:19:00,
2013-12-28 23:20:00,54.3,12.5,29.62,WNW,301,11.7,14.1,18,-99.99,,,0.00,0,rob ver 1B,2013-12-29 06:20:00,
2013-12-28 23:21:00,54.2,12.4,29.62,WNW,302,12.5,14.5,18,-99.99,,,0.00,0,rob ver 1B,2013-12-29 06:21:00,
2013-12-28 23:22:00,54.2,12.3,29.62,WNW,301,13.8,16.4,18,-99.99,,,0.00,0,rob ver 1B,2013-12-29 06:22:00,
2013-12-28 23:23:00,54.3,12.3,29.62,NW,304,12.9,15.6,18,-99.99,,,0.00,0,rob ver 1B,2013-12-29 06:23:00,
2013-12-28 23:24:00,54.3,12.3,29.62,NW,304,13.0,16.2,18,-99.99,,,0.00,0,rob ver 1B,2013-12-29 06:24:00,
2013-12-28 23:25:00,54.2,12.3,29.62,WNW,303,12.9,16.5,18,-99.99,,,0.00,0,rob ver 1B,2013-12-29 06:25:00,
2013-12-28 23:26:00,54.3,12.3,29.62,WNW,302,13.3,16.6,18,-99.99,,,0.00,0,rob ver 1B,2013-12-29 06:26:00,
2013-12-28 23:27:00,54.3,12.3,29.62,WNW,303,13.1,16.2,18,-99.99,,,0.00,0,rob ver 1B,2013-12-29 06:27:00,
2013-12-28 23:28:00,54.3,12.2,29.62,WNW,302,12.7,15.1,18,-99.99,,,0.00,0,rob ver 1B,2013-12-29 06:28:00,
2013-12-28 23:29:00,54.3,12.2,29.62,WNW,303,13.4,15.3,18,-99.99,,,0.00,0,rob ver 1B,2013-12-29 06:29:00,
2013-12-28 23:30:00,54.3,12.2,29.62,WNW,302,14.0,17.1,18,-99.99,,,0.00,0,rob ver 1B,2013-12-29 06:30:00,
2013-12-28 23:31:00,54.4,12.2,29.62,WNW,302,12.8,15.8,18,-99.99,,,0.00,0,rob ver 1B,2013-12-29 06:31:00,
2013-12-28 23:32:00,54.2,12.2,29.62,WNW,303,13.3,16.3,18,-99.99,,,0.00,0,rob ver 1B,2013-12-29 06:32:00,
2013-12-28 23:33:00,54.2,12.2,29.62,WNW,302,13.2,15.3,18,-99.99,,,0.00,0,rob ver 1B,2013-12-29 06:33:00,
2013-12-28 23:34:00,54.2,12.1,29.62,WNW,303,14.1,16.8,18,-99.99,,,0.00,0,rob ver 1B,2013-12-29 06:34:00,
2013-12-28 23:35:00,54.2,12.1,29.62,WNW,302,13.4,16.2,18,-99.99,,,0.00,0,rob ver 1B,2013-12-29 06:35:00,
2013-12-28 23:36:00,54.3,12.1,29.62,WNW,303,13.0,16.5,18,-99.99,,,0.00,0,rob ver 1B,2013-12-29 06:36:00,
2013-12-28 23:37:00,54.2,12.2,29.62,WNW,301,11.8,13.4,18,-99.99,,,0.00,0,rob ver 1B,2013-12-29 06:37:00,
2013-12-28 23:38:00,54.0,12.2,29.62,WNW,300,12.5,16.2,18,-99.99,,,0.00,0,rob ver 1B,2013-12-29 06:38:00,
2013-12-28 23:39:00,54.0,12.1,29.62,WNW,299,13.6,16.1,18,-99.99,,,0.00,0,rob ver 1B,2013-12-29 06:39:00,
2013-12-28 23:40:00,54.1,12.1,29.62,WNW,297,12.8,15.9,18,-99.99,,,0.00,0,rob ver 1B,2013-12-29 06:40:00,
2013-12-28 23:41:00,54.0,12.1,29.62,WNW,299,11.9,14.4,18,-99.99,,,0.00,0,rob ver 1B,2013-12-29 06:41:00,
2013-12-28 23:42:00,54.0,12.0,29.62,WNW,299,12.4,14.7,18,-99.99,,,0.00,0,rob ver 1B,2013-12-29 06:42:00,
2013-12-28 23:43:00,54.0,11.9,29.62,WNW,298,12.5,15.4,18,-99.99,,,0.00,0,rob ver 1B,2013-12-29 06:43:00,
2013-12-28 23:44:00,54.0,11.9,29.62,WNW,298,12.2,14.5,18,-99.99,,,0.00,0,rob ver 1B,2013-12-29 06:44:00,
2013-12-28 23:45:00,54.0,12.0,29.62,WNW,299,11.6,13.9,18,-99.99,,,0.00,0,rob ver 1B,2013-12-29 06:45:00,
2013-12-28 23:46:00,54.0,11.8,29.62,WNW,300,12.9,14.9,18,-99.99,,,0.00,0,rob ver 1B,2013-12-29 06:46:00,
2013-12-28 23:47:00,54.0,11.9,29.62,WNW,302,13.0,16.4,18,-99.99,,,0.00,0,rob ver 1B,2013-12-29 06:47:00,
2013-12-28 23:48:00,54.0,11.7,29.62,WNW,303,13.3,15.5,18,-99.99,,,0.00,0,rob ver 1B,2013-12-29 06:48:00,
2013-12-28 23:49:00,54.1,11.8,29.62,WNW,302,11.9,15.1,18,-99.99,,,0.00,0,rob ver 1B,2013-12-29 06:49:00,
2013-12-28 23:50:00,54.1,11.6,29.62,WNW,303,13.6,15.9,17,-99.99,,,0.00,0,rob ver 1B,2013-12-29 06:50:00,
2013-12-28 23:51:00,54.2,11.6,29.62,WNW,302,13.3,15.8,17,-99.99,,,0.00,0,rob ver 1B,2013-12-29 06:51:00,
2013-12-28 23:52:00,54.3,11.6,29.62,WNW,300,13.6,16.7,17,-99.99,,,0.00,0,rob ver 1B,2013-12-29 06:52:00,
2013-12-28 23:53:00,54.2,11.6,29.62,WNW,301,13.1,16.8,17,-99.99,,,0.00,0,rob ver 1B,2013-12-29 06:53:00,
2013-12-28 23:54:00,54.2,11.5,29.62,WNW,300,13.5,15.9,17,-99.99,,,0.00,0,rob ver 1B,2013-12-29 06:54:00,
2013-12-28 23:55:00,54.3,11.3,29.62,WNW,301,14.5,18.3,17,-99.99,,,0.00,0,rob ver 1B,2013-12-29 06:55:00,
2013-12-28 23:56:00,54.4,11.3,29.62,WNW,300,13.6,16.4,17,-99.99,,,0.00,0,rob ver 1B,2013-12-29 06:56:00,
2013-12-28 23:57:00,54.5,11.1,29.62,NW,304,15.1,17.6,17,-99.99,,,0.00,0,rob ver 1B,2013-12-29 06:57:00,
2013-12-28 23:58:00,54.6,11.0,29.62,WNW,302,14.7,18.5,17,-99.99,,,0.00,0,rob ver 1B,2013-12-29 06:58:00,
2013-12-28 23:59:00,54.7,11.1,29.62,WNW,303,13.8,18.7,17,-99.99,,,0.00,0,rob ver 1B,2013-12-29 06:59:00,